MYDAX CHILLER For M1 mirror 
            

Key: (Temperatures in Centigrade) 
A) System is ON or OFF
B) Actual Tank Temperature as sensed by the Output RTD                   
C) Set point Temperature 
D) Calculated temperature of the refrigerant line at the suction pressure transducer
E) Pressure in PSIg of the refrigerant line at the suction pressure transducer
F & G) Temperature in the refrigerant line at the Superheat and Condenser RTDs
H) Temperature in the refrigerant line at the Discharge RTD (2-stage design only)
I) Temperature in the refrigerant line at the Subcooler RTD (inactive)
J) Valve drives of evaporator 

----------- DATE ----------: A    B     C     D     E    F    G    H   I J

 last update: Tue Jan 16 05:44:51 PST 2018
Tue Jan 16 05:44:44 PST 2018 ON: 20.00 +20.0 20.05 -15.7 27.2 16.8 31.2 8 9 Alarm State:  0
Tue Jan 16 05:43:43 PST 2018 ON: 20.00 +20.0 20.05 -15.7 27.2 16.8 31.2 8 10 Alarm State:  0
Tue Jan 16 05:42:41 PST 2018 ON: 19.99 +20.0 20.05 -15.7 27.1 16.9 31.2 8 10 Alarm State:  0
Tue Jan 16 05:41:40 PST 2018 ON: 19.99 +20.0 20.02 -15.5 27.4 16.7 31.3 8 10 Alarm State:  0
Tue Jan 16 05:40:38 PST 2018 ON: 20.00 +20.0 20.06 -15.7 27.2 16.8 31.3 8 9 Alarm State:  0
Tue Jan 16 05:39:37 PST 2018 ON: 20.00 +20.0 20.06 -15.7 27.2 16.8 31.2 8 9 Alarm State:  0
Tue Jan 16 05:38:35 PST 2018 ON: 20.00 +20.0 20.04 -15.4 27.6 16.5 31.4 7 10 Alarm State:  0
Tue Jan 16 05:37:34 PST 2018 ON: 19.99 +20.0 20.04 -15.5 27.5 16.6 31.4 8 10 Alarm State:  0
Tue Jan 16 05:36:32 PST 2018 ON: 20.00 +20.0 20.04 -15.7 27.2 16.8 31.2 8 10 Alarm State:  0
Tue Jan 16 05:35:31 PST 2018 ON: 19.99 +20.0 20.05 -15.6 27.3 16.8 31.3 7 10 Alarm State:  0
Tue Jan 16 05:34:29 PST 2018 ON: 19.99 +20.0 20.03 -15.6 27.3 16.8 31.3 8 10 Alarm State:  0
Tue Jan 16 05:33:28 PST 2018 ON: 20.00 +20.0 20.04 -15.8 27.0 16.9 31.2 8 10 Alarm State:  0
Tue Jan 16 05:32:26 PST 2018 ON: 19.99 +20.0 20.04 -15.6 27.3 16.8 31.3 7 10 Alarm State:  0
Tue Jan 16 05:31:25 PST 2018 ON: 20.00 +20.0 20.04 -15.5 27.5 16.6 31.4 8 10 Alarm State:  0
Tue Jan 16 05:30:23 PST 2018 ON: 20.00 +20.0 20.05 -15.7 27.2 16.8 31.3 8 10 Alarm State:  0
Tue Jan 16 05:29:22 PST 2018 ON: 19.99 +20.0 20.03 -15.5 27.4 16.7 31.2 8 10 Alarm State:  0
Tue Jan 16 05:28:20 PST 2018 ON: 20.00 +20.0 20.05 -15.5 27.4 16.7 31.4 8 9 Alarm State:  0
Tue Jan 16 05:27:19 PST 2018 ON: 20.00 +20.0 20.06 -15.7 27.1 16.9 31.2 7 9 Alarm State:  0
Tue Jan 16 05:26:17 PST 2018 ON: 19.99 +20.0 20.06 -15.6 27.3 16.8 31.3 8 9 Alarm State:  0
Tue Jan 16 05:25:16 PST 2018 ON: 19.99 +20.0 20.04 -15.7 27.1 16.9 31.2 8 9 Alarm State:  0
Tue Jan 16 05:24:14 PST 2018 ON: 20.00 +20.0 20.04 -15.7 27.1 16.9 31.2 7 9 Alarm State:  0
Tue Jan 16 05:23:13 PST 2018 ON: 20.00 +20.0 20.05 -15.5 27.4 16.7 31.3 8 9 Alarm State:  0
Tue Jan 16 05:22:11 PST 2018 ON: 20.00 +20.0 20.06 -15.6 27.3 16.8 31.2 8 10 Alarm State:  0
Tue Jan 16 05:21:10 PST 2018 ON: 19.99 +20.0 20.04 -15.7 27.2 16.8 31.3 8 10 Alarm State:  0
Tue Jan 16 05:20:08 PST 2018 ON: 19.99 +20.0 20.05 -15.8 27.0 16.9 31.2 8 9 Alarm State:  0
Tue Jan 16 05:19:07 PST 2018 ON: 20.01 +20.0 20.06 -15.8 27.0 16.9 31.2 7 9 Alarm State:  0
Tue Jan 16 05:18:05 PST 2018 ON: 20.00 +20.0 20.07 -15.3 27.7 16.5 31.4 8 9 Alarm State:  0
Tue Jan 16 05:17:04 PST 2018 ON: 19.99 +20.0 20.05 -15.4 27.6 16.5 31.3 8 10 Alarm State:  0
Tue Jan 16 05:16:02 PST 2018 ON: 19.99 +20.0 20.04 -15.7 27.2 16.8 31.3 7 10 Alarm State:  0
Tue Jan 16 05:15:01 PST 2018 ON: 20.00 +20.0 20.05 -15.7 27.1 16.9 31.3 8 9 Alarm State:  0
Tue Jan 16 05:13:59 PST 2018 ON: 20.00 +20.0 20.03 -15.5 27.4 16.7 31.3 8 11 Alarm State:  0
Tue Jan 16 05:12:58 PST 2018 ON: 19.99 +20.0 20.04 -15.6 27.3 16.8 31.3 8 10 Alarm State:  0
Tue Jan 16 05:11:56 PST 2018 ON: 20.00 +20.0 20.06 -15.8 27.0 16.9 31.2 8 9 Alarm State:  0
Tue Jan 16 05:10:55 PST 2018 ON: 19.99 +20.0 20.06 -15.7 27.2 16.8 31.3 7 9 Alarm State:  0
Tue Jan 16 05:09:53 PST 2018 ON: 19.99 +20.0 20.03 -15.5 27.5 16.6 31.3 7 10 Alarm State:  0
Tue Jan 16 05:08:52 PST 2018 ON: 20.00 +20.0 20.05 -15.7 27.2 16.8 31.2 7 9 Alarm State:  0
Tue Jan 16 05:07:50 PST 2018 ON: 19.99 +20.0 20.04 -15.8 27.0 16.9 31.2 7 10 Alarm State:  0
Tue Jan 16 05:06:49 PST 2018 ON: 19.99 +20.0 20.04 -15.6 27.3 16.8 31.3 8 9 Alarm State:  0
Tue Jan 16 05:05:47 PST 2018 ON: 20.00 +20.0 20.05 -15.7 27.1 16.9 31.2 8 9 Alarm State:  0
Tue Jan 16 05:04:46 PST 2018 ON: 19.99 +20.0 20.05 -15.6 27.3 16.8 31.3 8 10 Alarm State:  0
Tue Jan 16 05:03:44 PST 2018 ON: 19.98 +20.0 20.04 -15.7 27.2 16.8 31.3 8 10 Alarm State:  0
Tue Jan 16 05:02:43 PST 2018 ON: 20.00 +20.0 20.05 -15.5 27.5 16.6 31.3 7 9 Alarm State:  0
Tue Jan 16 05:01:42 PST 2018 ON: 20.00 +20.0 20.06 -15.9 26.9 17.0 31.2 8 9 Alarm State:  0
Tue Jan 16 05:00:40 PST 2018 ON: 19.99 +20.0 20.04 -15.6 27.3 16.8 31.3 8 10 Alarm State:  0
Tue Jan 16 04:59:39 PST 2018 ON: 20.00 +20.0 20.05 -15.7 27.2 16.8 31.2 7 10 Alarm State:  0
Tue Jan 16 04:58:37 PST 2018 ON: 19.99 +20.0 20.05 -15.8 27.0 16.9 31.2 8 10 Alarm State:  0
Tue Jan 16 04:57:36 PST 2018 ON: 19.99 +20.0 20.04 -15.8 27.0 16.9 31.2 8 9 Alarm State:  0
Tue Jan 16 04:56:34 PST 2018 ON: 20.00 +20.0 20.05 -15.7 27.2 16.8 31.3 7 9 Alarm State:  0
Tue Jan 16 04:55:33 PST 2018 ON: 20.00 +20.0 20.06 -15.9 26.9 17.0 31.2 8 9 Alarm State:  0
Tue Jan 16 04:54:31 PST 2018 ON: 20.00 +20.0 20.05 -15.7 27.1 16.9 31.3 7 9 Alarm State:  0
Tue Jan 16 04:53:30 PST 2018 ON: 19.99 +20.0 20.03 -15.3 27.8 16.4 31.4 7 10 Alarm State:  0
Tue Jan 16 04:52:28 PST 2018 ON: 19.99 +20.0 20.03 -15.5 27.4 16.7 31.3 8 10 Alarm State:  0
Tue Jan 16 04:51:27 PST 2018 ON: 20.00 +20.0 20.05 -15.8 27.0 16.9 31.2 7 9 Alarm State:  0
Tue Jan 16 04:50:25 PST 2018 ON: 20.00 +20.0 20.05 -15.6 27.3 16.8 31.2 8 10 Alarm State:  0
Tue Jan 16 04:49:24 PST 2018 ON: 19.99 +20.0 20.05 -15.5 27.5 16.6 31.3 8 10 Alarm State:  0
Tue Jan 16 04:48:22 PST 2018 ON: 20.00 +20.0 20.04 -15.5 27.4 16.7 31.3 8 10 Alarm State:  0
Tue Jan 16 04:47:21 PST 2018 ON: 19.99 +20.0 20.04 -15.7 27.1 16.9 31.3 8 10 Alarm State:  0
Tue Jan 16 04:46:19 PST 2018 ON: 20.00 +20.0 20.05 -15.8 27.0 16.9 31.2 7 10 Alarm State:  0
Tue Jan 16 04:45:18 PST 2018 ON: 19.99 +20.0 20.04 -15.7 27.1 16.9 31.3 8 10 Alarm State:  0
Tue Jan 16 04:44:16 PST 2018 ON: 20.00 +20.0 20.03 -15.7 27.2 16.8 31.2 8 10 Alarm State:  0
Tue Jan 16 04:43:15 PST 2018 ON: 20.00 +20.0 20.05 -15.9 26.9 17.0 31.2 8 9 Alarm State:  0
Tue Jan 16 04:42:13 PST 2018 ON: 20.00 +20.0 20.05 -15.6 27.3 16.8 31.3 8 9 Alarm State:  0
Tue Jan 16 04:41:12 PST 2018 ON: 20.00 +20.0 20.04 -15.7 27.2 16.8 31.3 8 10 Alarm State:  0
Tue Jan 16 04:40:10 PST 2018 ON: 20.00 +20.0 20.04 -15.7 27.2 16.8 31.2 8 10 Alarm State:  0
Tue Jan 16 04:39:09 PST 2018 ON: 20.00 +20.0 20.05 -15.7 27.2 16.8 31.3 8 9 Alarm State:  0
Tue Jan 16 04:38:07 PST 2018 ON: 19.99 +20.0 20.05 -15.7 27.2 16.8 31.3 7 9 Alarm State:  0
Tue Jan 16 04:37:06 PST 2018 ON: 20.00 +20.0 20.04 -15.7 27.1 16.9 31.2 8 9 Alarm State:  0
Tue Jan 16 04:36:04 PST 2018 ON: 20.00 +20.0 20.04 -15.6 27.3 16.8 31.3 7 10 Alarm State:  0
Tue Jan 16 04:35:03 PST 2018 ON: 19.99 +20.0 20.05 -15.7 27.2 16.8 31.3 7 10 Alarm State:  0
Tue Jan 16 04:34:01 PST 2018 ON: 19.99 +20.0 20.05 -15.8 27.0 16.9 31.2 8 9 Alarm State:  0
Tue Jan 16 04:33:00 PST 2018 ON: 19.99 +20.0 20.03 -15.5 27.5 16.6 31.3 7 10 Alarm State:  0
Tue Jan 16 04:31:58 PST 2018 ON: 20.00 +20.0 20.04 -15.9 26.8 17.1 31.1 8 10 Alarm State:  0
Tue Jan 16 04:30:57 PST 2018 ON: 20.00 +20.0 20.06 -15.9 26.9 17.0 31.1 8 9 Alarm State:  0
Tue Jan 16 04:29:55 PST 2018 ON: 19.99 +20.0 20.04 -15.7 27.1 16.9 31.3 7 10 Alarm State:  0
Tue Jan 16 04:28:54 PST 2018 ON: 19.99 +20.0 20.04 -15.7 27.2 16.8 31.3 8 9 Alarm State:  0
Tue Jan 16 04:27:52 PST 2018 ON: 20.00 +20.0 20.03 -15.5 27.5 16.6 31.3 7 10 Alarm State:  0
Tue Jan 16 04:26:51 PST 2018 ON: 20.00 +20.0 20.05 -15.7 27.2 16.8 31.3 7 9 Alarm State:  0
Tue Jan 16 04:25:49 PST 2018 ON: 20.00 +20.0 20.04 -15.5 27.4 16.7 31.3 8 10 Alarm State:  0
Tue Jan 16 04:24:48 PST 2018 ON: 19.99 +20.0 20.03 -15.6 27.3 16.8 31.3 7 10 Alarm State:  0
Tue Jan 16 04:23:46 PST 2018 ON: 19.99 +20.0 20.04 -15.7 27.2 16.8 31.3 8 10 Alarm State:  0
Tue Jan 16 04:22:45 PST 2018 ON: 20.00 +20.0 20.06 -15.7 27.2 16.8 31.3 8 9 Alarm State:  0
Tue Jan 16 04:21:43 PST 2018 ON: 19.99 +20.0 20.04 -15.7 27.1 16.9 31.2 7 10 Alarm State:  0
Tue Jan 16 04:20:42 PST 2018 ON: 20.00 +20.0 20.05 -15.6 27.3 16.8 31.3 8 9 Alarm State:  0
Tue Jan 16 04:19:40 PST 2018 ON: 19.99 +20.0 20.05 -15.5 27.4 16.7 31.3 8 9 Alarm State:  0
Tue Jan 16 04:18:39 PST 2018 ON: 20.00 +20.0 20.05 -15.8 27.0 16.9 31.2 8 9 Alarm State:  0
Tue Jan 16 04:17:37 PST 2018 ON: 20.01 +20.0 20.05 -15.9 26.9 17.0 31.2 8 10 Alarm State:  0
Tue Jan 16 04:16:36 PST 2018 ON: 19.99 +20.0 20.04 -15.5 27.5 16.6 31.3 8 10 Alarm State:  0
Tue Jan 16 04:15:34 PST 2018 ON: 19.99 +20.0 20.04 -15.3 27.7 16.5 31.4 7 10 Alarm State:  0
Tue Jan 16 04:14:33 PST 2018 ON: 20.00 +20.0 20.05 -15.9 26.9 17.0 31.2 8 9 Alarm State:  0
Tue Jan 16 04:13:31 PST 2018 ON: 19.99 +20.0 20.06 -15.9 26.9 17.0 31.1 8 9 Alarm State:  0
Tue Jan 16 04:12:30 PST 2018 ON: 19.98 +20.0 20.02 -15.3 27.7 16.5 31.4 7 11 Alarm State:  0
Tue Jan 16 04:11:28 PST 2018 ON: 20.00 +20.0 20.04 -15.5 27.4 16.7 31.3 8 10 Alarm State:  0
Tue Jan 16 04:10:27 PST 2018 ON: 19.99 +20.0 20.04 -15.7 27.1 16.9 31.2 7 10 Alarm State:  0
Tue Jan 16 04:09:25 PST 2018 ON: 19.99 +20.0 20.04 -15.7 27.1 16.9 31.2 7 10 Alarm State:  0
Tue Jan 16 04:08:24 PST 2018 ON: 20.00 +20.0 20.04 -15.8 27.0 16.9 31.2 8 9 Alarm State:  0
Tue Jan 16 04:07:22 PST 2018 ON: 20.00 +20.0 20.05 -15.8 27.0 16.9 31.2 8 10 Alarm State:  0
Tue Jan 16 04:06:21 PST 2018 ON: 19.99 +20.0 20.03 -15.6 27.3 16.8 31.3 8 10 Alarm State:  0
Tue Jan 16 04:05:19 PST 2018 ON: 20.00 +20.0 20.04 -15.6 27.3 16.8 31.3 8 10 Alarm State:  0
Tue Jan 16 04:04:18 PST 2018 ON: 19.99 +20.0 20.05 -15.7 27.2 16.8 31.2 8 10 Alarm State:  0
Tue Jan 16 04:03:16 PST 2018 ON: 19.99 +20.0 20.04 -15.6 27.3 16.8 31.3 8 9 Alarm State:  0
Tue Jan 16 04:02:15 PST 2018 ON: 20.00 +20.0 20.04 -15.7 27.1 16.9 31.2 7 10 Alarm State:  0
Tue Jan 16 04:01:13 PST 2018 ON: 19.99 +20.0 20.04 -15.7 27.1 16.9 31.2 8 10 Alarm State:  0
Tue Jan 16 04:00:12 PST 2018 ON: 19.99 +20.0 20.03 -15.9 26.9 17.0 31.2 8 10 Alarm State:  0
Tue Jan 16 03:59:10 PST 2018 ON: 20.00 +20.0 20.05 -15.7 27.2 16.8 31.3 7 9 Alarm State:  0
Tue Jan 16 03:58:09 PST 2018 ON: 20.00 +20.0 20.05 -15.7 27.2 16.8 31.2 8 10 Alarm State:  0
Tue Jan 16 03:57:07 PST 2018 ON: 19.98 +20.0 20.04 -15.3 27.8 16.4 31.4 7 10 Alarm State:  0
Tue Jan 16 03:56:06 PST 2018 ON: 19.99 +20.0 20.03 -15.5 27.5 16.6 31.3 8 10 Alarm State:  0
Tue Jan 16 03:55:04 PST 2018 ON: 20.00 +20.0 20.06 -15.8 27.0 16.9 31.2 8 9 Alarm State:  0
Tue Jan 16 03:54:03 PST 2018 ON: 20.00 +20.0 20.06 -15.5 27.4 16.7 31.3 7 9 Alarm State:  0
Tue Jan 16 03:53:02 PST 2018 ON: 19.99 +20.0 20.03 -15.5 27.4 16.7 31.3 8 11 Alarm State:  0
Tue Jan 16 03:52:00 PST 2018 ON: 19.99 +20.0 20.05 -15.8 27.0 16.9 31.2 8 9 Alarm State:  0
Tue Jan 16 03:50:59 PST 2018 ON: 20.00 +20.0 20.04 -15.7 27.2 16.8 31.2 7 9 Alarm State:  0
Tue Jan 16 03:49:57 PST 2018 ON: 20.00 +20.0 20.05 -15.7 27.2 16.8 31.2 8 10 Alarm State:  0
Tue Jan 16 03:48:56 PST 2018 ON: 19.99 +20.0 20.05 -15.5 27.4 16.7 31.3 8 9 Alarm State:  0
Tue Jan 16 03:47:54 PST 2018 ON: 20.00 +20.0 20.04 -15.7 27.1 16.9 31.2 8 9 Alarm State:  0
Tue Jan 16 03:46:53 PST 2018 ON: 20.00 +20.0 20.06 -15.8 27.0 16.9 31.2 8 9 Alarm State:  0
Tue Jan 16 03:45:51 PST 2018 ON: 19.99 +20.0 20.05 -15.3 27.7 16.5 31.4 7 10 Alarm State:  0
Tue Jan 16 03:44:50 PST 2018 ON: 19.99 +20.0 20.05 -15.5 27.5 16.6 31.3 8 10 Alarm State:  0
Tue Jan 16 03:43:48 PST 2018 ON: 19.99 +20.0 20.03 -15.7 27.2 16.8 31.2 8 10 Alarm State:  0
Tue Jan 16 03:42:47 PST 2018 ON: 20.00 +20.0 20.05 -15.9 26.9 17.0 31.2 7 9 Alarm State:  0
Tue Jan 16 03:41:45 PST 2018 ON: 20.00 +20.0 20.05 -15.5 27.5 16.6 31.3 8 10 Alarm State:  0
Tue Jan 16 03:40:44 PST 2018 ON: 19.99 +20.0 20.05 -15.5 27.4 16.7 31.3 8 9 Alarm State:  0
Tue Jan 16 03:39:42 PST 2018 ON: 20.00 +20.0 20.05 -15.7 27.1 16.9 31.2 7 9 Alarm State:  0
Tue Jan 16 03:38:41 PST 2018 ON: 19.99 +20.0 20.03 -15.7 27.2 16.8 31.3 8 10 Alarm State:  0
Tue Jan 16 03:37:39 PST 2018 ON: 20.00 +20.0 20.04 -15.5 27.5 16.6 31.3 7 9 Alarm State:  0
Tue Jan 16 03:36:38 PST 2018 ON: 20.00 +20.0 20.06 -15.8 27.0 16.9 31.2 8 9 Alarm State:  0
Tue Jan 16 03:35:36 PST 2018 ON: 19.99 +20.0 20.05 -15.5 27.4 16.7 31.3 8 10 Alarm State:  0
Tue Jan 16 03:34:35 PST 2018 ON: 19.99 +20.0 20.05 -15.9 26.9 17.0 31.2 7 9 Alarm State:  0
Tue Jan 16 03:33:33 PST 2018 ON: 20.00 +20.0 20.04 -15.7 27.1 16.9 31.2 8 9 Alarm State:  0
Tue Jan 16 03:32:32 PST 2018 ON: 20.00 +20.0 20.05 -15.6 27.3 16.8 31.3 7 9 Alarm State:  0
Tue Jan 16 03:31:30 PST 2018 ON: 19.99 +20.0 20.05 -15.6 27.3 16.8 31.3 7 10 Alarm State:  0
Tue Jan 16 03:30:29 PST 2018 ON: 19.99 +20.0 20.04 -15.7 27.1 16.9 31.2 8 10 Alarm State:  0
Tue Jan 16 03:29:27 PST 2018 ON: 19.99 +20.0 20.03 -15.7 27.1 16.9 31.2 8 10 Alarm State:  0
Tue Jan 16 03:28:26 PST 2018 ON: 20.00 +20.0 20.05 -15.9 26.9 17.0 31.1 8 9 Alarm State:  0
Tue Jan 16 03:27:24 PST 2018 ON: 20.00 +20.0 20.05 -15.7 27.2 16.8 31.3 8 10 Alarm State:  0
Tue Jan 16 03:26:23 PST 2018 ON: 19.99 +20.0 20.04 -15.7 27.2 16.8 31.3 7 10 Alarm State:  0
Tue Jan 16 03:25:21 PST 2018 ON: 19.98 +20.0 20.03 -15.7 27.1 16.9 31.3 7 10 Alarm State:  0
Tue Jan 16 03:24:20 PST 2018 ON: 20.00 +20.0 20.03 -15.7 27.2 16.8 31.3 7 10 Alarm State:  0
Tue Jan 16 03:23:18 PST 2018 ON: 20.00 +20.0 20.06 -15.9 26.9 17.0 31.1 7 9 Alarm State:  0
Tue Jan 16 03:22:17 PST 2018 ON: 19.99 +20.0 20.03 -15.5 27.4 16.7 31.3 8 10 Alarm State:  0
Tue Jan 16 03:21:15 PST 2018 ON: 20.00 +20.0 20.03 -15.7 27.1 16.9 31.2 7 10 Alarm State:  0
Tue Jan 16 03:20:14 PST 2018 ON: 20.00 +20.0 20.05 -15.8 27.0 16.9 31.2 8 10 Alarm State:  0
Tue Jan 16 03:19:12 PST 2018 ON: 20.00 +20.0 20.06 -15.5 27.5 16.6 31.3 8 9 Alarm State:  0
Tue Jan 16 03:18:11 PST 2018 ON: 19.99 +20.0 20.04 -15.5 27.4 16.7 31.3 7 10 Alarm State:  0
Tue Jan 16 03:17:09 PST 2018 ON: 20.00 +20.0 20.06 -15.7 27.2 16.8 31.2 8 9 Alarm State:  0
Tue Jan 16 03:16:08 PST 2018 ON: 19.99 +20.0 20.05 -15.7 27.2 16.8 31.3 8 9 Alarm State:  0
Tue Jan 16 03:15:06 PST 2018 ON: 20.00 +20.0 20.05 -15.8 27.0 16.9 31.2 7 9 Alarm State:  0
Tue Jan 16 03:14:05 PST 2018 ON: 20.00 +20.0 20.06 -15.9 26.9 17.0 31.2 8 9 Alarm State:  0
Tue Jan 16 03:13:03 PST 2018 ON: 19.99 +20.0 20.04 -15.4 27.6 16.5 31.3 8 10 Alarm State:  0
Tue Jan 16 03:12:02 PST 2018 ON: 19.99 +20.0 20.05 -15.7 27.1 16.9 31.2 8 10 Alarm State:  0
Tue Jan 16 03:11:00 PST 2018 ON: 19.99 +20.0 20.04 -15.7 27.2 16.8 31.2 8 9 Alarm State:  0
Tue Jan 16 03:09:59 PST 2018 ON: 20.00 +20.0 20.05 -15.9 26.8 17.1 31.2 7 9 Alarm State:  0
Tue Jan 16 03:08:58 PST 2018 ON: 20.00 +20.0 20.05 -15.7 27.2 16.8 31.2 8 9 Alarm State:  0
Tue Jan 16 03:07:56 PST 2018 ON: 19.99 +20.0 20.05 -15.5 27.4 16.7 31.3 8 10 Alarm State:  0
Tue Jan 16 03:06:55 PST 2018 ON: 19.99 +20.0 20.04 -15.3 27.7 16.5 31.4 7 10 Alarm State:  0
Tue Jan 16 03:05:53 PST 2018 ON: 20.00 +20.0 20.06 -15.7 27.1 16.9 31.2 8 9 Alarm State:  0
Tue Jan 16 03:04:52 PST 2018 ON: 19.99 +20.0 20.04 -15.9 26.9 17.0 31.1 8 10 Alarm State:  0
Tue Jan 16 03:03:50 PST 2018 ON: 20.00 +20.0 20.03 -15.5 27.4 16.7 31.3 7 10 Alarm State:  0
Tue Jan 16 03:02:49 PST 2018 ON: 20.00 +20.0 20.04 -15.7 27.1 16.9 31.2 8 10 Alarm State:  0
Tue Jan 16 03:01:47 PST 2018 ON: 19.99 +20.0 20.04 -15.7 27.2 16.8 31.3 8 9 Alarm State:  0
Tue Jan 16 03:00:46 PST 2018 ON: 20.00 +20.0 20.05 -15.6 27.3 16.8 31.2 8 9 Alarm State:  0
Tue Jan 16 02:59:44 PST 2018 ON: 19.99 +20.0 20.04 -15.5 27.4 16.7 31.3 7 10 Alarm State:  0
Tue Jan 16 02:58:43 PST 2018 ON: 19.98 +20.0 20.04 -15.7 27.1 16.9 31.2 7 10 Alarm State:  0
Tue Jan 16 02:57:41 PST 2018 ON: 20.00 +20.0 20.04 -15.8 27.0 16.9 31.3 8 9 Alarm State:  0
Tue Jan 16 02:56:40 PST 2018 ON: 20.00 +20.0 20.05 -15.7 27.1 16.9 31.3 7 9 Alarm State:  0
Tue Jan 16 02:55:38 PST 2018 ON: 20.00 +20.0 20.05 -15.6 27.3 16.8 31.3 8 10 Alarm State:  0
Tue Jan 16 02:54:37 PST 2018 ON: 19.98 +20.0 20.04 -15.4 27.6 16.5 31.4 8 10 Alarm State:  0
Tue Jan 16 02:53:35 PST 2018 ON: 19.99 +20.0 20.03 -15.4 27.6 16.5 31.4 7 9 Alarm State:  0
Tue Jan 16 02:52:34 PST 2018 ON: 20.01 +20.0 20.05 -15.7 27.1 16.9 31.2 8 9 Alarm State:  0
Tue Jan 16 02:51:32 PST 2018 ON: 20.00 +20.0 20.04 -15.5 27.4 16.7 31.3 7 10 Alarm State:  0
Tue Jan 16 02:50:31 PST 2018 ON: 19.99 +20.0 20.03 -15.5 27.5 16.6 31.3 7 10 Alarm State:  0
Tue Jan 16 02:49:29 PST 2018 ON: 20.00 +20.0 20.05 -15.8 27.0 16.9 31.2 8 9 Alarm State:  0
Tue Jan 16 02:48:28 PST 2018 ON: 19.99 +20.0 20.03 -15.7 27.1 16.9 31.2 8 10 Alarm State:  0
Tue Jan 16 02:47:26 PST 2018 ON: 20.00 +20.0 20.05 -15.6 27.3 16.8 31.3 8 9 Alarm State:  0
Tue Jan 16 02:46:25 PST 2018 ON: 19.99 +20.0 20.05 -15.7 27.1 16.9 31.2 8 10 Alarm State:  0
Tue Jan 16 02:45:23 PST 2018 ON: 19.99 +20.0 20.04 -15.6 27.3 16.8 31.3 7 9 Alarm State:  0
Tue Jan 16 02:44:22 PST 2018 ON: 20.00 +20.0 20.04 -15.7 27.1 16.9 31.2 8 9 Alarm State:  0
Tue Jan 16 02:43:20 PST 2018 ON: 20.00 +20.0 20.06 -15.7 27.2 16.8 31.2 8 9 Alarm State:  0
Tue Jan 16 02:42:19 PST 2018 ON: 19.99 +20.0 20.04 -15.7 27.1 16.9 31.3 7 10 Alarm State:  0
Tue Jan 16 02:41:17 PST 2018 ON: 20.00 +20.0 20.04 -15.7 27.1 16.9 31.2 8 9 Alarm State:  0
Tue Jan 16 02:40:16 PST 2018 ON: 20.01 +20.0 20.05 -15.8 27.0 16.9 31.2 8 9 Alarm State:  0
Tue Jan 16 02:39:14 PST 2018 ON: 20.00 +20.0 20.06 -15.4 27.6 16.5 31.4 7 10 Alarm State:  0
Tue Jan 16 02:38:13 PST 2018 ON: 19.99 +20.0 20.04 -15.4 27.6 16.5 31.4 8 10 Alarm State:  0
Tue Jan 16 02:37:11 PST 2018 ON: 19.99 +20.0 20.04 -15.8 27.0 16.9 31.2 8 10 Alarm State:  0
Tue Jan 16 02:36:10 PST 2018 ON: 20.00 +20.0 20.05 -15.7 27.2 16.8 31.2 8 9 Alarm State:  0
Tue Jan 16 02:35:08 PST 2018 ON: 19.99 +20.0 20.04 -15.4 27.6 16.5 31.4 8 10 Alarm State:  0
Tue Jan 16 02:34:07 PST 2018 ON: 20.00 +20.0 20.06 -15.9 26.9 17.0 31.2 7 9 Alarm State:  0
Tue Jan 16 02:33:05 PST 2018 ON: 19.99 +20.0 20.05 -15.5 27.4 16.7 31.3 8 9 Alarm State:  0
Tue Jan 16 02:32:04 PST 2018 ON: 20.00 +20.0 20.03 -15.5 27.4 16.7 31.3 8 10 Alarm State:  0
Tue Jan 16 02:31:02 PST 2018 ON: 20.01 +20.0 20.07 -16.0 26.6 17.2 31.0 8 9 Alarm State:  0
Tue Jan 16 02:30:01 PST 2018 ON: 19.99 +20.0 20.05 -15.5 27.4 16.7 31.3 8 10 Alarm State:  0
Tue Jan 16 02:28:59 PST 2018 ON: 19.99 +20.0 20.04 -15.5 27.4 16.7 31.3 8 10 Alarm State:  0
Tue Jan 16 02:27:58 PST 2018 ON: 19.99 +20.0 20.02 -15.7 27.2 16.8 31.3 8 10 Alarm State:  0
Tue Jan 16 02:26:56 PST 2018 ON: 20.00 +20.0 20.04 -15.7 27.1 16.9 31.2 8 10 Alarm State:  0
Tue Jan 16 02:25:55 PST 2018 ON: 20.00 +20.0 20.06 -15.8 27.0 16.9 31.2 8 9 Alarm State:  0
Tue Jan 16 02:24:53 PST 2018 ON: 19.99 +20.0 20.03 -15.5 27.4 16.7 31.4 8 10 Alarm State:  0
Tue Jan 16 02:23:52 PST 2018 ON: 20.00 +20.0 20.04 -15.6 27.3 16.8 31.2 7 10 Alarm State:  0
Tue Jan 16 02:22:50 PST 2018 ON: 20.00 +20.0 20.04 -15.7 27.2 16.8 31.2 7 10 Alarm State:  0
Tue Jan 16 02:21:49 PST 2018 ON: 19.99 +20.0 20.04 -15.6 27.3 16.8 31.4 8 9 Alarm State:  0
Tue Jan 16 02:20:47 PST 2018 ON: 20.00 +20.0 20.05 -15.8 27.0 16.9 31.2 8 9 Alarm State:  0
Tue Jan 16 02:19:46 PST 2018 ON: 20.00 +20.0 20.06 -15.6 27.3 16.8 31.3 7 9 Alarm State:  0
Tue Jan 16 02:18:44 PST 2018 ON: 19.99 +20.0 20.04 -15.5 27.5 16.6 31.4 8 10 Alarm State:  0
Tue Jan 16 02:17:43 PST 2018 ON: 20.00 +20.0 20.05 -15.7 27.1 16.9 31.2 7 9 Alarm State:  0
Tue Jan 16 02:16:41 PST 2018 ON: 20.00 +20.0 20.06 -15.5 27.5 16.6 31.3 8 9 Alarm State:  0
Tue Jan 16 02:15:40 PST 2018 ON: 19.99 +20.0 20.04 -15.6 27.3 16.8 31.3 8 10 Alarm State:  0
Tue Jan 16 02:14:38 PST 2018 ON: 19.99 +20.0 20.04 -15.7 27.1 16.9 31.2 7 9 Alarm State:  0
Tue Jan 16 02:13:37 PST 2018 ON: 20.00 +20.0 20.04 -15.8 27.0 16.9 31.2 8 10 Alarm State:  0
Tue Jan 16 02:12:35 PST 2018 ON: 19.99 +20.0 20.02 -15.2 27.9 16.3 31.4 7 11 Alarm State:  0
Tue Jan 16 02:11:34 PST 2018 ON: 20.00 +20.0 20.06 -15.9 26.9 17.0 31.0 8 9 Alarm State:  0
Tue Jan 16 02:10:32 PST 2018 ON: 19.99 +20.0 20.04 -15.6 27.3 16.8 31.3 8 10 Alarm State:  0
Tue Jan 16 02:09:31 PST 2018 ON: 19.99 +20.0 20.03 -15.7 27.1 16.9 31.3 7 10 Alarm State:  0
Tue Jan 16 02:08:29 PST 2018 ON: 20.00 +20.0 20.05 -15.7 27.1 16.9 31.2 8 9 Alarm State:  0
Tue Jan 16 02:07:28 PST 2018 ON: 19.99 +20.0 20.03 -15.5 27.5 16.6 31.3 7 10 Alarm State:  0
Tue Jan 16 02:06:26 PST 2018 ON: 19.99 +20.0 20.03 -15.7 27.2 16.8 31.2 7 10 Alarm State:  0
Tue Jan 16 02:05:25 PST 2018 ON: 20.00 +20.0 20.04 -15.8 27.0 16.9 31.2 8 10 Alarm State:  0
Tue Jan 16 02:04:23 PST 2018 ON: 20.00 +20.0 20.05 -15.3 27.8 16.4 31.4 7 10 Alarm State:  0
Tue Jan 16 02:03:22 PST 2018 ON: 20.00 +20.0 20.05 -15.5 27.5 16.6 31.4 8 10 Alarm State:  0
Tue Jan 16 02:02:20 PST 2018 ON: 19.99 +20.0 20.04 -15.6 27.3 16.8 31.3 8 10 Alarm State:  0
Tue Jan 16 02:01:19 PST 2018 ON: 20.00 +20.0 20.04 -15.7 27.2 16.8 31.2 7 10 Alarm State:  0
Tue Jan 16 02:00:17 PST 2018 ON: 19.99 +20.0 20.04 -15.7 27.2 16.8 31.3 8 10 Alarm State:  0
Tue Jan 16 01:59:16 PST 2018 ON: 19.99 +20.0 20.03 -15.6 27.3 16.8 31.2 8 10 Alarm State:  0
Tue Jan 16 01:58:14 PST 2018 ON: 20.00 +20.0 20.05 -15.7 27.1 16.9 31.3 7 9 Alarm State:  0
Tue Jan 16 01:57:13 PST 2018 ON: 19.99 +20.0 20.06 -15.9 26.8 17.1 31.2 8 9 Alarm State:  0
Tue Jan 16 01:56:11 PST 2018 ON: 19.99 +20.0 20.03 -15.4 27.6 16.5 31.3 8 10 Alarm State:  0
Tue Jan 16 01:55:10 PST 2018 ON: 20.00 +20.0 20.04 -15.4 27.6 16.5 31.3 7 9 Alarm State:  0
Tue Jan 16 01:54:08 PST 2018 ON: 20.01 +20.0 20.07 -16.0 26.6 17.2 31.1 8 8 Alarm State:  0
Tue Jan 16 01:53:07 PST 2018 ON: 19.99 +20.0 20.05 -15.5 27.4 16.7 31.3 7 10 Alarm State:  0
Tue Jan 16 01:52:05 PST 2018 ON: 19.99 +20.0 20.04 -15.4 27.6 16.5 31.4 7 9 Alarm State:  0
Tue Jan 16 01:51:04 PST 2018 ON: 20.00 +20.0 20.04 -15.7 27.2 16.8 31.3 8 9 Alarm State:  0
Tue Jan 16 01:50:02 PST 2018 ON: 20.01 +20.0 20.06 -15.7 27.1 16.9 31.3 7 9 Alarm State:  0
Tue Jan 16 01:49:01 PST 2018 ON: 19.99 +20.0 20.06 -15.7 27.1 16.9 31.3 8 10 Alarm State:  0
Tue Jan 16 01:47:59 PST 2018 ON: 19.99 +20.0 20.03 -15.5 27.5 16.6 31.2 8 11 Alarm State:  0
Tue Jan 16 01:46:58 PST 2018 ON: 19.99 +20.0 20.03 -15.7 27.1 16.9 31.1 8 10 Alarm State:  0
Tue Jan 16 01:45:56 PST 2018 ON: 20.00 +20.0 20.04 -15.9 26.9 17.0 31.2 8 9 Alarm State:  0
Tue Jan 16 01:44:55 PST 2018 ON: 20.00 +20.0 20.05 -15.6 27.3 16.8 31.4 7 9 Alarm State:  0
Tue Jan 16 01:43:53 PST 2018 ON: 20.00 +20.0 20.04 -15.5 27.5 16.6 31.4 7 10 Alarm State:  0
Tue Jan 16 01:42:52 PST 2018 ON: 19.99 +20.0 20.04 -15.4 27.6 16.5 31.4 7 10 Alarm State:  0
Tue Jan 16 01:41:50 PST 2018 ON: 19.99 +20.0 20.03 -15.7 27.2 16.8 31.3 7 10 Alarm State:  0
Tue Jan 16 01:40:49 PST 2018 ON: 19.99 +20.0 20.05 -15.9 26.9 17.0 31.2 8 9 Alarm State:  0
Tue Jan 16 01:39:47 PST 2018 ON: 20.00 +20.0 20.04 -15.7 27.2 16.8 31.2 7 10 Alarm State:  0
Tue Jan 16 01:38:46 PST 2018 ON: 19.99 +20.0 20.03 -15.5 27.5 16.6 31.4 7 11 Alarm State:  0
Tue Jan 16 01:37:44 PST 2018 ON: 19.98 +20.0 20.04 -15.7 27.1 16.9 31.3 8 9 Alarm State:  0
Tue Jan 16 01:36:43 PST 2018 ON: 20.00 +20.0 20.05 -15.7 27.2 16.8 31.2 7 9 Alarm State:  0
Tue Jan 16 01:35:41 PST 2018 ON: 20.00 +20.0 20.05 -16.0 26.6 17.2 31.1 8 9 Alarm State:  0
Tue Jan 16 01:34:40 PST 2018 ON: 20.01 +20.0 20.07 -15.6 27.3 16.8 31.3 8 9 Alarm State:  0
Tue Jan 16 01:33:38 PST 2018 ON: 19.99 +20.0 20.05 -14.9 28.3 16.1 31.6 7 11 Alarm State:  0
Tue Jan 16 01:32:37 PST 2018 ON: 19.99 +20.0 20.05 -15.5 27.5 16.6 31.3 8 10 Alarm State:  0
Tue Jan 16 01:31:35 PST 2018 ON: 19.99 +20.0 20.05 -15.5 27.5 16.6 31.1 7 10 Alarm State:  0
Tue Jan 16 01:30:34 PST 2018 ON: 19.99 +20.0 20.02 -15.3 27.8 16.4 31.1 7 10 Alarm State:  0
Tue Jan 16 01:29:32 PST 2018 ON: 20.00 +20.0 20.05 -15.9 26.8 17.1 30.8 8 9 Alarm State:  0
Tue Jan 16 01:28:31 PST 2018 ON: 19.99 +20.0 20.05 -15.8 27.0 16.9 30.8 8 9 Alarm State:  0
Tue Jan 16 01:27:29 PST 2018 ON: 19.99 +20.0 20.03 -15.7 27.1 16.9 30.8 8 10 Alarm State:  0
Tue Jan 16 01:26:28 PST 2018 ON: 20.00 +20.0 20.04 -15.7 27.1 16.9 30.8 7 10 Alarm State:  0
Tue Jan 16 01:25:26 PST 2018 ON: 19.99 +20.0 20.06 -16.0 26.7 17.1 30.6 8 9 Alarm State:  0
Tue Jan 16 01:24:25 PST 2018 ON: 20.00 +20.0 20.04 -15.7 27.1 16.9 30.7 8 9 Alarm State:  0
Tue Jan 16 01:23:23 PST 2018 ON: 20.00 +20.0 20.05 -15.7 27.1 16.9 30.7 8 10 Alarm State:  0
Tue Jan 16 01:22:22 PST 2018 ON: 19.99 +20.0 20.04 -15.7 27.2 16.8 30.7 8 10 Alarm State:  0
Tue Jan 16 01:21:20 PST 2018 ON: 19.99 +20.0 20.03 -15.7 27.1 16.9 30.7 8 10 Alarm State:  0
Tue Jan 16 01:20:19 PST 2018 ON: 20.00 +20.0 20.05 -15.9 26.8 17.1 30.6 8 9 Alarm State:  0
Tue Jan 16 01:19:17 PST 2018 ON: 19.99 +20.0 20.04 -15.7 27.1 16.9 30.7 8 10 Alarm State:  0
Tue Jan 16 01:18:16 PST 2018 ON: 20.00 +20.0 20.04 -15.6 27.3 16.8 30.7 8 10 Alarm State:  0
Tue Jan 16 01:17:14 PST 2018 ON: 19.99 +20.0 20.04 -16.2 26.4 17.3 30.5 7 9 Alarm State:  0
Tue Jan 16 01:16:13 PST 2018 ON: 20.00 +20.0 20.04 -16.0 26.7 17.1 30.6 8 9 Alarm State:  0
Tue Jan 16 01:15:11 PST 2018 ON: 20.00 +20.0 20.05 -15.7 27.1 16.9 30.6 7 9 Alarm State:  0
Tue Jan 16 01:14:10 PST 2018 ON: 19.99 +20.0 20.04 -15.9 26.8 17.1 30.6 8 10 Alarm State:  0
Tue Jan 16 01:13:08 PST 2018 ON: 19.99 +20.0 20.04 -15.9 26.9 17.0 30.6 8 9 Alarm State:  0
Tue Jan 16 01:12:07 PST 2018 ON: 20.00 +20.0 20.04 -15.6 27.3 16.8 30.7 7 10 Alarm State:  0
Tue Jan 16 01:11:05 PST 2018 ON: 19.99 +20.0 20.05 -16.1 26.5 17.3 30.4 8 10 Alarm State:  0
Tue Jan 16 01:10:04 PST 2018 ON: 19.99 +20.0 20.04 -15.7 27.1 16.9 30.6 8 9 Alarm State:  0
Tue Jan 16 01:09:02 PST 2018 ON: 20.01 +20.0 20.06 -16.0 26.7 17.1 30.5 8 9 Alarm State:  0
Tue Jan 16 01:08:01 PST 2018 ON: 20.00 +20.0 20.06 -15.9 26.9 17.0 30.5 8 9 Alarm State:  0
Tue Jan 16 01:06:59 PST 2018 ON: 20.00 +20.0 20.04 -15.5 27.4 16.7 30.6 7 10 Alarm State:  0
Tue Jan 16 01:05:58 PST 2018 ON: 19.99 +20.0 20.06 -16.2 26.4 17.3 30.5 8 9 Alarm State:  0
Tue Jan 16 01:04:56 PST 2018 ON: 19.99 +20.0 20.04 -15.9 26.8 17.1 30.4 8 9 Alarm State:  0
Tue Jan 16 01:03:55 PST 2018 ON: 20.00 +20.0 20.04 -15.8 27.0 16.9 30.6 8 9 Alarm State:  0
Tue Jan 16 01:02:53 PST 2018 ON: 20.00 +20.0 20.04 -15.9 26.9 17.0 30.5 8 10 Alarm State:  0
Tue Jan 16 01:01:52 PST 2018 ON: 19.99 +20.0 20.04 -15.8 27.0 16.9 30.5 8 10 Alarm State:  0
Tue Jan 16 01:00:51 PST 2018 ON: 19.99 +20.0 20.03 -15.7 27.2 16.8 30.6 7 10 Alarm State:  0
Tue Jan 16 00:59:49 PST 2018 ON: 20.00 +20.0 20.04 -16.0 26.7 17.1 30.4 8 9 Alarm State:  0
Tue Jan 16 00:58:48 PST 2018 ON: 19.99 +20.0 20.04 -15.7 27.1 16.9 30.5 8 10 Alarm State:  0
Tue Jan 16 00:57:46 PST 2018 ON: 20.00 +20.0 20.05 -15.9 26.9 17.0 30.6 8 9 Alarm State:  0
Tue Jan 16 00:56:45 PST 2018 ON: 20.00 +20.0 20.05 -15.9 26.9 17.0 30.5 8 10 Alarm State:  0
Tue Jan 16 00:55:43 PST 2018 ON: 20.00 +20.0 20.04 -15.8 27.0 16.9 30.5 8 10 Alarm State:  0
Tue Jan 16 00:54:42 PST 2018 ON: 20.00 +20.0 20.05 -15.9 26.8 17.1 30.5 8 9 Alarm State:  0
Tue Jan 16 00:53:40 PST 2018 ON: 20.00 +20.0 20.05 -16.2 26.4 17.3 30.3 8 9 Alarm State:  0
Tue Jan 16 00:52:39 PST 2018 ON: 19.99 +20.0 20.03 -15.9 26.8 17.1 30.5 7 10 Alarm State:  0
Tue Jan 16 00:51:37 PST 2018 ON: 20.00 +20.0 20.04 -15.9 26.9 17.0 30.5 8 10 Alarm State:  0
Tue Jan 16 00:50:36 PST 2018 ON: 19.99 +20.0 20.04 -15.7 27.2 16.8 30.6 8 10 Alarm State:  0
Tue Jan 16 00:49:34 PST 2018 ON: 19.99 +20.0 20.04 -15.7 27.2 16.8 30.6 7 10 Alarm State:  0
Tue Jan 16 00:48:33 PST 2018 ON: 19.99 +20.0 20.04 -16.0 26.7 17.1 30.5 8 9 Alarm State:  0
Tue Jan 16 00:47:31 PST 2018 ON: 20.00 +20.0 20.05 -16.0 26.6 17.2 30.4 8 9 Alarm State:  0
Tue Jan 16 00:46:30 PST 2018 ON: 19.99 +20.0 20.04 -15.7 27.2 16.8 30.6 7 10 Alarm State:  0
Tue Jan 16 00:45:28 PST 2018 ON: 19.99 +20.0 20.04 -15.7 27.1 16.9 30.5 8 10 Alarm State:  0
Tue Jan 16 00:44:27 PST 2018 ON: 20.00 +20.0 20.05 -15.9 26.8 17.1 30.5 7 9 Alarm State:  0
Tue Jan 16 00:43:25 PST 2018 ON: 20.00 +20.0 20.05 -15.7 27.1 16.9 30.5 8 10 Alarm State:  0
Tue Jan 16 00:42:24 PST 2018 ON: 19.99 +20.0 20.05 -15.9 26.9 17.0 30.5 8 10 Alarm State:  0
Tue Jan 16 00:41:22 PST 2018 ON: 19.99 +20.0 20.05 -15.9 26.8 17.1 30.5 8 9 Alarm State:  0
Tue Jan 16 00:40:21 PST 2018 ON: 20.00 +20.0 20.05 -16.0 26.7 17.1 30.5 8 9 Alarm State:  0
Tue Jan 16 00:39:19 PST 2018 ON: 20.00 +20.0 20.05 -16.0 26.7 17.1 30.4 8 10 Alarm State:  0
Tue Jan 16 00:38:18 PST 2018 ON: 19.99 +20.0 20.03 -15.6 27.3 16.8 30.6 7 11 Alarm State:  0
Tue Jan 16 00:37:16 PST 2018 ON: 19.98 +20.0 20.04 -15.8 27.0 16.9 30.5 8 9 Alarm State:  0
Tue Jan 16 00:36:15 PST 2018 ON: 20.00 +20.0 20.04 -15.8 27.0 16.9 30.6 7 9 Alarm State:  0
Tue Jan 16 00:35:13 PST 2018 ON: 20.00 +20.0 20.06 -16.2 26.4 17.3 30.3 8 9 Alarm State:  0
Tue Jan 16 00:34:12 PST 2018 ON: 19.99 +20.0 20.04 -16.0 26.7 17.1 30.5 8 10 Alarm State:  0
Tue Jan 16 00:33:10 PST 2018 ON: 20.00 +20.0 20.05 -16.0 26.6 17.2 30.5 8 9 Alarm State:  0
Tue Jan 16 00:32:09 PST 2018 ON: 20.00 +20.0 20.05 -15.8 27.0 16.9 30.5 8 9 Alarm State:  0
Tue Jan 16 00:31:07 PST 2018 ON: 19.99 +20.0 20.03 -15.9 26.9 17.0 30.5 8 10 Alarm State:  0
Tue Jan 16 00:30:06 PST 2018 ON: 19.99 +20.0 20.03 -15.7 27.2 16.8 30.6 8 10 Alarm State:  0
Tue Jan 16 00:29:04 PST 2018 ON: 20.00 +20.0 20.04 -15.9 26.9 17.0 30.5 8 9 Alarm State:  0
Tue Jan 16 00:28:03 PST 2018 ON: 19.99 +20.0 20.05 -15.9 26.9 17.0 30.5 7 10 Alarm State:  0
Tue Jan 16 00:27:01 PST 2018 ON: 20.00 +20.0 20.04 -15.9 26.8 17.1 30.5 8 9 Alarm State:  0
Tue Jan 16 00:26:00 PST 2018 ON: 19.99 +20.0 20.03 -15.9 26.8 17.1 30.4 8 10 Alarm State:  0
Tue Jan 16 00:24:58 PST 2018 ON: 19.99 +20.0 20.04 -15.9 26.9 17.0 30.5 8 10 Alarm State:  0
Tue Jan 16 00:23:57 PST 2018 ON: 19.99 +20.0 20.03 -15.7 27.2 16.8 30.6 8 10 Alarm State:  0
Tue Jan 16 00:22:55 PST 2018 ON: 19.99 +20.0 20.05 -15.9 26.8 17.1 30.5 8 10 Alarm State:  0
Tue Jan 16 00:21:54 PST 2018 ON: 19.99 +20.0 20.04 -15.9 26.9 17.0 30.5 8 10 Alarm State:  0
Tue Jan 16 00:20:52 PST 2018 ON: 20.00 +20.0 20.05 -16.0 26.7 17.1 30.5 8 9 Alarm State:  0
Tue Jan 16 00:19:51 PST 2018 ON: 19.99 +20.0 20.03 -15.9 26.9 17.0 30.5 7 10 Alarm State:  0
Tue Jan 16 00:18:49 PST 2018 ON: 20.00 +20.0 20.04 -15.9 26.8 17.1 30.5 8 10 Alarm State:  0
Tue Jan 16 00:17:48 PST 2018 ON: 20.00 +20.0 20.03 -15.9 26.9 17.0 30.6 8 10 Alarm State:  0
Tue Jan 16 00:16:46 PST 2018 ON: 20.00 +20.0 20.05 -16.0 26.7 17.1 30.5 8 9 Alarm State:  0
Tue Jan 16 00:15:45 PST 2018 ON: 19.99 +20.0 20.04 -15.9 26.9 17.0 30.6 8 10 Alarm State:  0
Tue Jan 16 00:14:43 PST 2018 ON: 19.99 +20.0 20.03 -15.9 26.9 17.0 30.6 8 10 Alarm State:  0
Tue Jan 16 00:13:42 PST 2018 ON: 20.00 +20.0 20.06 -16.1 26.5 17.3 30.4 8 8 Alarm State:  0
Tue Jan 16 00:12:40 PST 2018 ON: 19.99 +20.0 20.06 -16.0 26.6 17.2 30.4 8 9 Alarm State:  0
Tue Jan 16 00:11:39 PST 2018 ON: 19.99 +20.0 20.03 -15.7 27.1 16.9 30.6 7 10 Alarm State:  0
Tue Jan 16 00:10:37 PST 2018 ON: 19.99 +20.0 20.04 -15.8 27.0 16.9 30.5 8 10 Alarm State:  0
Tue Jan 16 00:09:36 PST 2018 ON: 19.99 +20.0 20.04 -15.6 27.3 16.8 30.7 8 10 Alarm State:  0
Tue Jan 16 00:08:34 PST 2018 ON: 19.99 +20.0 20.04 -15.9 26.9 17.0 30.6 7 10 Alarm State:  0
Tue Jan 16 00:07:33 PST 2018 ON: 19.99 +20.0 20.04 -16.0 26.7 17.1 30.5 8 9 Alarm State:  0
Tue Jan 16 00:06:31 PST 2018 ON: 20.00 +20.0 20.06 -16.0 26.7 17.1 30.4 8 9 Alarm State:  0
Tue Jan 16 00:05:30 PST 2018 ON: 19.99 +20.0 20.03 -15.6 27.3 16.8 30.7 8 11 Alarm State:  0
Tue Jan 16 00:04:28 PST 2018 ON: 19.99 +20.0 20.05 -15.9 26.9 17.0 30.6 8 9 Alarm State:  0
Tue Jan 16 00:03:27 PST 2018 ON: 20.00 +20.0 20.04 -16.1 26.5 17.3 30.5 8 9 Alarm State:  0
Tue Jan 16 00:02:25 PST 2018 ON: 20.00 +20.0 20.03 -15.6 27.3 16.8 30.6 8 10 Alarm State:  0
Tue Jan 16 00:01:24 PST 2018 ON: 20.00 +20.0 20.05 -15.7 27.1 16.9 30.6 8 10 Alarm State:  0
Tue Jan 16 00:00:22 PST 2018 ON: 19.99 +20.0 20.05 -15.9 26.8 17.1 30.5 8 9 Alarm State:  0
Mon Jan 15 23:59:21 PST 2018 ON: 19.99 +20.0 20.04 -16.0 26.7 17.1 30.6 8 9 Alarm State:  0
Mon Jan 15 23:58:19 PST 2018 ON: 20.00 +20.0 20.05 -15.9 26.9 17.0 30.5 8 9 Alarm State:  0
Mon Jan 15 23:57:18 PST 2018 ON: 19.99 +20.0 20.05 -15.9 26.9 17.0 30.6 8 10 Alarm State:  0
Mon Jan 15 23:56:16 PST 2018 ON: 19.99 +20.0 20.03 -15.8 27.0 16.9 30.6 8 10 Alarm State:  0
Mon Jan 15 23:55:15 PST 2018 ON: 20.00 +20.0 20.04 -15.9 26.8 17.1 30.6 7 9 Alarm State:  0
Mon Jan 15 23:54:13 PST 2018 ON: 20.00 +20.0 20.04 -15.9 26.9 17.0 30.5 8 10 Alarm State:  0
Mon Jan 15 23:53:12 PST 2018 ON: 20.00 +20.0 20.04 -15.9 26.8 17.1 30.5 8 9 Alarm State:  0
Mon Jan 15 23:52:10 PST 2018 ON: 20.00 +20.0 20.04 -15.5 27.5 16.6 30.7 7 10 Alarm State:  0
Mon Jan 15 23:51:09 PST 2018 ON: 19.99 +20.0 20.03 -15.7 27.2 16.8 30.7 8 10 Alarm State:  0
Mon Jan 15 23:50:07 PST 2018 ON: 20.00 +20.0 20.05 -15.9 26.8 17.1 30.5 8 9 Alarm State:  0
Mon Jan 15 23:49:06 PST 2018 ON: 20.00 +20.0 20.05 -15.8 27.0 16.9 30.5 8 10 Alarm State:  0
Mon Jan 15 23:48:04 PST 2018 ON: 19.99 +20.0 20.05 -15.9 26.8 17.1 30.6 8 10 Alarm State:  0
Mon Jan 15 23:47:03 PST 2018 ON: 19.99 +20.0 20.03 -16.0 26.7 17.1 30.5 7 10 Alarm State:  0
Mon Jan 15 23:46:01 PST 2018 ON: 19.99 +20.0 20.03 -16.0 26.7 17.1 30.5 8 10 Alarm State:  0
Mon Jan 15 23:45:00 PST 2018 ON: 20.00 +20.0 20.03 -15.6 27.3 16.8 30.6 8 10 Alarm State:  0
Mon Jan 15 23:43:58 PST 2018 ON: 20.01 +20.0 20.06 -15.9 26.8 17.1 30.5 7 9 Alarm State:  0
Mon Jan 15 23:42:57 PST 2018 ON: 19.99 +20.0 20.04 -15.8 27.0 16.9 30.7 8 10 Alarm State:  0
Mon Jan 15 23:41:55 PST 2018 ON: 19.99 +20.0 20.05 -16.0 26.7 17.1 30.5 8 9 Alarm State:  0
Mon Jan 15 23:40:54 PST 2018 ON: 20.00 +20.0 20.03 -16.1 26.5 17.3 30.6 7 10 Alarm State:  0
Mon Jan 15 23:39:52 PST 2018 ON: 20.00 +20.0 20.04 -15.9 26.9 17.0 30.6 8 10 Alarm State:  0
Mon Jan 15 23:38:51 PST 2018 ON: 19.99 +20.0 20.03 -15.7 27.2 16.8 30.7 8 11 Alarm State:  0
Mon Jan 15 23:37:49 PST 2018 ON: 19.99 +20.0 20.04 -15.7 27.1 16.9 30.7 8 9 Alarm State:  0
Mon Jan 15 23:36:48 PST 2018 ON: 20.00 +20.0 20.05 -16.2 26.4 17.3 30.5 8 9 Alarm State:  0
Mon Jan 15 23:35:46 PST 2018 ON: 20.00 +20.0 20.07 -16.0 26.7 17.1 30.6 8 9 Alarm State:  0
Mon Jan 15 23:34:45 PST 2018 ON: 19.99 +20.0 20.03 -15.6 27.3 16.8 30.7 7 10 Alarm State:  0
Mon Jan 15 23:33:43 PST 2018 ON: 20.00 +20.0 20.04 -15.9 26.9 17.0 30.6 8 9 Alarm State:  0
Mon Jan 15 23:32:42 PST 2018 ON: 20.00 +20.0 20.03 -15.6 27.3 16.8 30.7 7 10 Alarm State:  0
Mon Jan 15 23:31:40 PST 2018 ON: 19.99 +20.0 20.04 -15.7 27.2 16.8 30.7 8 10 Alarm State:  0
Mon Jan 15 23:30:39 PST 2018 ON: 19.99 +20.0 20.03 -15.7 27.1 16.9 30.7 8 10 Alarm State:  0
Mon Jan 15 23:29:37 PST 2018 ON: 20.00 +20.0 20.04 -16.0 26.7 17.1 30.6 8 10 Alarm State:  0
Mon Jan 15 23:28:36 PST 2018 ON: 20.00 +20.0 20.05 -16.0 26.6 17.2 30.6 8 10 Alarm State:  0
Mon Jan 15 23:27:34 PST 2018 ON: 19.99 +20.0 20.05 -15.8 27.0 16.9 30.6 7 10 Alarm State:  0
Mon Jan 15 23:26:33 PST 2018 ON: 19.99 +20.0 20.03 -15.7 27.1 16.9 30.7 8 10 Alarm State:  0
Mon Jan 15 23:25:31 PST 2018 ON: 20.00 +20.0 20.03 -15.7 27.1 16.9 30.6 8 10 Alarm State:  0
Mon Jan 15 23:24:30 PST 2018 ON: 20.00 +20.0 20.05 -15.9 26.9 17.0 30.7 7 9 Alarm State:  0
Mon Jan 15 23:23:28 PST 2018 ON: 20.00 +20.0 20.05 -15.9 26.8 17.1 30.6 8 9 Alarm State:  0
Mon Jan 15 23:22:27 PST 2018 ON: 20.00 +20.0 20.04 -15.9 26.9 17.0 30.6 8 9 Alarm State:  0
Mon Jan 15 23:21:25 PST 2018 ON: 20.00 +20.0 20.05 -15.9 26.8 17.1 30.6 8 10 Alarm State:  0
Mon Jan 15 23:20:24 PST 2018 ON: 19.99 +20.0 20.04 -15.7 27.1 16.9 30.7 8 10 Alarm State:  0
Mon Jan 15 23:19:22 PST 2018 ON: 19.99 +20.0 20.04 -15.9 26.9 17.0 30.7 7 10 Alarm State:  0
Mon Jan 15 23:18:21 PST 2018 ON: 20.00 +20.0 20.03 -15.9 26.9 17.0 30.7 8 10 Alarm State:  0
Mon Jan 15 23:17:19 PST 2018 ON: 19.99 +20.0 20.05 -16.0 26.7 17.1 30.6 8 10 Alarm State:  0
Mon Jan 15 23:16:18 PST 2018 ON: 19.99 +20.0 20.04 -15.7 27.1 16.9 30.6 8 10 Alarm State:  0
Mon Jan 15 23:15:16 PST 2018 ON: 20.00 +20.0 20.05 -15.9 26.8 17.1 30.6 8 9 Alarm State:  0
Mon Jan 15 23:14:15 PST 2018 ON: 20.00 +20.0 20.05 -15.8 27.0 16.9 30.6 8 9 Alarm State:  0
Mon Jan 15 23:13:13 PST 2018 ON: 19.99 +20.0 20.04 -15.8 27.0 16.9 30.6 8 10 Alarm State:  0
Mon Jan 15 23:12:12 PST 2018 ON: 20.00 +20.0 20.04 -15.7 27.2 16.8 30.7 8 10 Alarm State:  0
Mon Jan 15 23:11:10 PST 2018 ON: 19.99 +20.0 20.04 -15.7 27.1 16.9 30.6 7 10 Alarm State:  0
Mon Jan 15 23:10:09 PST 2018 ON: 19.99 +20.0 20.05 -15.9 26.9 17.0 30.7 8 9 Alarm State:  0
Mon Jan 15 23:09:07 PST 2018 ON: 19.99 +20.0 20.04 -15.9 26.9 17.0 30.6 8 10 Alarm State:  0
Mon Jan 15 23:08:06 PST 2018 ON: 20.00 +20.0 20.05 -15.9 26.9 17.0 30.6 8 10 Alarm State:  0
Mon Jan 15 23:07:04 PST 2018 ON: 19.99 +20.0 20.05 -16.0 26.7 17.1 30.6 8 9 Alarm State:  0
Mon Jan 15 23:06:03 PST 2018 ON: 20.00 +20.0 20.05 -16.0 26.7 17.1 30.5 8 9 Alarm State:  0
Mon Jan 15 23:05:01 PST 2018 ON: 19.99 +20.0 20.05 -15.7 27.1 16.9 30.7 8 9 Alarm State:  0
Mon Jan 15 23:04:00 PST 2018 ON: 20.00 +20.0 20.04 -15.8 27.0 16.9 30.7 8 9 Alarm State:  0
Mon Jan 15 23:02:58 PST 2018 ON: 20.00 +20.0 20.06 -16.1 26.5 17.3 30.5 8 9 Alarm State:  0
Mon Jan 15 23:01:57 PST 2018 ON: 19.99 +20.0 20.04 -15.9 26.9 17.0 30.6 8 10 Alarm State:  0
Mon Jan 15 23:00:56 PST 2018 ON: 20.00 +20.0 20.05 -15.9 26.8 17.1 30.6 8 9 Alarm State:  0
Mon Jan 15 22:59:54 PST 2018 ON: 20.00 +20.0 20.06 -16.0 26.6 17.2 30.5 7 9 Alarm State:  0
Mon Jan 15 22:58:53 PST 2018 ON: 19.99 +20.0 20.05 -15.8 27.0 16.9 30.6 8 9 Alarm State:  0
Mon Jan 15 22:57:51 PST 2018 ON: 19.99 +20.0 20.05 -15.9 26.8 17.1 30.6 8 9 Alarm State:  0
Mon Jan 15 22:56:50 PST 2018 ON: 19.99 +20.0 20.06 -15.9 26.8 17.1 30.5 8 9 Alarm State:  0
Mon Jan 15 22:55:48 PST 2018 ON: 19.99 +20.0 20.04 -15.8 27.0 16.9 30.6 8 10 Alarm State:  0
Mon Jan 15 22:54:47 PST 2018 ON: 20.00 +20.0 20.04 -15.9 26.8 17.1 30.6 7 9 Alarm State:  0
Mon Jan 15 22:53:45 PST 2018 ON: 20.00 +20.0 20.05 -15.9 26.9 17.0 30.6 8 9 Alarm State:  0
Mon Jan 15 22:52:44 PST 2018 ON: 19.99 +20.0 20.04 -15.9 26.9 17.0 30.6 8 10 Alarm State:  0
Mon Jan 15 22:51:42 PST 2018 ON: 20.00 +20.0 20.03 -15.6 27.3 16.8 30.7 7 10 Alarm State:  0
Mon Jan 15 22:50:41 PST 2018 ON: 19.99 +20.0 20.03 -15.9 26.9 17.0 30.6 8 10 Alarm State:  0
Mon Jan 15 22:49:39 PST 2018 ON: 20.00 +20.0 20.05 -16.0 26.6 17.2 30.6 8 9 Alarm State:  0
Mon Jan 15 22:48:38 PST 2018 ON: 19.99 +20.0 20.04 -15.9 26.8 17.1 30.5 8 10 Alarm State:  0
Mon Jan 15 22:47:36 PST 2018 ON: 20.00 +20.0 20.05 -15.9 26.9 17.0 30.6 8 9 Alarm State:  0
Mon Jan 15 22:46:35 PST 2018 ON: 20.00 +20.0 20.05 -15.9 26.9 17.0 30.6 7 9 Alarm State:  0
Mon Jan 15 22:45:33 PST 2018 ON: 19.99 +20.0 20.04 -15.9 26.9 17.0 30.6 8 10 Alarm State:  0
Mon Jan 15 22:44:32 PST 2018 ON: 19.99 +20.0 20.02 -15.6 27.3 16.8 30.7 8 10 Alarm State:  0
Mon Jan 15 22:43:30 PST 2018 ON: 20.01 +20.0 20.05 -15.8 27.0 16.9 30.6 7 9 Alarm State:  0
Mon Jan 15 22:42:29 PST 2018 ON: 20.00 +20.0 20.06 -16.0 26.7 17.1 30.6 8 10 Alarm State:  0
Mon Jan 15 22:41:27 PST 2018 ON: 19.99 +20.0 20.05 -15.9 26.8 17.1 30.6 8 9 Alarm State:  0
Mon Jan 15 22:40:26 PST 2018 ON: 20.00 +20.0 20.04 -15.8 27.0 16.9 30.6 8 9 Alarm State:  0
Mon Jan 15 22:39:24 PST 2018 ON: 19.99 +20.0 20.05 -16.0 26.7 17.1 30.6 8 9 Alarm State:  0
Mon Jan 15 22:38:23 PST 2018 ON: 20.00 +20.0 20.03 -15.8 27.0 16.9 30.6 8 10 Alarm State:  0
Mon Jan 15 22:37:21 PST 2018 ON: 20.00 +20.0 20.04 -15.7 27.2 16.8 30.6 8 10 Alarm State:  0
Mon Jan 15 22:36:20 PST 2018 ON: 19.99 +20.0 20.04 -15.9 26.8 17.1 30.6 8 10 Alarm State:  0
Mon Jan 15 22:35:18 PST 2018 ON: 19.99 +20.0 20.04 -15.9 26.8 17.1 30.6 8 10 Alarm State:  0
Mon Jan 15 22:34:17 PST 2018 ON: 20.00 +20.0 20.05 -15.9 26.8 17.1 30.6 8 9 Alarm State:  0
Mon Jan 15 22:33:15 PST 2018 ON: 19.99 +20.0 20.05 -16.0 26.7 17.1 30.6 8 10 Alarm State:  0
Mon Jan 15 22:32:14 PST 2018 ON: 19.99 +20.0 20.02 -15.7 27.2 16.8 30.7 7 10 Alarm State:  0
Mon Jan 15 22:31:12 PST 2018 ON: 20.00 +20.0 20.04 -16.0 26.6 17.2 30.6 8 10 Alarm State:  0
Mon Jan 15 22:30:11 PST 2018 ON: 19.99 +20.0 20.05 -15.7 27.1 16.9 30.7 8 10 Alarm State:  0
Mon Jan 15 22:29:09 PST 2018 ON: 19.99 +20.0 20.03 -15.7 27.2 16.8 30.7 8 10 Alarm State:  0
Mon Jan 15 22:28:08 PST 2018 ON: 20.00 +20.0 20.05 -15.9 26.8 17.1 30.6 8 9 Alarm State:  0
Mon Jan 15 22:27:06 PST 2018 ON: 19.99 +20.0 20.04 -15.6 27.3 16.8 30.7 7 10 Alarm State:  0
Mon Jan 15 22:26:05 PST 2018 ON: 19.99 +20.0 20.03 -15.7 27.2 16.8 30.7 8 10 Alarm State:  0
Mon Jan 15 22:25:03 PST 2018 ON: 20.00 +20.0 20.06 -16.3 26.2 17.5 30.4 8 9 Alarm State:  0
Mon Jan 15 22:24:02 PST 2018 ON: 20.00 +20.0 20.06 -15.9 26.9 17.0 30.6 7 9 Alarm State:  0
Mon Jan 15 22:23:00 PST 2018 ON: 19.99 +20.0 20.03 -15.6 27.3 16.8 30.7 8 10 Alarm State:  0
Mon Jan 15 22:21:59 PST 2018 ON: 19.99 +20.0 20.04 -15.9 26.9 17.0 30.6 8 9 Alarm State:  0
Mon Jan 15 22:20:57 PST 2018 ON: 20.00 +20.0 20.04 -15.9 26.8 17.1 30.6 8 10 Alarm State:  0
Mon Jan 15 22:19:56 PST 2018 ON: 20.00 +20.0 20.05 -15.6 27.3 16.8 30.6 8 10 Alarm State:  0
Mon Jan 15 22:18:54 PST 2018 ON: 19.99 +20.0 20.04 -15.9 26.9 17.0 30.6 7 10 Alarm State:  0
Mon Jan 15 22:17:53 PST 2018 ON: 19.99 +20.0 20.04 -15.9 26.8 17.1 30.6 8 9 Alarm State:  0
Mon Jan 15 22:16:51 PST 2018 ON: 19.99 +20.0 20.03 -16.0 26.6 17.2 30.4 8 10 Alarm State:  0
Mon Jan 15 22:15:50 PST 2018 ON: 19.99 +20.0 20.04 -15.5 27.4 16.7 30.6 7 10 Alarm State:  0
Mon Jan 15 22:14:48 PST 2018 ON: 20.00 +20.0 20.04 -15.6 27.3 16.8 30.7 8 10 Alarm State:  0
Mon Jan 15 22:13:47 PST 2018 ON: 19.99 +20.0 20.04 -15.9 26.8 17.1 30.6 8 10 Alarm State:  0
Mon Jan 15 22:12:46 PST 2018 ON: 19.99 +20.0 20.03 -15.6 27.3 16.8 30.7 7 10 Alarm State:  0
Mon Jan 15 22:11:44 PST 2018 ON: 20.00 +20.0 20.05 -15.9 26.9 17.0 30.6 8 9 Alarm State:  0
Mon Jan 15 22:10:43 PST 2018 ON: 19.99 +20.0 20.05 -16.0 26.6 17.2 30.5 8 9 Alarm State:  0
Mon Jan 15 22:09:41 PST 2018 ON: 20.00 +20.0 20.04 -15.7 27.2 16.8 30.6 8 10 Alarm State:  0
Mon Jan 15 22:08:40 PST 2018 ON: 20.00 +20.0 20.04 -15.8 27.0 16.9 30.6 8 10 Alarm State:  0
Mon Jan 15 22:07:38 PST 2018 ON: 19.99 +20.0 20.03 -15.8 27.0 16.9 30.6 7 10 Alarm State:  0
Mon Jan 15 22:06:37 PST 2018 ON: 20.00 +20.0 20.03 -15.8 27.0 16.9 30.6 8 10 Alarm State:  0
Mon Jan 15 22:05:35 PST 2018 ON: 20.01 +20.0 20.05 -15.6 27.3 16.8 30.7 8 9 Alarm State:  0
Mon Jan 15 22:04:34 PST 2018 ON: 20.00 +20.0 20.06 -16.0 26.6 17.2 30.5 8 10 Alarm State:  0
Mon Jan 15 22:03:32 PST 2018 ON: 19.98 +20.0 20.03 -15.5 27.4 16.7 30.7 8 11 Alarm State:  0
Mon Jan 15 22:02:31 PST 2018 ON: 20.00 +20.0 20.04 -15.7 27.2 16.8 30.6 7 9 Alarm State:  0
Mon Jan 15 22:01:29 PST 2018 ON: 20.00 +20.0 20.05 -15.9 26.9 17.0 30.6 8 9 Alarm State:  0
Mon Jan 15 22:00:28 PST 2018 ON: 19.99 +20.0 20.04 -15.9 26.9 17.0 30.6 8 10 Alarm State:  0
Mon Jan 15 21:59:26 PST 2018 ON: 19.99 +20.0 20.03 -15.7 27.2 16.8 30.7 7 11 Alarm State:  0
Mon Jan 15 21:58:25 PST 2018 ON: 20.00 +20.0 20.05 -15.9 26.8 17.1 30.5 8 9 Alarm State:  0
Mon Jan 15 21:57:23 PST 2018 ON: 20.00 +20.0 20.04 -15.9 26.9 17.0 30.6 8 9 Alarm State:  0
Mon Jan 15 21:56:22 PST 2018 ON: 20.00 +20.0 20.03 -15.5 27.4 16.7 30.7 7 10 Alarm State:  0
Mon Jan 15 21:55:20 PST 2018 ON: 20.00 +20.0 20.06 -15.9 26.9 17.0 30.6 8 9 Alarm State:  0
Mon Jan 15 21:54:19 PST 2018 ON: 19.99 +20.0 20.03 -16.0 26.6 17.2 30.5 8 10 Alarm State:  0
Mon Jan 15 21:53:17 PST 2018 ON: 20.00 +20.0 20.05 -15.9 26.9 17.0 30.6 8 9 Alarm State:  0
Mon Jan 15 21:52:16 PST 2018 ON: 20.00 +20.0 20.05 -15.9 26.9 17.0 30.5 8 9 Alarm State:  0
Mon Jan 15 21:51:14 PST 2018 ON: 19.99 +20.0 20.06 -15.8 27.0 16.9 30.7 7 9 Alarm State:  0
Mon Jan 15 21:50:13 PST 2018 ON: 19.98 +20.0 20.04 -15.9 26.8 17.1 30.6 8 10 Alarm State:  0
Mon Jan 15 21:49:11 PST 2018 ON: 20.00 +20.0 20.03 -15.7 27.2 16.8 30.7 7 10 Alarm State:  0
Mon Jan 15 21:48:10 PST 2018 ON: 20.00 +20.0 20.05 -16.0 26.6 17.2 30.6 7 9 Alarm State:  0
Mon Jan 15 21:47:08 PST 2018 ON: 19.99 +20.0 20.06 -15.8 27.0 16.9 30.6 8 9 Alarm State:  0
Mon Jan 15 21:46:07 PST 2018 ON: 19.99 +20.0 20.05 -15.7 27.2 16.8 30.7 8 9 Alarm State:  0
Mon Jan 15 21:45:05 PST 2018 ON: 19.99 +20.0 20.04 -15.9 26.8 17.1 30.6 8 10 Alarm State:  0
Mon Jan 15 21:44:04 PST 2018 ON: 19.99 +20.0 20.05 -15.7 27.2 16.8 30.6 8 10 Alarm State:  0
Mon Jan 15 21:43:02 PST 2018 ON: 19.99 +20.0 20.02 -15.3 27.7 16.5 30.8 7 10 Alarm State:  0
Mon Jan 15 21:42:01 PST 2018 ON: 20.00 +20.0 20.04 -15.9 26.8 17.1 30.6 8 10 Alarm State:  0
Mon Jan 15 21:40:59 PST 2018 ON: 19.99 +20.0 20.05 -15.7 27.2 16.8 30.6 8 10 Alarm State:  0
Mon Jan 15 21:39:58 PST 2018 ON: 19.99 +20.0 20.04 -15.9 26.8 17.1 30.6 8 10 Alarm State:  0
Mon Jan 15 21:38:56 PST 2018 ON: 19.99 +20.0 20.04 -15.7 27.2 16.8 30.7 8 9 Alarm State:  0
Mon Jan 15 21:37:55 PST 2018 ON: 20.00 +20.0 20.04 -15.9 26.8 17.1 30.5 8 10 Alarm State:  0
Mon Jan 15 21:36:53 PST 2018 ON: 20.00 +20.0 20.06 -16.0 26.7 17.1 30.5 8 10 Alarm State:  0
Mon Jan 15 21:35:52 PST 2018 ON: 19.99 +20.0 20.04 -15.9 26.9 17.0 30.6 8 10 Alarm State:  0
Mon Jan 15 21:34:50 PST 2018 ON: 19.99 +20.0 20.04 -16.0 26.7 17.1 30.6 7 9 Alarm State:  0
Mon Jan 15 21:33:49 PST 2018 ON: 20.00 +20.0 20.04 -15.9 26.8 17.1 30.6 8 10 Alarm State:  0
Mon Jan 15 21:32:47 PST 2018 ON: 19.99 +20.0 20.03 -15.4 27.6 16.5 30.8 8 11 Alarm State:  0
Mon Jan 15 21:31:46 PST 2018 ON: 19.99 +20.0 20.04 -15.9 26.8 17.1 30.6 7 10 Alarm State:  0
Mon Jan 15 21:30:44 PST 2018 ON: 20.00 +20.0 20.06 -15.9 26.8 17.1 30.6 8 8 Alarm State:  0
Mon Jan 15 21:29:43 PST 2018 ON: 20.01 +20.0 20.04 -15.6 27.3 16.8 30.6 7 10 Alarm State:  0
Mon Jan 15 21:28:41 PST 2018 ON: 19.99 +20.0 20.03 -15.7 27.1 16.9 30.7 7 11 Alarm State:  0
Mon Jan 15 21:27:40 PST 2018 ON: 19.99 +20.0 20.04 -15.7 27.1 16.9 30.7 8 10 Alarm State:  0
Mon Jan 15 21:26:38 PST 2018 ON: 20.00 +20.0 20.05 -16.0 26.6 17.2 30.6 7 9 Alarm State:  0
Mon Jan 15 21:25:37 PST 2018 ON: 19.99 +20.0 20.05 -16.0 26.7 17.1 30.5 8 10 Alarm State:  0
Mon Jan 15 21:24:36 PST 2018 ON: 20.00 +20.0 20.05 -15.8 27.0 16.9 30.6 8 9 Alarm State:  0
Mon Jan 15 21:23:34 PST 2018 ON: 19.99 +20.0 20.03 -15.9 26.9 17.0 30.6 7 10 Alarm State:  0
Mon Jan 15 21:22:33 PST 2018 ON: 19.99 +20.0 20.04 -15.8 27.0 16.9 30.7 8 9 Alarm State:  0
Mon Jan 15 21:21:31 PST 2018 ON: 20.00 +20.0 20.07 -16.1 26.5 17.3 30.5 8 8 Alarm State:  0
Mon Jan 15 21:20:30 PST 2018 ON: 19.99 +20.0 20.04 -15.8 27.0 16.9 30.7 8 10 Alarm State:  0
Mon Jan 15 21:19:28 PST 2018 ON: 19.99 +20.0 20.04 -15.8 27.0 16.9 30.6 8 10 Alarm State:  0
Mon Jan 15 21:18:27 PST 2018 ON: 20.00 +20.0 20.05 -15.6 27.3 16.8 30.7 7 9 Alarm State:  0
Mon Jan 15 21:17:25 PST 2018 ON: 20.00 +20.0 20.04 -15.8 27.0 16.9 30.6 8 10 Alarm State:  0
Mon Jan 15 21:16:24 PST 2018 ON: 20.00 +20.0 20.05 -16.0 26.7 17.1 30.6 8 9 Alarm State:  0
Mon Jan 15 21:15:22 PST 2018 ON: 19.99 +20.0 20.05 -15.9 26.8 17.1 30.6 8 9 Alarm State:  0
Mon Jan 15 21:14:21 PST 2018 ON: 20.00 +20.0 20.05 -15.8 27.0 16.9 30.6 8 9 Alarm State:  0
Mon Jan 15 21:13:19 PST 2018 ON: 20.00 +20.0 20.03 -15.6 27.3 16.8 30.7 7 11 Alarm State:  0
Mon Jan 15 21:12:18 PST 2018 ON: 19.99 +20.0 20.05 -15.9 26.8 17.1 30.5 8 9 Alarm State:  0
Mon Jan 15 21:11:16 PST 2018 ON: 20.00 +20.0 20.05 -15.9 26.8 17.1 30.6 8 9 Alarm State:  0
Mon Jan 15 21:10:15 PST 2018 ON: 20.00 +20.0 20.05 -15.7 27.1 16.9 30.6 8 10 Alarm State:  0
Mon Jan 15 21:09:13 PST 2018 ON: 19.99 +20.0 20.04 -15.8 27.0 16.9 30.6 8 10 Alarm State:  0
Mon Jan 15 21:08:12 PST 2018 ON: 20.00 +20.0 20.05 -15.7 27.1 16.9 30.6 8 9 Alarm State:  0
Mon Jan 15 21:07:10 PST 2018 ON: 20.00 +20.0 20.05 -15.9 26.9 17.0 30.6 7 9 Alarm State:  0
Mon Jan 15 21:06:09 PST 2018 ON: 19.99 +20.0 20.05 -15.7 27.1 16.9 30.6 8 10 Alarm State:  0
Mon Jan 15 21:05:07 PST 2018 ON: 19.99 +20.0 20.03 -15.7 27.2 16.8 30.7 8 10 Alarm State:  0
Mon Jan 15 21:04:06 PST 2018 ON: 20.00 +20.0 20.05 -16.1 26.5 17.3 30.5 8 9 Alarm State:  0
Mon Jan 15 21:03:04 PST 2018 ON: 20.00 +20.0 20.05 -15.8 27.0 16.9 30.6 8 10 Alarm State:  0
Mon Jan 15 21:02:03 PST 2018 ON: 19.99 +20.0 20.04 -15.7 27.2 16.8 30.6 8 10 Alarm State:  0
Mon Jan 15 21:01:01 PST 2018 ON: 19.99 +20.0 20.04 -15.8 27.0 16.9 30.5 8 10 Alarm State:  0
Mon Jan 15 21:00:00 PST 2018 ON: 20.00 +20.0 20.03 -16.0 26.7 17.1 30.5 8 10 Alarm State:  0
Mon Jan 15 20:58:58 PST 2018 ON: 20.00 +20.0 20.05 -15.7 27.1 16.9 30.6 7 9 Alarm State:  0
Mon Jan 15 20:57:57 PST 2018 ON: 19.99 +20.0 20.03 -15.8 27.0 16.9 30.6 8 10 Alarm State:  0
Mon Jan 15 20:56:55 PST 2018 ON: 19.99 +20.0 20.03 -15.7 27.1 16.9 30.7 8 10 Alarm State:  0
Mon Jan 15 20:55:54 PST 2018 ON: 19.99 +20.0 20.04 -15.9 26.9 17.0 30.6 7 10 Alarm State:  0
Mon Jan 15 20:54:52 PST 2018 ON: 19.99 +20.0 20.04 -15.9 26.9 17.0 30.6 8 10 Alarm State:  0
Mon Jan 15 20:53:51 PST 2018 ON: 19.99 +20.0 20.04 -15.8 27.0 16.9 30.5 8 10 Alarm State:  0
Mon Jan 15 20:52:49 PST 2018 ON: 20.00 +20.0 20.05 -15.8 27.0 16.9 30.6 8 9 Alarm State:  0
Mon Jan 15 20:51:48 PST 2018 ON: 19.99 +20.0 20.05 -16.1 26.5 17.3 30.4 8 10 Alarm State:  0
Mon Jan 15 20:50:46 PST 2018 ON: 19.99 +20.0 20.02 -15.5 27.5 16.6 30.7 7 10 Alarm State:  0
Mon Jan 15 20:49:45 PST 2018 ON: 20.00 +20.0 20.04 -15.7 27.1 16.9 30.5 8 10 Alarm State:  0
Mon Jan 15 20:48:43 PST 2018 ON: 20.00 +20.0 20.06 -15.7 27.1 16.9 30.6 8 9 Alarm State:  0
Mon Jan 15 20:47:42 PST 2018 ON: 19.99 +20.0 20.03 -15.9 26.9 17.0 30.6 8 10 Alarm State:  0
Mon Jan 15 20:46:40 PST 2018 ON: 20.00 +20.0 20.05 -15.9 26.8 17.1 30.6 8 9 Alarm State:  0
Mon Jan 15 20:45:39 PST 2018 ON: 20.00 +20.0 20.05 -15.9 26.9 17.0 30.6 8 10 Alarm State:  0
Mon Jan 15 20:44:37 PST 2018 ON: 19.99 +20.0 20.05 -15.9 26.9 17.0 30.5 8 10 Alarm State:  0
Mon Jan 15 20:43:36 PST 2018 ON: 19.99 +20.0 20.04 -15.9 26.8 17.1 30.5 8 10 Alarm State:  0
Mon Jan 15 20:42:34 PST 2018 ON: 20.00 +20.0 20.05 -15.7 27.1 16.9 30.6 7 9 Alarm State:  0
Mon Jan 15 20:41:33 PST 2018 ON: 20.01 +20.0 20.04 -16.0 26.6 17.2 30.4 8 10 Alarm State:  0
Mon Jan 15 20:40:31 PST 2018 ON: 20.00 +20.0 20.06 -15.9 26.8 17.1 30.5 8 10 Alarm State:  0
Mon Jan 15 20:39:30 PST 2018 ON: 19.99 +20.0 20.04 -15.9 26.9 17.0 30.6 7 10 Alarm State:  0
Mon Jan 15 20:38:28 PST 2018 ON: 19.99 +20.0 20.04 -16.0 26.6 17.2 30.5 8 9 Alarm State:  0
Mon Jan 15 20:37:27 PST 2018 ON: 20.00 +20.0 20.06 -16.2 26.3 17.4 30.4 8 8 Alarm State:  0
Mon Jan 15 20:36:25 PST 2018 ON: 20.00 +20.0 20.05 -16.2 26.3 17.4 30.3 8 9 Alarm State:  0
Mon Jan 15 20:35:24 PST 2018 ON: 20.00 +20.0 20.04 -15.9 26.9 17.0 30.5 8 10 Alarm State:  0
Mon Jan 15 20:34:22 PST 2018 ON: 19.99 +20.0 20.03 -15.9 26.9 17.0 30.5 8 11 Alarm State:  0
Mon Jan 15 20:33:21 PST 2018 ON: 19.99 +20.0 20.04 -15.8 27.0 16.9 30.6 8 9 Alarm State:  0
Mon Jan 15 20:32:19 PST 2018 ON: 20.00 +20.0 20.05 -15.9 26.9 17.0 30.5 8 10 Alarm State:  0
Mon Jan 15 20:31:18 PST 2018 ON: 19.99 +20.0 20.04 -16.0 26.7 17.1 30.5 8 9 Alarm State:  0
Mon Jan 15 20:30:16 PST 2018 ON: 20.00 +20.0 20.06 -16.1 26.5 17.3 30.3 8 9 Alarm State:  0
Mon Jan 15 20:29:15 PST 2018 ON: 19.99 +20.0 20.05 -15.9 26.9 17.0 30.5 8 10 Alarm State:  0
Mon Jan 15 20:28:13 PST 2018 ON: 19.99 +20.0 20.04 -15.9 26.8 17.1 30.5 8 10 Alarm State:  0
Mon Jan 15 20:27:12 PST 2018 ON: 20.00 +20.0 20.04 -15.7 27.2 16.8 30.6 8 9 Alarm State:  0
Mon Jan 15 20:26:10 PST 2018 ON: 20.00 +20.0 20.05 -15.9 26.9 17.0 30.4 8 10 Alarm State:  0
Mon Jan 15 20:25:09 PST 2018 ON: 19.99 +20.0 20.03 -15.7 27.1 16.9 30.6 7 10 Alarm State:  0
Mon Jan 15 20:24:07 PST 2018 ON: 20.00 +20.0 20.05 -16.0 26.6 17.2 30.4 8 9 Alarm State:  0
Mon Jan 15 20:23:06 PST 2018 ON: 20.00 +20.0 20.05 -15.9 26.8 17.1 30.5 7 10 Alarm State:  0
Mon Jan 15 20:22:05 PST 2018 ON: 19.99 +20.0 20.02 -15.5 27.4 16.7 30.6 7 10 Alarm State:  0
Mon Jan 15 20:21:03 PST 2018 ON: 20.00 +20.0 20.04 -15.7 27.1 16.9 30.5 7 10 Alarm State:  0
Mon Jan 15 20:20:02 PST 2018 ON: 19.99 +20.0 20.05 -15.9 26.9 17.0 30.5 7 10 Alarm State:  0
Mon Jan 15 20:19:00 PST 2018 ON: 19.99 +20.0 20.05 -16.0 26.7 17.1 30.4 8 10 Alarm State:  0
Mon Jan 15 20:17:59 PST 2018 ON: 19.99 +20.0 20.03 -15.9 26.9 17.0 30.6 8 10 Alarm State:  0
Mon Jan 15 20:16:57 PST 2018 ON: 20.00 +20.0 20.05 -16.0 26.7 17.1 30.5 8 9 Alarm State:  0
Mon Jan 15 20:15:56 PST 2018 ON: 19.99 +20.0 20.05 -15.8 27.0 16.9 30.6 8 10 Alarm State:  0
Mon Jan 15 20:14:54 PST 2018 ON: 20.00 +20.0 20.04 -15.6 27.3 16.8 30.6 7 10 Alarm State:  0
Mon Jan 15 20:13:53 PST 2018 ON: 19.99 +20.0 20.03 -15.9 26.9 17.0 30.5 8 10 Alarm State:  0
Mon Jan 15 20:12:51 PST 2018 ON: 19.99 +20.0 20.04 -15.8 27.0 16.9 30.5 8 10 Alarm State:  0
Mon Jan 15 20:11:50 PST 2018 ON: 19.99 +20.0 20.04 -16.1 26.5 17.3 30.5 7 10 Alarm State:  0
Mon Jan 15 20:10:48 PST 2018 ON: 20.00 +20.0 20.06 -16.3 26.2 17.5 30.3 8 8 Alarm State:  0
Mon Jan 15 20:09:47 PST 2018 ON: 20.00 +20.0 20.05 -15.9 26.8 17.1 30.5 8 10 Alarm State:  0
Mon Jan 15 20:08:45 PST 2018 ON: 19.99 +20.0 20.03 -15.8 27.0 16.9 30.5 8 10 Alarm State:  0
Mon Jan 15 20:07:44 PST 2018 ON: 20.00 +20.0 20.07 -15.9 26.8 17.1 30.5 8 9 Alarm State:  0
Mon Jan 15 20:06:42 PST 2018 ON: 19.99 +20.0 20.04 -15.9 26.9 17.0 30.5 7 10 Alarm State:  0
Mon Jan 15 20:05:41 PST 2018 ON: 19.99 +20.0 20.03 -15.7 27.1 16.9 30.5 8 10 Alarm State:  0
Mon Jan 15 20:04:39 PST 2018 ON: 20.00 +20.0 20.06 -16.0 26.6 17.2 30.4 8 9 Alarm State:  0
Mon Jan 15 20:03:38 PST 2018 ON: 20.00 +20.0 20.05 -16.0 26.7 17.1 30.5 8 10 Alarm State:  0
Mon Jan 15 20:02:36 PST 2018 ON: 19.99 +20.0 20.05 -15.8 27.0 16.9 30.6 8 9 Alarm State:  0
Mon Jan 15 20:01:35 PST 2018 ON: 20.00 +20.0 20.04 -16.1 26.5 17.3 30.5 8 10 Alarm State:  0
Mon Jan 15 20:00:33 PST 2018 ON: 20.00 +20.0 20.03 -15.9 26.9 17.0 30.5 8 10 Alarm State:  0
Mon Jan 15 19:59:32 PST 2018 ON: 20.00 +20.0 20.04 -15.9 26.9 17.0 30.5 8 10 Alarm State:  0
Mon Jan 15 19:58:30 PST 2018 ON: 20.00 +20.0 20.04 -15.7 27.1 16.9 30.6 7 10 Alarm State:  0
Mon Jan 15 19:57:29 PST 2018 ON: 19.99 +20.0 20.05 -15.7 27.1 16.9 30.6 8 9 Alarm State:  0
Mon Jan 15 19:56:27 PST 2018 ON: 20.00 +20.0 20.04 -16.0 26.6 17.2 30.5 8 10 Alarm State:  0
Mon Jan 15 19:55:26 PST 2018 ON: 19.99 +20.0 20.04 -15.8 27.0 16.9 30.5 7 10 Alarm State:  0
Mon Jan 15 19:54:24 PST 2018 ON: 20.00 +20.0 20.05 -16.0 26.7 17.1 30.5 8 9 Alarm State:  0
Mon Jan 15 19:53:23 PST 2018 ON: 19.99 +20.0 20.04 -15.7 27.1 16.9 30.6 8 10 Alarm State:  0
Mon Jan 15 19:52:21 PST 2018 ON: 19.99 +20.0 20.03 -15.7 27.1 16.9 30.6 8 10 Alarm State:  0
Mon Jan 15 19:51:20 PST 2018 ON: 20.00 +20.0 20.06 -16.0 26.6 17.2 30.4 8 9 Alarm State:  0
Mon Jan 15 19:50:18 PST 2018 ON: 19.99 +20.0 20.05 -15.9 26.9 17.0 30.6 7 9 Alarm State:  0
Mon Jan 15 19:49:17 PST 2018 ON: 20.00 +20.0 20.03 -15.5 27.4 16.7 30.6 8 10 Alarm State:  0
Mon Jan 15 19:48:15 PST 2018 ON: 20.00 +20.0 20.04 -15.7 27.2 16.8 30.6 8 10 Alarm State:  0
Mon Jan 15 19:47:14 PST 2018 ON: 19.99 +20.0 20.05 -15.9 26.8 17.1 30.5 8 10 Alarm State:  0
Mon Jan 15 19:46:12 PST 2018 ON: 20.00 +20.0 20.05 -15.9 26.9 17.0 30.5 8 9 Alarm State:  0
Mon Jan 15 19:45:11 PST 2018 ON: 20.00 +20.0 20.05 -15.8 27.0 16.9 30.6 8 10 Alarm State:  0
Mon Jan 15 19:44:09 PST 2018 ON: 19.99 +20.0 20.04 -15.9 26.9 17.0 30.5 8 10 Alarm State:  0
Mon Jan 15 19:43:08 PST 2018 ON: 19.99 +20.0 20.04 -15.9 26.8 17.1 30.5 8 9 Alarm State:  0
Mon Jan 15 19:42:06 PST 2018 ON: 20.00 +20.0 20.05 -15.9 26.9 17.0 30.6 7 9 Alarm State:  0
Mon Jan 15 19:41:05 PST 2018 ON: 20.00 +20.0 20.05 -15.7 27.1 16.9 30.5 8 10 Alarm State:  0
Mon Jan 15 19:40:03 PST 2018 ON: 19.99 +20.0 20.04 -15.5 27.5 16.6 30.7 7 10 Alarm State:  0
Mon Jan 15 19:39:02 PST 2018 ON: 19.99 +20.0 20.03 -15.7 27.1 16.9 30.6 7 10 Alarm State:  0
Mon Jan 15 19:38:00 PST 2018 ON: 20.00 +20.0 20.05 -16.0 26.6 17.2 30.5 8 9 Alarm State:  0
Mon Jan 15 19:36:59 PST 2018 ON: 19.99 +20.0 20.04 -15.9 26.8 17.1 30.5 8 10 Alarm State:  0
Mon Jan 15 19:35:57 PST 2018 ON: 20.00 +20.0 20.05 -16.0 26.7 17.1 30.5 8 9 Alarm State:  0
Mon Jan 15 19:34:56 PST 2018 ON: 20.00 +20.0 20.05 -15.9 26.8 17.1 30.5 8 10 Alarm State:  0
Mon Jan 15 19:33:54 PST 2018 ON: 19.99 +20.0 20.03 -16.0 26.7 17.1 30.5 7 10 Alarm State:  0
Mon Jan 15 19:32:53 PST 2018 ON: 20.00 +20.0 20.04 -15.9 26.9 17.0 30.6 8 10 Alarm State:  0
Mon Jan 15 19:31:51 PST 2018 ON: 19.99 +20.0 20.04 -15.7 27.1 16.9 30.5 8 10 Alarm State:  0
Mon Jan 15 19:30:50 PST 2018 ON: 19.99 +20.0 20.04 -15.9 26.9 17.0 30.6 7 10 Alarm State:  0
Mon Jan 15 19:29:48 PST 2018 ON: 20.00 +20.0 20.03 -15.9 26.9 17.0 30.5 8 10 Alarm State:  0
Mon Jan 15 19:28:47 PST 2018 ON: 20.00 +20.0 20.03 -15.7 27.2 16.8 30.6 7 10 Alarm State:  0
Mon Jan 15 19:27:45 PST 2018 ON: 20.00 +20.0 20.05 -15.9 26.8 17.1 30.5 8 10 Alarm State:  0
Mon Jan 15 19:26:44 PST 2018 ON: 19.99 +20.0 20.05 -15.9 26.8 17.1 30.6 8 10 Alarm State:  0
Mon Jan 15 19:25:42 PST 2018 ON: 19.99 +20.0 20.03 -15.9 26.8 17.1 30.5 7 10 Alarm State:  0
Mon Jan 15 19:24:41 PST 2018 ON: 20.00 +20.0 20.05 -15.8 27.0 16.9 30.5 8 9 Alarm State:  0
Mon Jan 15 19:23:39 PST 2018 ON: 20.00 +20.0 20.05 -16.0 26.6 17.2 30.4 8 10 Alarm State:  0
Mon Jan 15 19:22:38 PST 2018 ON: 19.99 +20.0 20.06 -16.1 26.5 17.3 30.4 7 9 Alarm State:  0
Mon Jan 15 19:21:36 PST 2018 ON: 20.00 +20.0 20.05 -15.9 26.8 17.1 30.5 8 9 Alarm State:  0
Mon Jan 15 19:20:35 PST 2018 ON: 20.00 +20.0 20.05 -15.8 27.0 16.9 30.5 8 10 Alarm State:  0
Mon Jan 15 19:19:33 PST 2018 ON: 19.99 +20.0 20.05 -15.9 26.8 17.1 30.5 8 10 Alarm State:  0
Mon Jan 15 19:18:32 PST 2018 ON: 19.99 +20.0 20.05 -15.9 26.8 17.1 30.5 8 9 Alarm State:  0
Mon Jan 15 19:17:30 PST 2018 ON: 20.00 +20.0 20.04 -15.9 26.8 17.1 30.5 8 9 Alarm State:  0
Mon Jan 15 19:16:29 PST 2018 ON: 20.00 +20.0 20.05 -15.9 26.8 17.1 30.4 8 9 Alarm State:  0
Mon Jan 15 19:15:27 PST 2018 ON: 19.99 +20.0 20.04 -15.8 27.0 16.9 30.6 8 10 Alarm State:  0
Mon Jan 15 19:14:26 PST 2018 ON: 19.99 +20.0 20.04 -15.7 27.1 16.9 30.6 7 10 Alarm State:  0
Mon Jan 15 19:13:25 PST 2018 ON: 20.00 +20.0 20.05 -16.0 26.7 17.1 30.4 8 10 Alarm State:  0
Mon Jan 15 19:12:23 PST 2018 ON: 20.00 +20.0 20.05 -15.9 26.9 17.0 30.5 8 9 Alarm State:  0
Mon Jan 15 19:11:22 PST 2018 ON: 20.00 +20.0 20.05 -15.8 27.0 16.9 30.6 8 9 Alarm State:  0
Mon Jan 15 19:10:10 PST 2018  Alarm State: 0
Mon Jan 15 19:10:10 PST 2018 Chiller did not report ON, got this reading: 
Mon Jan 15 19:09:09 PST 2018 ON: 19.99 +20.0 20.03 -15.7 27.1 16.9 30.6 8 10 Alarm State:  0
Mon Jan 15 19:08:07 PST 2018 ON: 20.00 +20.0 20.04 -15.9 26.9 17.0 30.6 8 10 Alarm State:  0
Mon Jan 15 19:07:06 PST 2018 ON: 19.99 +20.0 20.05 -16.0 26.7 17.1 30.5 8 10 Alarm State:  0
Mon Jan 15 19:06:04 PST 2018 ON: 20.00 +20.0 20.03 -15.7 27.2 16.8 30.6 8 10 Alarm State:  0
Mon Jan 15 19:05:03 PST 2018 ON: 20.00 +20.0 20.04 -15.8 27.0 16.9 30.5 8 10 Alarm State:  0
Mon Jan 15 19:04:01 PST 2018 ON: 19.99 +20.0 20.04 -15.7 27.2 16.8 30.6 8 10 Alarm State:  0
Mon Jan 15 19:03:00 PST 2018 ON: 19.99 +20.0 20.04 -15.7 27.1 16.9 30.6 8 9 Alarm State:  0
Mon Jan 15 19:01:58 PST 2018 ON: 20.00 +20.0 20.05 -16.0 26.6 17.2 30.5 8 9 Alarm State:  0
Mon Jan 15 19:00:57 PST 2018 ON: 19.99 +20.0 20.05 -15.7 27.2 16.8 30.6 8 10 Alarm State:  0
Mon Jan 15 18:59:55 PST 2018 ON: 20.00 +20.0 20.05 -15.9 26.8 17.1 30.5 8 9 Alarm State:  0
Mon Jan 15 18:58:54 PST 2018 ON: 20.00 +20.0 20.03 -15.5 27.5 16.6 30.7 7 11 Alarm State:  0
Mon Jan 15 18:57:52 PST 2018 ON: 19.99 +20.0 20.06 -15.9 26.9 17.0 30.5 8 10 Alarm State:  0
Mon Jan 15 18:56:51 PST 2018 ON: 19.99 +20.0 20.05 -15.7 27.2 16.8 30.6 8 9 Alarm State:  0
Mon Jan 15 18:55:49 PST 2018 ON: 19.99 +20.0 20.03 -16.1 26.5 17.3 30.5 8 10 Alarm State:  0
Mon Jan 15 18:54:48 PST 2018 ON: 20.00 +20.0 20.03 -16.0 26.6 17.2 30.5 8 10 Alarm State:  0
Mon Jan 15 18:53:46 PST 2018 ON: 20.00 +20.0 20.05 -16.1 26.5 17.3 30.5 7 10 Alarm State:  0
Mon Jan 15 18:52:45 PST 2018 ON: 19.99 +20.0 20.05 -15.7 27.2 16.8 30.6 8 10 Alarm State:  0
Mon Jan 15 18:51:43 PST 2018 ON: 19.99 +20.0 20.03 -15.7 27.2 16.8 30.6 8 10 Alarm State:  0
Mon Jan 15 18:50:42 PST 2018 ON: 20.00 +20.0 20.05 -15.8 27.0 16.9 30.6 7 9 Alarm State:  0
Mon Jan 15 18:49:40 PST 2018 ON: 19.99 +20.0 20.05 -16.0 26.6 17.2 30.5 8 10 Alarm State:  0
Mon Jan 15 18:48:39 PST 2018 ON: 20.00 +20.0 20.05 -15.9 26.8 17.1 30.6 8 9 Alarm State:  0
Mon Jan 15 18:47:37 PST 2018 ON: 20.00 +20.0 20.06 -16.0 26.6 17.2 30.5 8 9 Alarm State:  0
Mon Jan 15 18:46:26 PST 2018  Alarm State: 0
Mon Jan 15 18:46:26 PST 2018 Chiller did not report ON, got this reading: 
Mon Jan 15 18:45:24 PST 2018 ON: 19.99 +20.0 20.03 -15.7 27.1 16.9 30.6 8 10 Alarm State:  0
Mon Jan 15 18:44:23 PST 2018 ON: 20.00 +20.0 20.04 -16.0 26.6 17.2 30.4 8 10 Alarm State:  0
Mon Jan 15 18:43:21 PST 2018 ON: 19.99 +20.0 20.03 -15.9 26.9 17.0 30.6 7 11 Alarm State:  0
Mon Jan 15 18:42:20 PST 2018 ON: 20.00 +20.0 20.05 -15.7 27.1 16.9 30.6 8 10 Alarm State:  0
Mon Jan 15 18:41:18 PST 2018 ON: 20.00 +20.0 20.04 -15.9 26.8 17.1 30.6 8 10 Alarm State:  0
Mon Jan 15 18:40:17 PST 2018 ON: 19.99 +20.0 20.04 -15.9 26.8 17.1 30.5 8 10 Alarm State:  0
Mon Jan 15 18:39:15 PST 2018 ON: 20.00 +20.0 20.04 -16.0 26.7 17.1 30.6 8 10 Alarm State:  0
Mon Jan 15 18:38:14 PST 2018 ON: 20.00 +20.0 20.06 -15.9 26.8 17.1 30.6 7 9 Alarm State:  0
Mon Jan 15 18:37:12 PST 2018 ON: 19.99 +20.0 20.03 -15.7 27.1 16.9 30.6 8 11 Alarm State:  0
Mon Jan 15 18:36:11 PST 2018 ON: 20.00 +20.0 20.03 -15.7 27.2 16.8 30.6 8 10 Alarm State:  0
Mon Jan 15 18:35:09 PST 2018 ON: 20.00 +20.0 20.05 -15.9 26.8 17.1 30.5 8 9 Alarm State:  0
Mon Jan 15 18:34:08 PST 2018 ON: 19.99 +20.0 20.05 -16.0 26.7 17.1 30.6 8 9 Alarm State:  0
Mon Jan 15 18:33:06 PST 2018 ON: 19.99 +20.0 20.03 -15.9 26.8 17.1 30.6 8 11 Alarm State:  0
Mon Jan 15 18:32:05 PST 2018 ON: 19.99 +20.0 20.04 -15.9 26.8 17.1 30.6 8 10 Alarm State:  0
Mon Jan 15 18:31:03 PST 2018 ON: 19.99 +20.0 20.03 -15.7 27.2 16.8 30.6 8 10 Alarm State:  0
Mon Jan 15 18:30:02 PST 2018 ON: 20.00 +20.0 20.04 -15.8 27.0 16.9 30.6 7 10 Alarm State:  0
Mon Jan 15 18:29:00 PST 2018 ON: 20.00 +20.0 20.06 -16.0 26.6 17.2 30.5 8 9 Alarm State:  0
Mon Jan 15 18:27:59 PST 2018 ON: 19.99 +20.0 20.04 -15.8 27.0 16.9 30.6 8 10 Alarm State:  0
Mon Jan 15 18:26:57 PST 2018 ON: 19.99 +20.0 20.04 -15.9 26.9 17.0 30.5 8 10 Alarm State:  0
Mon Jan 15 18:25:56 PST 2018 ON: 19.99 +20.0 20.04 -16.0 26.6 17.2 30.5 8 10 Alarm State:  0
Mon Jan 15 18:24:54 PST 2018 ON: 20.00 +20.0 20.04 -15.7 27.2 16.8 30.6 7 10 Alarm State:  0
Mon Jan 15 18:23:53 PST 2018 ON: 19.99 +20.0 20.06 -15.8 27.0 16.9 30.6 8 9 Alarm State:  0
Mon Jan 15 18:22:51 PST 2018 ON: 19.99 +20.0 20.04 -15.9 26.9 17.0 30.6 8 10 Alarm State:  0
Mon Jan 15 18:21:50 PST 2018 ON: 20.00 +20.0 20.05 -15.9 26.9 17.0 30.7 7 9 Alarm State:  0
Mon Jan 15 18:20:48 PST 2018 ON: 19.99 +20.0 20.05 -15.9 26.8 17.1 30.6 8 10 Alarm State:  0
Mon Jan 15 18:19:47 PST 2018 ON: 19.99 +20.0 20.05 -15.8 27.0 16.9 30.6 8 9 Alarm State:  0
Mon Jan 15 18:18:45 PST 2018 ON: 19.99 +20.0 20.05 -15.9 26.8 17.1 30.6 8 9 Alarm State:  0
Mon Jan 15 18:17:44 PST 2018 ON: 19.99 +20.0 20.04 -16.0 26.7 17.1 30.5 8 10 Alarm State:  0
Mon Jan 15 18:16:42 PST 2018 ON: 20.00 +20.0 20.02 -15.5 27.4 16.7 30.6 8 10 Alarm State:  0
Mon Jan 15 18:15:41 PST 2018 ON: 20.00 +20.0 20.05 -16.0 26.7 17.1 30.5 8 10 Alarm State:  0
Mon Jan 15 18:14:39 PST 2018 ON: 19.99 +20.0 20.06 -16.0 26.7 17.1 30.5 8 9 Alarm State:  0
Mon Jan 15 18:13:38 PST 2018 ON: 20.00 +20.0 20.04 -15.6 27.3 16.8 30.7 7 10 Alarm State:  0
Mon Jan 15 18:12:36 PST 2018 ON: 20.00 +20.0 20.04 -15.9 26.9 17.0 30.6 8 10 Alarm State:  0
Mon Jan 15 18:11:35 PST 2018 ON: 20.00 +20.0 20.05 -15.8 27.0 16.9 30.6 8 10 Alarm State:  0
Mon Jan 15 18:10:33 PST 2018 ON: 19.99 +20.0 20.05 -15.7 27.1 16.9 30.6 7 9 Alarm State:  0
Mon Jan 15 18:09:32 PST 2018 ON: 20.00 +20.0 20.03 -15.5 27.4 16.7 30.7 8 10 Alarm State:  0
Mon Jan 15 18:08:30 PST 2018 ON: 20.00 +20.0 20.05 -15.9 26.9 17.0 30.6 8 10 Alarm State:  0
Mon Jan 15 18:07:29 PST 2018 ON: 19.99 +20.0 20.04 -15.7 27.1 16.9 30.6 8 10 Alarm State:  0
Mon Jan 15 18:06:27 PST 2018 ON: 20.00 +20.0 20.05 -15.7 27.1 16.9 30.6 8 9 Alarm State:  0
Mon Jan 15 18:05:26 PST 2018 ON: 20.00 +20.0 20.05 -15.8 27.0 16.9 30.6 7 10 Alarm State:  0
Mon Jan 15 18:04:24 PST 2018 ON: 19.99 +20.0 20.04 -15.9 26.9 17.0 30.6 8 10 Alarm State:  0
Mon Jan 15 18:03:23 PST 2018 ON: 20.00 +20.0 20.04 -15.7 27.2 16.8 30.6 7 10 Alarm State:  0
Mon Jan 15 18:02:22 PST 2018 ON: 20.00 +20.0 20.04 -15.9 26.8 17.1 30.6 8 10 Alarm State:  0
Mon Jan 15 18:01:20 PST 2018 ON: 20.00 +20.0 20.05 -15.7 27.1 16.9 30.6 8 10 Alarm State:  0
Mon Jan 15 18:00:19 PST 2018 ON: 19.99 +20.0 20.02 -15.6 27.3 16.8 30.7 8 11 Alarm State:  0
Mon Jan 15 17:59:17 PST 2018 ON: 20.00 +20.0 20.04 -15.7 27.1 16.9 30.6 7 10 Alarm State:  0
Mon Jan 15 17:58:16 PST 2018 ON: 20.00 +20.0 20.06 -16.0 26.7 17.1 30.6 8 9 Alarm State:  0
Mon Jan 15 17:57:14 PST 2018 ON: 19.98 +20.0 20.02 -15.7 27.1 16.9 30.7 7 11 Alarm State:  0
Mon Jan 15 17:56:13 PST 2018 ON: 19.99 +20.0 20.03 -15.5 27.5 16.6 30.8 7 10 Alarm State:  0
Mon Jan 15 17:55:11 PST 2018 ON: 20.00 +20.0 20.05 -16.1 26.5 17.3 30.5 8 9 Alarm State:  0
Mon Jan 15 17:54:10 PST 2018 ON: 20.00 +20.0 20.07 -16.0 26.6 17.2 30.5 8 9 Alarm State:  0
Mon Jan 15 17:53:08 PST 2018 ON: 19.99 +20.0 20.05 -15.8 27.0 16.9 30.7 8 10 Alarm State:  0
Mon Jan 15 17:52:07 PST 2018 ON: 19.99 +20.0 20.05 -15.7 27.2 16.8 30.7 8 9 Alarm State:  0
Mon Jan 15 17:51:05 PST 2018 ON: 20.00 +20.0 20.04 -15.9 26.8 17.1 30.6 8 10 Alarm State:  0
Mon Jan 15 17:50:04 PST 2018 ON: 19.99 +20.0 20.05 -16.2 26.4 17.3 30.5 8 9 Alarm State:  0
Mon Jan 15 17:49:02 PST 2018 ON: 20.00 +20.0 20.05 -15.9 26.9 17.0 30.5 8 10 Alarm State:  0
Mon Jan 15 17:48:01 PST 2018 ON: 19.99 +20.0 20.04 -15.7 27.1 16.9 30.6 7 10 Alarm State:  0
Mon Jan 15 17:46:59 PST 2018 ON: 19.99 +20.0 20.03 -15.8 27.0 16.9 30.6 8 11 Alarm State:  0
Mon Jan 15 17:45:58 PST 2018 ON: 20.00 +20.0 20.05 -15.9 26.9 17.0 30.6 8 9 Alarm State:  0
Mon Jan 15 17:44:56 PST 2018 ON: 20.00 +20.0 20.04 -15.8 27.0 16.9 30.6 8 10 Alarm State:  0
Mon Jan 15 17:43:55 PST 2018 ON: 19.99 +20.0 20.05 -16.0 26.7 17.1 30.5 8 10 Alarm State:  0
Mon Jan 15 17:42:53 PST 2018 ON: 19.99 +20.0 20.03 -15.6 27.3 16.8 30.7 7 10 Alarm State:  0
Mon Jan 15 17:41:52 PST 2018 ON: 20.00 +20.0 20.04 -15.6 27.3 16.8 30.7 8 10 Alarm State:  0
Mon Jan 15 17:40:50 PST 2018 ON: 19.99 +20.0 20.04 -15.9 26.8 17.1 30.6 7 10 Alarm State:  0
Mon Jan 15 17:39:49 PST 2018 ON: 19.99 +20.0 20.03 -15.5 27.4 16.7 30.7 8 10 Alarm State:  0
Mon Jan 15 17:38:47 PST 2018 ON: 20.00 +20.0 20.05 -15.9 26.8 17.1 30.5 8 10 Alarm State:  0
Mon Jan 15 17:37:46 PST 2018 ON: 20.00 +20.0 20.04 -15.7 27.2 16.8 30.7 7 11 Alarm State:  0
Mon Jan 15 17:36:44 PST 2018 ON: 19.99 +20.0 20.05 -15.7 27.2 16.8 30.7 8 10 Alarm State:  0
Mon Jan 15 17:35:43 PST 2018 ON: 19.99 +20.0 20.04 -15.7 27.1 16.9 30.7 7 10 Alarm State:  0
Mon Jan 15 17:34:41 PST 2018 ON: 20.00 +20.0 20.04 -15.7 27.1 16.9 30.7 8 10 Alarm State:  0
Mon Jan 15 17:33:40 PST 2018 ON: 20.00 +20.0 20.06 -15.7 27.1 16.9 30.7 8 9 Alarm State:  0
Mon Jan 15 17:32:38 PST 2018 ON: 20.00 +20.0 20.05 -15.8 27.0 16.9 30.6 8 10 Alarm State:  0
Mon Jan 15 17:31:37 PST 2018 ON: 19.99 +20.0 20.04 -15.8 27.0 16.9 30.7 8 10 Alarm State:  0
Mon Jan 15 17:30:35 PST 2018 ON: 20.00 +20.0 20.05 -15.7 27.2 16.8 30.7 8 9 Alarm State:  0
Mon Jan 15 17:29:34 PST 2018 ON: 20.00 +20.0 20.06 -15.9 26.8 17.1 30.7 7 9 Alarm State:  0
Mon Jan 15 17:28:32 PST 2018 ON: 20.00 +20.0 20.07 -15.9 26.9 17.0 30.6 8 10 Alarm State:  0
Mon Jan 15 17:27:31 PST 2018 ON: 19.99 +20.0 20.04 -15.6 27.3 16.8 30.8 7 10 Alarm State:  0
Mon Jan 15 17:26:29 PST 2018 ON: 19.98 +20.0 20.03 -15.5 27.4 16.7 30.8 8 10 Alarm State:  0
Mon Jan 15 17:25:28 PST 2018 ON: 20.00 +20.0 20.03 -15.9 26.8 17.1 30.6 8 10 Alarm State:  0
Mon Jan 15 17:24:26 PST 2018 ON: 19.99 +20.0 20.04 -15.7 27.1 16.9 30.7 7 10 Alarm State:  0
Mon Jan 15 17:23:25 PST 2018 ON: 19.99 +20.0 20.05 -15.7 27.2 16.8 30.7 8 10 Alarm State:  0
Mon Jan 15 17:22:23 PST 2018 ON: 19.98 +20.0 20.04 -15.7 27.1 16.9 30.7 8 10 Alarm State:  0
Mon Jan 15 17:21:22 PST 2018 ON: 20.00 +20.0 20.05 -15.7 27.1 16.9 30.7 7 9 Alarm State:  0
Mon Jan 15 17:20:20 PST 2018 ON: 20.01 +20.0 20.06 -16.0 26.7 17.1 30.6 8 9 Alarm State:  0
Mon Jan 15 17:19:19 PST 2018 ON: 20.00 +20.0 20.06 -15.9 26.9 17.0 30.7 8 10 Alarm State:  0
Mon Jan 15 17:18:17 PST 2018 ON: 19.99 +20.0 20.05 -15.9 26.9 17.0 30.7 8 10 Alarm State:  0
Mon Jan 15 17:17:16 PST 2018 ON: 19.99 +20.0 20.04 -15.7 27.2 16.8 30.8 8 10 Alarm State:  0
Mon Jan 15 17:16:14 PST 2018 ON: 20.00 +20.0 20.05 -16.0 26.7 17.1 30.6 8 9 Alarm State:  0
Mon Jan 15 17:15:13 PST 2018 ON: 19.99 +20.0 20.05 -15.8 27.0 16.9 30.7 8 10 Alarm State:  0
Mon Jan 15 17:14:11 PST 2018 ON: 19.99 +20.0 20.04 -15.5 27.4 16.7 30.8 8 10 Alarm State:  0
Mon Jan 15 17:13:10 PST 2018 ON: 20.00 +20.0 20.04 -15.7 27.1 16.9 30.8 7 10 Alarm State:  0
Mon Jan 15 17:12:08 PST 2018 ON: 20.00 +20.0 20.07 -15.6 27.3 16.8 30.7 8 10 Alarm State:  0
Mon Jan 15 17:11:07 PST 2018 ON: 19.99 +20.0 20.04 -15.6 27.3 16.8 30.8 8 10 Alarm State:  0
Mon Jan 15 17:10:05 PST 2018 ON: 19.99 +20.0 20.03 -15.5 27.4 16.7 30.8 7 10 Alarm State:  0
Mon Jan 15 17:09:04 PST 2018 ON: 20.00 +20.0 20.05 -15.9 26.8 17.1 30.6 8 9 Alarm State:  0
Mon Jan 15 17:08:02 PST 2018 ON: 19.99 +20.0 20.05 -15.8 27.0 16.9 30.7 7 10 Alarm State:  0
Mon Jan 15 17:07:01 PST 2018 ON: 19.99 +20.0 20.02 -15.4 27.6 16.5 30.9 7 11 Alarm State:  0
Mon Jan 15 17:05:59 PST 2018 ON: 19.99 +20.0 20.05 -15.7 27.1 16.9 30.7 8 9 Alarm State:  0
Mon Jan 15 17:04:58 PST 2018 ON: 20.00 +20.0 20.06 -15.9 26.9 17.0 30.7 7 9 Alarm State:  0
Mon Jan 15 17:03:56 PST 2018 ON: 19.99 +20.0 20.05 -15.9 26.9 17.0 30.7 8 10 Alarm State:  0
Mon Jan 15 17:02:54 PST 2018 ON: 19.99 +20.0 20.05 -15.8 27.0 16.9 30.7 8 9 Alarm State:  0
Mon Jan 15 17:01:53 PST 2018 ON: 20.00 +20.0 20.04 -15.7 27.2 16.8 30.7 8 10 Alarm State:  0
Mon Jan 15 17:00:51 PST 2018 ON: 20.00 +20.0 20.05 -15.8 27.0 16.9 30.7 8 10 Alarm State:  0
Mon Jan 15 16:59:50 PST 2018 ON: 19.99 +20.0 20.04 -15.7 27.1 16.9 30.8 7 10 Alarm State:  0
Mon Jan 15 16:58:48 PST 2018 ON: 20.00 +20.0 20.05 -15.9 26.8 17.1 30.7 8 9 Alarm State:  0
Mon Jan 15 16:57:47 PST 2018 ON: 19.99 +20.0 20.04 -15.7 27.2 16.8 30.7 8 10 Alarm State:  0
Mon Jan 15 16:56:45 PST 2018 ON: 19.99 +20.0 20.04 -15.7 27.1 16.9 30.7 7 10 Alarm State:  0
Mon Jan 15 16:55:44 PST 2018 ON: 19.99 +20.0 20.05 -15.7 27.2 16.8 30.8 8 10 Alarm State:  0
Mon Jan 15 16:54:42 PST 2018 ON: 19.99 +20.0 20.05 -15.8 27.0 16.9 30.7 8 10 Alarm State:  0
Mon Jan 15 16:53:41 PST 2018 ON: 19.99 +20.0 20.03 -15.9 26.9 17.0 30.7 8 10 Alarm State:  0
Mon Jan 15 16:52:39 PST 2018 ON: 20.00 +20.0 20.05 -15.7 27.2 16.8 30.7 8 9 Alarm State:  0
Mon Jan 15 16:51:38 PST 2018 ON: 20.00 +20.0 20.05 -15.7 27.2 16.8 30.8 7 10 Alarm State:  0
Mon Jan 15 16:50:37 PST 2018 ON: 19.99 +20.0 20.04 -15.6 27.3 16.8 30.7 8 10 Alarm State:  0
Mon Jan 15 16:49:35 PST 2018 ON: 20.00 +20.0 20.04 -15.7 27.2 16.8 30.7 7 9 Alarm State:  0
Mon Jan 15 16:48:34 PST 2018 ON: 20.00 +20.0 20.05 -15.8 27.0 16.9 30.7 7 9 Alarm State:  0
Mon Jan 15 16:47:32 PST 2018 ON: 20.00 +20.0 20.06 -15.8 27.0 16.9 30.7 8 10 Alarm State:  0
Mon Jan 15 16:46:31 PST 2018 ON: 19.99 +20.0 20.04 -15.7 27.2 16.8 30.7 8 10 Alarm State:  0
Mon Jan 15 16:45:29 PST 2018 ON: 19.99 +20.0 20.03 -15.8 27.0 16.9 30.7 8 10 Alarm State:  0
Mon Jan 15 16:44:28 PST 2018 ON: 20.00 +20.0 20.06 -15.7 27.1 16.9 30.7 8 9 Alarm State:  0
Mon Jan 15 16:43:26 PST 2018 ON: 19.99 +20.0 20.04 -15.9 26.8 17.1 30.6 7 10 Alarm State:  0
Mon Jan 15 16:42:25 PST 2018 ON: 19.99 +20.0 20.04 -15.9 26.9 17.0 30.6 8 10 Alarm State:  0
Mon Jan 15 16:41:23 PST 2018 ON: 20.00 +20.0 20.05 -15.9 26.9 17.0 30.7 8 9 Alarm State:  0
Mon Jan 15 16:40:22 PST 2018 ON: 20.00 +20.0 20.04 -15.5 27.4 16.7 30.7 7 10 Alarm State:  0
Mon Jan 15 16:39:20 PST 2018 ON: 19.99 +20.0 20.05 -15.7 27.1 16.9 30.8 8 10 Alarm State:  0
Mon Jan 15 16:38:19 PST 2018 ON: 19.99 +20.0 20.04 -15.8 27.0 16.9 30.7 8 9 Alarm State:  0
Mon Jan 15 16:37:17 PST 2018 ON: 20.00 +20.0 20.04 -16.2 26.4 17.3 30.5 8 9 Alarm State:  0
Mon Jan 15 16:36:16 PST 2018 ON: 20.00 +20.0 20.06 -15.9 26.8 17.1 30.7 8 9 Alarm State:  0
Mon Jan 15 16:35:14 PST 2018 ON: 19.99 +20.0 20.05 -15.6 27.3 16.8 30.8 8 10 Alarm State:  0
Mon Jan 15 16:34:13 PST 2018 ON: 19.99 +20.0 20.05 -15.9 26.9 17.0 30.7 8 9 Alarm State:  0
Mon Jan 15 16:33:11 PST 2018 ON: 20.00 +20.0 20.05 -15.9 26.9 17.0 30.7 8 9 Alarm State:  0
Mon Jan 15 16:32:10 PST 2018 ON: 20.00 +20.0 20.05 -15.9 26.8 17.1 30.7 7 10 Alarm State:  0
Mon Jan 15 16:31:08 PST 2018 ON: 19.99 +20.0 20.05 -15.7 27.1 16.9 30.7 8 10 Alarm State:  0
Mon Jan 15 16:30:07 PST 2018 ON: 19.99 +20.0 20.03 -15.9 26.9 17.0 30.7 8 10 Alarm State:  0
Mon Jan 15 16:29:05 PST 2018 ON: 20.00 +20.0 20.05 -16.0 26.7 17.1 30.7 7 9 Alarm State:  0
Mon Jan 15 16:28:04 PST 2018 ON: 20.00 +20.0 20.06 -16.0 26.7 17.1 30.6 8 9 Alarm State:  0
Mon Jan 15 16:27:02 PST 2018 ON: 19.99 +20.0 20.04 -15.9 26.9 17.0 30.7 8 10 Alarm State:  0
Mon Jan 15 16:26:01 PST 2018 ON: 20.00 +20.0 20.04 -15.8 27.0 16.9 30.8 8 9 Alarm State:  0
Mon Jan 15 16:24:59 PST 2018 ON: 20.00 +20.0 20.05 -15.7 27.2 16.8 30.8 8 10 Alarm State:  0
Mon Jan 15 16:23:58 PST 2018 ON: 19.99 +20.0 20.04 -15.9 26.9 17.0 30.7 8 10 Alarm State:  0
Mon Jan 15 16:22:56 PST 2018 ON: 20.00 +20.0 20.05 -15.9 26.9 17.0 30.7 8 9 Alarm State:  0
Mon Jan 15 16:21:55 PST 2018 ON: 19.99 +20.0 20.04 -15.8 27.0 16.9 30.7 8 10 Alarm State:  0
Mon Jan 15 16:20:53 PST 2018 ON: 20.00 +20.0 20.06 -15.9 26.8 17.1 30.7 8 9 Alarm State:  0
Mon Jan 15 16:19:52 PST 2018 ON: 19.99 +20.0 20.04 -15.7 27.1 16.9 30.7 8 10 Alarm State:  0
Mon Jan 15 16:18:50 PST 2018 ON: 19.99 +20.0 20.05 -15.8 27.0 16.9 30.7 8 10 Alarm State:  0
Mon Jan 15 16:17:49 PST 2018 ON: 19.99 +20.0 20.05 -15.8 27.0 16.9 30.7 8 9 Alarm State:  0
Mon Jan 15 16:16:47 PST 2018 ON: 20.00 +20.0 20.07 -15.8 27.0 16.9 30.7 8 9 Alarm State:  0
Mon Jan 15 16:15:46 PST 2018 ON: 19.99 +20.0 20.04 -15.9 26.9 17.0 30.7 7 10 Alarm State:  0
Mon Jan 15 16:14:44 PST 2018 ON: 20.00 +20.0 20.04 -15.6 27.3 16.8 30.8 8 9 Alarm State:  0
Mon Jan 15 16:13:43 PST 2018 ON: 20.00 +20.0 20.05 -15.8 27.0 16.9 30.8 8 10 Alarm State:  0
Mon Jan 15 16:12:41 PST 2018 ON: 19.99 +20.0 20.02 -15.7 27.1 16.9 30.8 7 11 Alarm State:  0
Mon Jan 15 16:11:40 PST 2018 ON: 20.00 +20.0 20.05 -15.9 26.8 17.1 30.6 8 9 Alarm State:  0
Mon Jan 15 16:10:38 PST 2018 ON: 19.99 +20.0 20.05 -15.8 27.0 16.9 30.7 8 9 Alarm State:  0
Mon Jan 15 16:09:37 PST 2018 ON: 19.99 +20.0 20.04 -15.7 27.1 16.9 30.8 8 10 Alarm State:  0
Mon Jan 15 16:08:35 PST 2018 ON: 19.99 +20.0 20.06 -16.1 26.5 17.3 30.6 8 9 Alarm State:  0
Mon Jan 15 16:07:34 PST 2018 ON: 19.98 +20.0 20.05 -15.7 27.2 16.8 30.8 7 9 Alarm State:  0
Mon Jan 15 16:06:32 PST 2018 ON: 19.99 +20.0 20.05 -15.8 27.0 16.9 30.8 8 9 Alarm State:  0
Mon Jan 15 16:05:31 PST 2018 ON: 20.00 +20.0 20.04 -15.9 26.8 17.1 30.7 8 10 Alarm State:  0
Mon Jan 15 16:04:29 PST 2018 ON: 20.00 +20.0 20.05 -15.9 26.8 17.1 30.7 8 10 Alarm State:  0
Mon Jan 15 16:03:28 PST 2018 ON: 19.99 +20.0 20.04 -15.6 27.3 16.8 30.8 8 10 Alarm State:  0
Mon Jan 15 16:02:26 PST 2018 ON: 19.99 +20.0 20.03 -15.8 27.0 16.9 30.8 8 10 Alarm State:  0
Mon Jan 15 16:01:25 PST 2018 ON: 20.00 +20.0 20.05 -15.9 26.8 17.1 30.7 8 9 Alarm State:  0
Mon Jan 15 16:00:23 PST 2018 ON: 20.00 +20.0 20.07 -16.0 26.7 17.1 30.6 8 9 Alarm State:  0
Mon Jan 15 15:59:22 PST 2018 ON: 19.99 +20.0 20.04 -15.5 27.5 16.6 30.9 7 10 Alarm State:  0
Mon Jan 15 15:58:20 PST 2018 ON: 20.00 +20.0 20.05 -15.8 27.0 16.9 30.8 8 9 Alarm State:  0
Mon Jan 15 15:57:19 PST 2018 ON: 20.00 +20.0 20.06 -15.9 26.8 17.1 30.7 8 9 Alarm State:  0
Mon Jan 15 15:56:18 PST 2018 ON: 19.99 +20.0 20.06 -15.8 27.0 16.9 30.8 7 9 Alarm State:  0
Mon Jan 15 15:55:16 PST 2018 ON: 19.99 +20.0 20.05 -15.7 27.2 16.8 30.9 8 9 Alarm State:  0
Mon Jan 15 15:54:15 PST 2018 ON: 20.00 +20.0 20.05 -15.9 26.8 17.1 30.7 8 9 Alarm State:  0
Mon Jan 15 15:53:13 PST 2018 ON: 20.00 +20.0 20.04 -15.8 27.0 16.9 30.8 8 10 Alarm State:  0
Mon Jan 15 15:52:12 PST 2018 ON: 20.00 +20.0 20.06 -15.7 27.2 16.8 30.9 8 9 Alarm State:  0
Mon Jan 15 15:51:10 PST 2018 ON: 19.99 +20.0 20.06 -15.8 27.0 16.9 30.8 7 9 Alarm State:  0
Mon Jan 15 15:50:09 PST 2018 ON: 20.00 +20.0 20.05 -15.7 27.2 16.8 30.8 8 9 Alarm State:  0
Mon Jan 15 15:49:07 PST 2018 ON: 20.00 +20.0 20.06 -16.0 26.7 17.1 30.7 8 9 Alarm State:  0
Mon Jan 15 15:48:06 PST 2018 ON: 19.99 +20.0 20.06 -15.7 27.2 16.8 30.9 7 9 Alarm State:  0
Mon Jan 15 15:47:04 PST 2018 ON: 19.99 +20.0 20.04 -15.9 26.8 17.1 30.7 8 10 Alarm State:  0
Mon Jan 15 15:46:03 PST 2018 ON: 20.00 +20.0 20.05 -15.9 26.9 17.0 30.7 8 9 Alarm State:  0
Mon Jan 15 15:45:01 PST 2018 ON: 20.00 +20.0 20.05 -15.7 27.1 16.9 30.8 8 10 Alarm State:  0
Mon Jan 15 15:44:00 PST 2018 ON: 19.99 +20.0 20.05 -15.7 27.1 16.9 30.8 8 9 Alarm State:  0
Mon Jan 15 15:42:58 PST 2018 ON: 20.00 +20.0 20.04 -15.6 27.3 16.8 30.9 8 9 Alarm State:  0
Mon Jan 15 15:41:57 PST 2018 ON: 20.00 +20.0 20.05 -15.9 26.8 17.1 30.8 8 10 Alarm State:  0
Mon Jan 15 15:40:55 PST 2018 ON: 19.99 +20.0 20.04 -15.7 27.1 16.9 30.9 8 10 Alarm State:  0
Mon Jan 15 15:39:54 PST 2018 ON: 20.00 +20.0 20.04 -15.6 27.3 16.8 30.9 7 9 Alarm State:  0
Mon Jan 15 15:38:52 PST 2018 ON: 20.00 +20.0 20.06 -16.0 26.6 17.2 30.7 8 9 Alarm State:  0
Mon Jan 15 15:37:51 PST 2018 ON: 20.00 +20.0 20.04 -15.7 27.2 16.8 30.8 7 10 Alarm State:  0
Mon Jan 15 15:36:49 PST 2018 ON: 20.00 +20.0 20.03 -15.3 27.8 16.4 30.9 7 10 Alarm State:  0
Mon Jan 15 15:35:48 PST 2018 ON: 20.00 +20.0 20.05 -15.8 27.0 16.9 30.8 8 10 Alarm State:  0
Mon Jan 15 15:34:46 PST 2018 ON: 19.99 +20.0 20.04 -15.7 27.2 16.8 30.9 8 10 Alarm State:  0
Mon Jan 15 15:33:45 PST 2018 ON: 20.00 +20.0 20.04 -15.8 27.0 16.9 30.8 7 9 Alarm State:  0
Mon Jan 15 15:32:43 PST 2018 ON: 20.00 +20.0 20.06 -16.0 26.7 17.1 30.8 8 9 Alarm State:  0
Mon Jan 15 15:31:42 PST 2018 ON: 19.99 +20.0 20.05 -15.8 27.0 16.9 30.9 7 10 Alarm State:  0
Mon Jan 15 15:30:40 PST 2018 ON: 19.99 +20.0 20.04 -15.8 27.0 16.9 30.9 8 10 Alarm State:  0
Mon Jan 15 15:29:39 PST 2018 ON: 20.00 +20.0 20.04 -15.9 26.8 17.1 30.8 8 9 Alarm State:  0
Mon Jan 15 15:28:37 PST 2018 ON: 20.00 +20.0 20.06 -16.0 26.7 17.1 30.8 7 9 Alarm State:  0
Mon Jan 15 15:27:36 PST 2018 ON: 19.99 +20.0 20.04 -15.7 27.1 16.9 30.9 8 10 Alarm State:  0
Mon Jan 15 15:26:34 PST 2018 ON: 20.00 +20.0 20.05 -15.6 27.3 16.8 30.9 7 9 Alarm State:  0
Mon Jan 15 15:25:33 PST 2018 ON: 19.99 +20.0 20.05 -15.8 27.0 16.9 30.9 8 9 Alarm State:  0
Mon Jan 15 15:24:31 PST 2018 ON: 19.99 +20.0 20.05 -15.9 26.9 17.0 30.9 8 9 Alarm State:  0
Mon Jan 15 15:23:30 PST 2018 ON: 20.01 +20.0 20.06 -15.8 27.0 16.9 30.9 7 9 Alarm State:  0
Mon Jan 15 15:22:28 PST 2018 ON: 20.00 +20.0 20.05 -15.7 27.2 16.8 30.9 7 10 Alarm State:  0
Mon Jan 15 15:21:27 PST 2018 ON: 19.99 +20.0 20.06 -15.7 27.1 16.9 30.9 8 9 Alarm State:  0
Mon Jan 15 15:20:25 PST 2018 ON: 19.99 +20.0 20.04 -15.5 27.5 16.6 31.0 7 10 Alarm State:  0
Mon Jan 15 15:19:24 PST 2018 ON: 20.00 +20.0 20.06 -15.9 26.8 17.1 30.9 8 9 Alarm State:  0
Mon Jan 15 15:18:22 PST 2018 ON: 19.99 +20.0 20.05 -15.6 27.3 16.8 31.0 8 9 Alarm State:  0
Mon Jan 15 15:17:21 PST 2018 ON: 19.99 +20.0 20.04 -15.7 27.1 16.9 30.9 8 10 Alarm State:  0
Mon Jan 15 15:16:19 PST 2018 ON: 19.99 +20.0 20.05 -15.8 27.0 16.9 30.9 8 9 Alarm State:  0
Mon Jan 15 15:15:18 PST 2018 ON: 20.00 +20.0 20.05 -15.7 27.2 16.8 31.0 7 9 Alarm State:  0
Mon Jan 15 15:14:16 PST 2018 ON: 19.99 +20.0 20.04 -15.7 27.2 16.8 30.9 7 10 Alarm State:  0
Mon Jan 15 15:13:15 PST 2018 ON: 20.00 +20.0 20.05 -15.8 27.0 16.9 30.9 8 9 Alarm State:  0
Mon Jan 15 15:12:13 PST 2018 ON: 19.99 +20.0 20.04 -15.6 27.3 16.8 31.0 7 9 Alarm State:  0
Mon Jan 15 15:11:12 PST 2018 ON: 20.00 +20.0 20.04 -15.8 27.0 16.9 30.9 8 9 Alarm State:  0
Mon Jan 15 15:10:10 PST 2018 ON: 20.00 +20.0 20.06 -15.8 27.0 16.9 30.9 8 9 Alarm State:  0
Mon Jan 15 15:09:09 PST 2018 ON: 19.99 +20.0 20.03 -15.5 27.4 16.7 31.0 8 11 Alarm State:  0
Mon Jan 15 15:08:08 PST 2018 ON: 19.99 +20.0 20.04 -15.7 27.2 16.8 31.0 8 9 Alarm State:  0
Mon Jan 15 15:07:06 PST 2018 ON: 20.00 +20.0 20.06 -16.0 26.6 17.2 30.8 8 8 Alarm State:  0
Mon Jan 15 15:06:05 PST 2018 ON: 20.00 +20.0 20.06 -15.8 27.0 16.9 30.9 8 9 Alarm State:  0
Mon Jan 15 15:05:03 PST 2018 ON: 19.99 +20.0 20.07 -15.9 26.9 17.0 30.9 8 9 Alarm State:  0
Mon Jan 15 15:04:02 PST 2018 ON: 20.00 +20.0 20.05 -15.7 27.2 16.8 30.9 8 9 Alarm State:  0
Mon Jan 15 15:03:00 PST 2018 ON: 20.00 +20.0 20.06 -15.7 27.1 16.9 31.0 8 9 Alarm State:  0
Mon Jan 15 15:01:59 PST 2018 ON: 19.99 +20.0 20.04 -15.6 27.3 16.8 31.0 8 10 Alarm State:  0
Mon Jan 15 15:00:57 PST 2018 ON: 19.99 +20.0 20.04 -16.0 26.7 17.1 30.8 7 9 Alarm State:  0
Mon Jan 15 14:59:56 PST 2018 ON: 20.00 +20.0 20.06 -15.8 27.0 16.9 31.0 8 9 Alarm State:  0
Mon Jan 15 14:58:54 PST 2018 ON: 20.00 +20.0 20.05 -15.8 27.0 16.9 30.9 8 9 Alarm State:  0
Mon Jan 15 14:57:53 PST 2018 ON: 20.00 +20.0 20.03 -15.6 27.3 16.8 31.0 7 10 Alarm State:  0
Mon Jan 15 14:56:51 PST 2018 ON: 19.99 +20.0 20.05 -15.7 27.1 16.9 30.9 8 9 Alarm State:  0
Mon Jan 15 14:55:50 PST 2018 ON: 20.00 +20.0 20.05 -15.7 27.1 16.9 30.9 7 9 Alarm State:  0
Mon Jan 15 14:54:48 PST 2018 ON: 20.00 +20.0 20.04 -15.5 27.5 16.6 31.0 7 10 Alarm State:  0
Mon Jan 15 14:53:47 PST 2018 ON: 19.99 +20.0 20.04 -15.7 27.1 16.9 30.9 8 10 Alarm State:  0
Mon Jan 15 14:52:45 PST 2018 ON: 20.00 +20.0 20.05 -15.9 26.9 17.0 30.9 7 9 Alarm State:  0
Mon Jan 15 14:51:44 PST 2018 ON: 20.00 +20.0 20.05 -15.6 27.3 16.8 31.0 8 10 Alarm State:  0
Mon Jan 15 14:50:42 PST 2018 ON: 19.99 +20.0 20.04 -15.7 27.2 16.8 30.9 7 10 Alarm State:  0
Mon Jan 15 14:49:41 PST 2018 ON: 19.99 +20.0 20.04 -15.9 26.9 17.0 30.8 8 9 Alarm State:  0
Mon Jan 15 14:48:39 PST 2018 ON: 20.00 +20.0 20.05 -16.0 26.7 17.1 30.9 8 9 Alarm State:  0
Mon Jan 15 14:47:38 PST 2018 ON: 20.00 +20.0 20.05 -15.9 26.8 17.1 30.8 7 9 Alarm State:  0
Mon Jan 15 14:46:36 PST 2018 ON: 19.99 +20.0 20.05 -15.6 27.3 16.8 30.9 8 10 Alarm State:  0
Mon Jan 15 14:45:35 PST 2018 ON: 20.00 +20.0 20.05 -15.7 27.1 16.9 30.9 8 9 Alarm State:  0
Mon Jan 15 14:44:33 PST 2018 ON: 20.00 +20.0 20.04 -15.7 27.1 16.9 30.9 7 9 Alarm State:  0
Mon Jan 15 14:43:32 PST 2018 ON: 20.00 +20.0 20.04 -15.7 27.1 16.9 30.9 8 10 Alarm State:  0
Mon Jan 15 14:42:30 PST 2018 ON: 19.99 +20.0 20.05 -15.7 27.1 16.9 30.9 8 10 Alarm State:  0
Mon Jan 15 14:41:29 PST 2018 ON: 19.99 +20.0 20.04 -15.8 27.0 16.9 30.9 8 9 Alarm State:  0
Mon Jan 15 14:40:27 PST 2018 ON: 20.00 +20.0 20.04 -15.7 27.2 16.8 30.9 8 9 Alarm State:  0
Mon Jan 15 14:39:26 PST 2018 ON: 20.00 +20.0 20.05 -15.8 27.0 16.9 30.9 7 9 Alarm State:  0
Mon Jan 15 14:38:24 PST 2018 ON: 20.00 +20.0 20.04 -15.7 27.2 16.8 30.8 8 10 Alarm State:  0
Mon Jan 15 14:37:23 PST 2018 ON: 19.99 +20.0 20.05 -15.8 27.0 16.9 30.9 8 9 Alarm State:  0
Mon Jan 15 14:36:21 PST 2018 ON: 20.00 +20.0 20.04 -15.7 27.1 16.9 30.8 7 9 Alarm State:  0
Mon Jan 15 14:35:20 PST 2018 ON: 19.99 +20.0 20.05 -15.9 26.9 17.0 30.8 8 9 Alarm State:  0
Mon Jan 15 14:34:18 PST 2018 ON: 20.01 +20.0 20.05 -15.8 27.0 16.9 30.9 8 9 Alarm State:  0
Mon Jan 15 14:33:17 PST 2018 ON: 19.99 +20.0 20.04 -16.0 26.7 17.1 30.8 8 10 Alarm State:  0
Mon Jan 15 14:32:15 PST 2018 ON: 19.99 +20.0 20.05 -15.9 26.9 17.0 30.8 8 9 Alarm State:  0
Mon Jan 15 14:31:14 PST 2018 ON: 20.00 +20.0 20.06 -15.9 26.8 17.1 30.8 8 8 Alarm State:  0
Mon Jan 15 14:30:12 PST 2018 ON: 19.99 +20.0 20.05 -15.6 27.3 16.8 30.9 8 10 Alarm State:  0
Mon Jan 15 14:29:11 PST 2018 ON: 20.00 +20.0 20.05 -15.9 26.8 17.1 30.8 8 9 Alarm State:  0
Mon Jan 15 14:28:09 PST 2018 ON: 20.00 +20.0 20.06 -15.8 27.0 16.9 30.8 8 9 Alarm State:  0
Mon Jan 15 14:27:08 PST 2018 ON: 20.00 +20.0 20.06 -15.7 27.1 16.9 30.8 8 10 Alarm State:  0
Mon Jan 15 14:26:06 PST 2018 ON: 19.99 +20.0 20.04 -15.9 26.9 17.0 30.8 8 10 Alarm State:  0
Mon Jan 15 14:25:05 PST 2018 ON: 20.00 +20.0 20.04 -15.9 26.9 17.0 30.8 8 9 Alarm State:  0
Mon Jan 15 14:24:04 PST 2018 ON: 20.00 +20.0 20.04 -15.6 27.3 16.8 30.8 8 10 Alarm State:  0
Mon Jan 15 14:23:02 PST 2018 ON: 19.99 +20.0 20.05 -15.7 27.1 16.9 30.9 8 10 Alarm State:  0
Mon Jan 15 14:22:01 PST 2018 ON: 19.99 +20.0 20.05 -15.7 27.1 16.9 30.9 8 9 Alarm State:  0
Mon Jan 15 14:20:59 PST 2018 ON: 20.00 +20.0 20.04 -15.9 26.8 17.1 30.8 8 10 Alarm State:  0
Mon Jan 15 14:19:58 PST 2018 ON: 20.00 +20.0 20.05 -15.9 26.9 17.0 30.8 7 10 Alarm State:  0
Mon Jan 15 14:18:56 PST 2018 ON: 19.99 +20.0 20.04 -15.7 27.1 16.9 30.9 8 10 Alarm State:  0
Mon Jan 15 14:17:55 PST 2018 ON: 19.99 +20.0 20.05 -15.8 27.0 16.9 30.8 8 9 Alarm State:  0
Mon Jan 15 14:16:53 PST 2018 ON: 20.00 +20.0 20.07 -15.9 26.8 17.1 30.8 7 9 Alarm State:  0
Mon Jan 15 14:15:52 PST 2018 ON: 19.99 +20.0 20.05 -15.9 26.9 17.0 30.8 8 10 Alarm State:  0
Mon Jan 15 14:14:50 PST 2018 ON: 19.99 +20.0 20.04 -15.9 26.9 17.0 30.9 8 9 Alarm State:  0
Mon Jan 15 14:13:49 PST 2018 ON: 20.00 +20.0 20.05 -15.7 27.1 16.9 30.8 7 9 Alarm State:  0
Mon Jan 15 14:12:47 PST 2018 ON: 19.99 +20.0 20.04 -15.6 27.3 16.8 30.9 8 10 Alarm State:  0
Mon Jan 15 14:11:46 PST 2018 ON: 19.99 +20.0 20.05 -15.9 26.8 17.1 30.8 8 9 Alarm State:  0
Mon Jan 15 14:10:44 PST 2018 ON: 20.00 +20.0 20.07 -16.0 26.7 17.1 30.8 8 8 Alarm State:  0
Mon Jan 15 14:09:43 PST 2018 ON: 20.00 +20.0 20.04 -15.6 27.3 16.8 30.9 8 10 Alarm State:  0
Mon Jan 15 14:08:41 PST 2018 ON: 20.00 +20.0 20.05 -15.9 26.9 17.0 30.8 8 9 Alarm State:  0
Mon Jan 15 14:07:40 PST 2018 ON: 19.99 +20.0 20.06 -15.9 26.9 17.0 30.8 8 9 Alarm State:  0
Mon Jan 15 14:06:38 PST 2018 ON: 20.00 +20.0 20.07 -15.9 26.9 17.0 30.8 8 9 Alarm State:  0
Mon Jan 15 14:05:37 PST 2018 ON: 20.00 +20.0 20.05 -15.8 27.0 16.9 30.8 8 10 Alarm State:  0
Mon Jan 15 14:04:35 PST 2018 ON: 19.98 +20.0 20.04 -15.7 27.2 16.8 30.9 8 10 Alarm State:  0
Mon Jan 15 14:03:34 PST 2018 ON: 20.00 +20.0 20.04 -15.9 26.9 17.0 30.9 7 9 Alarm State:  0
Mon Jan 15 14:02:32 PST 2018 ON: 20.01 +20.0 20.05 -16.0 26.7 17.1 30.7 8 9 Alarm State:  0
Mon Jan 15 14:01:31 PST 2018 ON: 20.00 +20.0 20.06 -15.9 26.8 17.1 30.8 8 9 Alarm State:  0
Mon Jan 15 14:00:29 PST 2018 ON: 19.99 +20.0 20.05 -15.7 27.2 16.8 30.9 8 9 Alarm State:  0
Mon Jan 15 13:59:28 PST 2018 ON: 20.00 +20.0 20.05 -15.9 26.8 17.1 30.8 8 9 Alarm State:  0
Mon Jan 15 13:58:26 PST 2018 ON: 20.00 +20.0 20.04 -15.7 27.1 16.9 30.8 8 10 Alarm State:  0
Mon Jan 15 13:57:25 PST 2018 ON: 20.00 +20.0 20.05 -15.8 27.0 16.9 30.8 8 9 Alarm State:  0
Mon Jan 15 13:56:23 PST 2018 ON: 19.99 +20.0 20.04 -15.9 26.9 17.0 30.8 8 10 Alarm State:  0
Mon Jan 15 13:55:22 PST 2018 ON: 20.00 +20.0 20.06 -15.9 26.9 17.0 30.9 7 9 Alarm State:  0
Mon Jan 15 13:54:20 PST 2018 ON: 20.00 +20.0 20.05 -15.8 27.0 16.9 30.8 8 10 Alarm State:  0
Mon Jan 15 13:53:19 PST 2018 ON: 20.00 +20.0 20.04 -15.6 27.3 16.8 30.9 8 10 Alarm State:  0
Mon Jan 15 13:52:17 PST 2018 ON: 19.99 +20.0 20.03 -15.7 27.2 16.8 30.9 7 10 Alarm State:  0
Mon Jan 15 13:51:16 PST 2018 ON: 20.00 +20.0 20.04 -15.7 27.1 16.9 30.8 8 9 Alarm State:  0
Mon Jan 15 13:50:14 PST 2018 ON: 20.00 +20.0 20.05 -15.9 26.9 17.0 30.7 8 10 Alarm State:  0
Mon Jan 15 13:49:13 PST 2018 ON: 20.00 +20.0 20.05 -15.8 27.0 16.9 30.8 8 10 Alarm State:  0
Mon Jan 15 13:48:11 PST 2018 ON: 19.99 +20.0 20.05 -15.8 27.0 16.9 30.8 8 9 Alarm State:  0
Mon Jan 15 13:47:10 PST 2018 ON: 20.00 +20.0 20.04 -15.7 27.1 16.9 30.9 7 9 Alarm State:  0
Mon Jan 15 13:46:08 PST 2018 ON: 20.01 +20.0 20.06 -15.9 26.8 17.1 30.8 8 9 Alarm State:  0
Mon Jan 15 13:45:07 PST 2018 ON: 19.99 +20.0 20.03 -15.5 27.4 16.7 30.9 7 11 Alarm State:  0
Mon Jan 15 13:44:05 PST 2018 ON: 19.99 +20.0 20.03 -15.5 27.4 16.7 30.9 7 11 Alarm State:  0
Mon Jan 15 13:43:04 PST 2018 ON: 19.99 +20.0 20.04 -15.7 27.1 16.9 30.8 8 9 Alarm State:  0
Mon Jan 15 13:42:02 PST 2018 ON: 20.00 +20.0 20.02 -15.7 27.2 16.8 30.9 7 10 Alarm State:  0
Mon Jan 15 13:41:01 PST 2018 ON: 20.01 +20.0 20.06 -16.0 26.7 17.1 30.7 8 9 Alarm State:  0
Mon Jan 15 13:39:59 PST 2018 ON: 19.99 +20.0 20.05 -15.9 26.8 17.1 30.8 8 10 Alarm State:  0
Mon Jan 15 13:38:58 PST 2018 ON: 19.98 +20.0 20.04 -15.8 27.0 16.9 30.9 7 9 Alarm State:  0
Mon Jan 15 13:37:56 PST 2018 ON: 19.99 +20.0 20.04 -15.7 27.2 16.8 30.8 8 9 Alarm State:  0
Mon Jan 15 13:36:55 PST 2018 ON: 20.00 +20.0 20.04 -15.9 26.9 17.0 30.8 8 9 Alarm State:  0
Mon Jan 15 13:35:53 PST 2018 ON: 20.00 +20.0 20.05 -15.6 27.3 16.8 31.0 7 9 Alarm State:  0
Mon Jan 15 13:34:52 PST 2018 ON: 19.99 +20.0 20.05 -15.8 27.0 16.9 30.8 8 10 Alarm State:  0
Mon Jan 15 13:33:50 PST 2018 ON: 19.99 +20.0 20.04 -15.8 27.0 16.9 30.9 8 9 Alarm State:  0
Mon Jan 15 13:32:49 PST 2018 ON: 19.99 +20.0 20.04 -15.9 26.8 17.1 30.8 8 10 Alarm State:  0
Mon Jan 15 13:31:47 PST 2018 ON: 19.99 +20.0 20.04 -15.8 27.0 16.9 30.9 8 10 Alarm State:  0
Mon Jan 15 13:30:46 PST 2018 ON: 19.99 +20.0 20.04 -15.7 27.1 16.9 30.9 7 10 Alarm State:  0
Mon Jan 15 13:29:44 PST 2018 ON: 19.99 +20.0 20.04 -15.8 27.0 16.9 30.8 8 9 Alarm State:  0
Mon Jan 15 13:28:43 PST 2018 ON: 20.00 +20.0 20.05 -15.7 27.1 16.9 30.8 8 9 Alarm State:  0
Mon Jan 15 13:27:41 PST 2018 ON: 20.00 +20.0 20.05 -15.9 26.8 17.1 30.8 7 10 Alarm State:  0
Mon Jan 15 13:26:40 PST 2018 ON: 19.99 +20.0 20.04 -15.7 27.2 16.8 30.9 8 10 Alarm State:  0
Mon Jan 15 13:25:38 PST 2018 ON: 20.00 +20.0 20.04 -16.0 26.7 17.1 30.8 8 9 Alarm State:  0
Mon Jan 15 13:24:37 PST 2018 ON: 20.00 +20.0 20.06 -16.0 26.7 17.1 30.8 8 9 Alarm State:  0
Mon Jan 15 13:23:35 PST 2018 ON: 19.99 +20.0 20.03 -15.5 27.4 16.7 31.0 8 10 Alarm State:  0
Mon Jan 15 13:22:34 PST 2018 ON: 20.00 +20.0 20.05 -16.0 26.7 17.1 30.8 7 9 Alarm State:  0
Mon Jan 15 13:21:32 PST 2018 ON: 19.99 +20.0 20.05 -15.6 27.3 16.8 31.0 8 9 Alarm State:  0
Mon Jan 15 13:20:31 PST 2018 ON: 20.00 +20.0 20.04 -15.7 27.1 16.9 30.9 8 9 Alarm State:  0
Mon Jan 15 13:19:29 PST 2018 ON: 20.00 +20.0 20.05 -15.9 26.9 17.0 30.8 7 9 Alarm State:  0
Mon Jan 15 13:18:28 PST 2018 ON: 19.99 +20.0 20.05 -15.7 27.1 16.9 30.9 8 9 Alarm State:  0
Mon Jan 15 13:17:26 PST 2018 ON: 19.99 +20.0 20.05 -15.7 27.2 16.8 30.9 8 10 Alarm State:  0
Mon Jan 15 13:16:25 PST 2018 ON: 19.99 +20.0 20.04 -15.7 27.1 16.9 30.9 8 10 Alarm State:  0
Mon Jan 15 13:15:23 PST 2018 ON: 19.99 +20.0 20.03 -15.7 27.1 16.9 30.9 8 10 Alarm State:  0
Mon Jan 15 13:14:22 PST 2018 ON: 20.00 +20.0 20.04 -15.9 26.9 17.0 30.9 7 9 Alarm State:  0
Mon Jan 15 13:13:20 PST 2018 ON: 20.00 +20.0 20.04 -15.8 27.0 16.9 30.8 8 10 Alarm State:  0
Mon Jan 15 13:12:19 PST 2018 ON: 19.99 +20.0 20.05 -15.7 27.1 16.9 30.9 8 10 Alarm State:  0
Mon Jan 15 13:11:17 PST 2018 ON: 19.99 +20.0 20.03 -15.7 27.2 16.8 30.9 7 10 Alarm State:  0
Mon Jan 15 13:10:16 PST 2018 ON: 20.00 +20.0 20.04 -15.7 27.1 16.9 30.8 8 10 Alarm State:  0
Mon Jan 15 13:09:14 PST 2018 ON: 19.99 +20.0 20.04 -15.5 27.5 16.6 30.9 8 10 Alarm State:  0
Mon Jan 15 13:08:13 PST 2018 ON: 20.00 +20.0 20.04 -15.7 27.2 16.8 30.9 8 9 Alarm State:  0
Mon Jan 15 13:07:11 PST 2018 ON: 20.00 +20.0 20.05 -15.8 27.0 16.9 30.8 8 10 Alarm State:  0
Mon Jan 15 13:06:10 PST 2018 ON: 19.99 +20.0 20.04 -15.7 27.2 16.8 30.9 7 10 Alarm State:  0
Mon Jan 15 13:05:08 PST 2018 ON: 20.00 +20.0 20.05 -15.7 27.2 16.8 30.8 8 9 Alarm State:  0
Mon Jan 15 13:04:07 PST 2018 ON: 19.99 +20.0 20.04 -16.0 26.7 17.1 30.8 8 10 Alarm State:  0
Mon Jan 15 13:03:05 PST 2018 ON: 19.99 +20.0 20.03 -15.9 26.9 17.0 30.7 7 10 Alarm State:  0
Mon Jan 15 13:02:04 PST 2018 ON: 20.00 +20.0 20.04 -15.9 26.9 17.0 30.8 8 9 Alarm State:  0
Mon Jan 15 13:01:02 PST 2018 ON: 20.00 +20.0 20.04 -15.7 27.1 16.9 30.8 8 10 Alarm State:  0
Mon Jan 15 13:00:01 PST 2018 ON: 19.99 +20.0 20.04 -15.6 27.3 16.8 30.8 7 10 Alarm State:  0
Mon Jan 15 12:58:59 PST 2018 ON: 19.99 +20.0 20.05 -15.7 27.2 16.8 30.8 8 10 Alarm State:  0
Mon Jan 15 12:57:58 PST 2018 ON: 19.99 +20.0 20.05 -15.5 27.4 16.7 30.9 7 9 Alarm State:  0
Mon Jan 15 12:56:56 PST 2018 ON: 20.00 +20.0 20.06 -16.1 26.5 17.3 30.7 8 9 Alarm State:  0
Mon Jan 15 12:55:55 PST 2018 ON: 19.99 +20.0 20.05 -15.7 27.1 16.9 30.8 8 9 Alarm State:  0
Mon Jan 15 12:54:53 PST 2018 ON: 19.99 +20.0 20.04 -15.9 26.8 17.1 30.7 7 9 Alarm State:  0
Mon Jan 15 12:53:52 PST 2018 ON: 20.00 +20.0 20.06 -16.0 26.6 17.2 30.6 8 9 Alarm State:  0
Mon Jan 15 12:52:50 PST 2018 ON: 19.99 +20.0 20.03 -15.7 27.2 16.8 30.8 8 10 Alarm State:  0
Mon Jan 15 12:51:49 PST 2018 ON: 20.00 +20.0 20.04 -15.7 27.1 16.9 30.8 8 10 Alarm State:  0
Mon Jan 15 12:50:47 PST 2018 ON: 19.99 +20.0 20.04 -15.7 27.1 16.9 30.8 8 10 Alarm State:  0
Mon Jan 15 12:49:46 PST 2018 ON: 19.99 +20.0 20.03 -15.6 27.3 16.8 30.8 7 10 Alarm State:  0
Mon Jan 15 12:48:44 PST 2018 ON: 19.99 +20.0 20.05 -15.8 27.0 16.9 30.7 8 9 Alarm State:  0
Mon Jan 15 12:47:43 PST 2018 ON: 20.00 +20.0 20.05 -16.0 26.6 17.2 30.6 8 9 Alarm State:  0
Mon Jan 15 12:46:41 PST 2018 ON: 19.99 +20.0 20.06 -15.9 26.9 17.0 30.7 8 9 Alarm State:  0
Mon Jan 15 12:45:40 PST 2018 ON: 19.99 +20.0 20.04 -15.5 27.5 16.6 30.9 8 9 Alarm State:  0
Mon Jan 15 12:44:38 PST 2018 ON: 20.00 +20.0 20.05 -16.1 26.5 17.3 30.5 8 9 Alarm State:  0
Mon Jan 15 12:43:37 PST 2018 ON: 19.99 +20.0 20.04 -15.9 26.9 17.0 30.7 8 10 Alarm State:  0
Mon Jan 15 12:42:35 PST 2018 ON: 19.99 +20.0 20.05 -15.9 26.9 17.0 30.6 8 9 Alarm State:  0
Mon Jan 15 12:41:34 PST 2018 ON: 20.00 +20.0 20.06 -16.0 26.7 17.1 30.6 8 9 Alarm State:  0
Mon Jan 15 12:40:32 PST 2018 ON: 20.00 +20.0 20.07 -16.0 26.7 17.1 30.6 8 9 Alarm State:  0
Mon Jan 15 12:39:31 PST 2018 ON: 19.99 +20.0 20.03 -15.9 26.9 17.0 30.6 8 11 Alarm State:  0
Mon Jan 15 12:38:29 PST 2018 ON: 19.99 +20.0 20.04 -15.7 27.1 16.9 30.7 8 9 Alarm State:  0
Mon Jan 15 12:37:28 PST 2018 ON: 20.00 +20.0 20.06 -16.2 26.3 17.4 30.5 8 9 Alarm State:  0
Mon Jan 15 12:36:26 PST 2018 ON: 19.99 +20.0 20.05 -15.8 27.0 16.9 30.6 8 10 Alarm State:  0
Mon Jan 15 12:35:25 PST 2018 ON: 19.99 +20.0 20.05 -15.7 27.1 16.9 30.7 7 9 Alarm State:  0
Mon Jan 15 12:34:23 PST 2018 ON: 19.99 +20.0 20.04 -15.9 26.9 17.0 30.6 8 10 Alarm State:  0
Mon Jan 15 12:33:22 PST 2018 ON: 20.00 +20.0 20.05 -16.0 26.6 17.2 30.5 8 9 Alarm State:  0
Mon Jan 15 12:32:20 PST 2018 ON: 19.99 +20.0 20.05 -16.1 26.5 17.3 30.5 8 9 Alarm State:  0
Mon Jan 15 12:31:19 PST 2018 ON: 19.99 +20.0 20.04 -15.8 27.0 16.9 30.6 8 9 Alarm State:  0
Mon Jan 15 12:30:17 PST 2018 ON: 20.00 +20.0 20.05 -15.9 26.8 17.1 30.5 7 9 Alarm State:  0
Mon Jan 15 12:29:16 PST 2018 ON: 19.99 +20.0 20.05 -15.9 26.9 17.0 30.6 8 9 Alarm State:  0
Mon Jan 15 12:28:14 PST 2018 ON: 19.99 +20.0 20.04 -15.8 27.0 16.9 30.5 8 10 Alarm State:  0
Mon Jan 15 12:27:13 PST 2018 ON: 19.99 +20.0 20.03 -15.9 26.8 17.1 30.5 7 10 Alarm State:  0
Mon Jan 15 12:26:11 PST 2018 ON: 20.00 +20.0 20.05 -16.0 26.6 17.2 30.5 8 9 Alarm State:  0
Mon Jan 15 12:25:10 PST 2018 ON: 20.00 +20.0 20.04 -15.7 27.1 16.9 30.6 8 10 Alarm State:  0
Mon Jan 15 12:24:08 PST 2018 ON: 19.99 +20.0 20.05 -15.9 26.8 17.1 30.5 8 9 Alarm State:  0
Mon Jan 15 12:23:07 PST 2018 ON: 20.00 +20.0 20.05 -16.0 26.7 17.1 30.5 8 9 Alarm State:  0
Mon Jan 15 12:22:05 PST 2018 ON: 20.00 +20.0 20.04 -16.1 26.5 17.3 30.5 7 10 Alarm State:  0
Mon Jan 15 12:21:04 PST 2018 ON: 20.00 +20.0 20.07 -15.9 26.9 17.0 30.5 8 9 Alarm State:  0
Mon Jan 15 12:20:03 PST 2018 ON: 19.99 +20.0 20.05 -15.9 26.8 17.1 30.4 8 10 Alarm State:  0
Mon Jan 15 12:19:01 PST 2018 ON: 19.99 +20.0 20.04 -15.9 26.9 17.0 30.6 7 9 Alarm State:  0
Mon Jan 15 12:18:00 PST 2018 ON: 20.00 +20.0 20.04 -16.0 26.6 17.2 30.5 8 9 Alarm State:  0
Mon Jan 15 12:16:58 PST 2018 ON: 20.00 +20.0 20.06 -16.0 26.6 17.2 30.5 8 9 Alarm State:  0
Mon Jan 15 12:15:57 PST 2018 ON: 19.99 +20.0 20.04 -15.9 26.9 17.0 30.6 8 10 Alarm State:  0
Mon Jan 15 12:14:55 PST 2018 ON: 19.98 +20.0 20.03 -16.2 26.4 17.3 30.4 8 10 Alarm State:  0
Mon Jan 15 12:13:54 PST 2018 ON: 20.00 +20.0 20.04 -15.9 26.8 17.1 30.5 7 9 Alarm State:  0
Mon Jan 15 12:12:52 PST 2018 ON: 20.00 +20.0 20.04 -15.9 26.8 17.1 30.5 8 10 Alarm State:  0
Mon Jan 15 12:11:51 PST 2018 ON: 19.99 +20.0 20.05 -15.9 26.9 17.0 30.5 8 10 Alarm State:  0
Mon Jan 15 12:10:49 PST 2018 ON: 20.00 +20.0 20.05 -15.8 27.0 16.9 30.6 7 9 Alarm State:  0
Mon Jan 15 12:09:48 PST 2018 ON: 20.00 +20.0 20.04 -15.9 26.8 17.1 30.5 8 10 Alarm State:  0
Mon Jan 15 12:08:46 PST 2018 ON: 19.99 +20.0 20.04 -16.2 26.4 17.3 30.4 8 9 Alarm State:  0
Mon Jan 15 12:07:45 PST 2018 ON: 20.00 +20.0 20.06 -16.0 26.7 17.1 30.4 8 9 Alarm State:  0
Mon Jan 15 12:06:43 PST 2018 ON: 19.99 +20.0 20.04 -15.9 26.9 17.0 30.6 8 10 Alarm State:  0
Mon Jan 15 12:05:42 PST 2018 ON: 19.99 +20.0 20.04 -16.0 26.7 17.1 30.6 8 9 Alarm State:  0
Mon Jan 15 12:04:40 PST 2018 ON: 20.00 +20.0 20.05 -16.2 26.4 17.3 30.5 8 9 Alarm State:  0
Mon Jan 15 12:03:29 PST 2018  Alarm State: 0
Mon Jan 15 12:03:29 PST 2018 Chiller did not report ON, got this reading: 
Mon Jan 15 12:02:27 PST 2018 ON: 19.99 +20.0 20.05 -15.8 27.0 16.9 30.7 8 9 Alarm State:  0
Mon Jan 15 12:01:26 PST 2018 ON: 20.00 +20.0 20.05 -15.8 27.0 16.9 30.7 8 9 Alarm State:  0
Mon Jan 15 12:00:24 PST 2018 ON: 20.00 +20.0 20.05 -16.0 26.7 17.1 30.5 8 10 Alarm State:  0
Mon Jan 15 11:59:23 PST 2018 ON: 19.99 +20.0 20.04 -15.9 26.9 17.0 30.6 8 10 Alarm State:  0
Mon Jan 15 11:58:21 PST 2018 ON: 19.99 +20.0 20.04 -15.8 27.0 16.9 30.7 7 9 Alarm State:  0
Mon Jan 15 11:57:20 PST 2018 ON: 20.00 +20.0 20.05 -16.1 26.5 17.3 30.5 8 9 Alarm State:  0
Mon Jan 15 11:56:18 PST 2018 ON: 19.99 +20.0 20.05 -16.0 26.7 17.1 30.6 8 10 Alarm State:  0
Mon Jan 15 11:55:17 PST 2018 ON: 19.99 +20.0 20.03 -15.7 27.2 16.8 30.7 7 10 Alarm State:  0
Mon Jan 15 11:54:15 PST 2018 ON: 20.00 +20.0 20.04 -15.9 26.9 17.0 30.6 8 9 Alarm State:  0
Mon Jan 15 11:53:14 PST 2018 ON: 20.00 +20.0 20.05 -15.9 26.8 17.1 30.6 8 9 Alarm State:  0
Mon Jan 15 11:52:12 PST 2018 ON: 19.99 +20.0 20.05 -15.9 26.8 17.1 30.6 8 10 Alarm State:  0
Mon Jan 15 11:51:11 PST 2018 ON: 19.99 +20.0 20.03 -15.7 27.2 16.8 30.7 8 10 Alarm State:  0
Mon Jan 15 11:50:09 PST 2018 ON: 20.00 +20.0 20.05 -15.8 27.0 16.9 30.7 7 9 Alarm State:  0
Mon Jan 15 11:49:08 PST 2018 ON: 19.99 +20.0 20.04 -15.9 26.8 17.1 30.5 8 10 Alarm State:  0
Mon Jan 15 11:48:06 PST 2018 ON: 20.00 +20.0 20.04 -15.8 27.0 16.9 30.6 8 9 Alarm State:  0
Mon Jan 15 11:47:05 PST 2018 ON: 20.00 +20.0 20.06 -15.9 26.8 17.1 30.6 8 9 Alarm State:  0
Mon Jan 15 11:46:03 PST 2018 ON: 19.98 +20.0 20.04 -16.2 26.4 17.3 30.5 8 10 Alarm State:  0
Mon Jan 15 11:45:02 PST 2018 ON: 20.00 +20.0 20.05 -16.0 26.7 17.1 30.6 8 8 Alarm State:  0
Mon Jan 15 11:44:00 PST 2018 ON: 20.00 +20.0 20.05 -16.0 26.6 17.2 30.6 8 9 Alarm State:  0
Mon Jan 15 11:42:59 PST 2018 ON: 20.00 +20.0 20.04 -15.9 26.8 17.1 30.6 8 10 Alarm State:  0
Mon Jan 15 11:41:57 PST 2018 ON: 19.99 +20.0 20.04 -15.6 27.3 16.8 30.7 7 10 Alarm State:  0
Mon Jan 15 11:40:56 PST 2018 ON: 19.99 +20.0 20.04 -16.0 26.7 17.1 30.6 8 9 Alarm State:  0
Mon Jan 15 11:39:54 PST 2018 ON: 19.99 +20.0 20.03 -16.0 26.6 17.2 30.6 8 9 Alarm State:  0
Mon Jan 15 11:38:53 PST 2018 ON: 20.00 +20.0 20.05 -16.0 26.7 17.1 30.6 7 9 Alarm State:  0
Mon Jan 15 11:37:51 PST 2018 ON: 19.99 +20.0 20.05 -16.0 26.7 17.1 30.6 8 10 Alarm State:  0
Mon Jan 15 11:36:50 PST 2018 ON: 19.99 +20.0 20.03 -15.9 26.9 17.0 30.7 8 10 Alarm State:  0
Mon Jan 15 11:35:48 PST 2018 ON: 20.00 +20.0 20.06 -15.9 26.9 17.0 30.6 8 8 Alarm State:  0
Mon Jan 15 11:34:47 PST 2018 ON: 20.00 +20.0 20.06 -16.1 26.5 17.3 30.5 8 9 Alarm State:  0
Mon Jan 15 11:33:45 PST 2018 ON: 19.99 +20.0 20.05 -16.1 26.5 17.3 30.6 8 9 Alarm State:  0
Mon Jan 15 11:32:44 PST 2018 ON: 19.99 +20.0 20.03 -15.9 26.9 17.0 30.6 8 10 Alarm State:  0
Mon Jan 15 11:31:42 PST 2018 ON: 20.00 +20.0 20.04 -16.1 26.5 17.3 30.5 8 9 Alarm State:  0
Mon Jan 15 11:30:41 PST 2018 ON: 19.99 +20.0 20.04 -15.8 27.0 16.9 30.6 7 10 Alarm State:  0
Mon Jan 15 11:29:39 PST 2018 ON: 20.00 +20.0 20.05 -16.0 26.7 17.1 30.6 8 9 Alarm State:  0
Mon Jan 15 11:28:38 PST 2018 ON: 19.99 +20.0 20.03 -15.9 26.9 17.0 30.7 8 10 Alarm State:  0
Mon Jan 15 11:27:36 PST 2018 ON: 20.00 +20.0 20.05 -15.6 27.3 16.8 30.7 8 9 Alarm State:  0
Mon Jan 15 11:26:35 PST 2018 ON: 20.00 +20.0 20.05 -15.9 26.9 17.0 30.6 8 10 Alarm State:  0
Mon Jan 15 11:25:33 PST 2018 ON: 19.99 +20.0 20.04 -15.9 26.8 17.1 30.6 7 10 Alarm State:  0
Mon Jan 15 11:24:32 PST 2018 ON: 19.99 +20.0 20.05 -15.9 26.9 17.0 30.6 8 9 Alarm State:  0
Mon Jan 15 11:23:30 PST 2018 ON: 20.00 +20.0 20.05 -16.0 26.6 17.2 30.4 8 9 Alarm State:  0
Mon Jan 15 11:22:29 PST 2018 ON: 20.00 +20.0 20.05 -16.0 26.6 17.2 30.5 7 10 Alarm State:  0
Mon Jan 15 11:21:27 PST 2018 ON: 19.99 +20.0 20.04 -15.7 27.1 16.9 30.5 8 10 Alarm State:  0
Mon Jan 15 11:20:26 PST 2018 ON: 19.99 +20.0 20.03 -15.9 26.9 17.0 30.5 8 9 Alarm State:  0
Mon Jan 15 11:19:24 PST 2018 ON: 20.00 +20.0 20.03 -16.0 26.7 17.1 30.4 8 10 Alarm State:  0
Mon Jan 15 11:18:23 PST 2018 ON: 20.00 +20.0 20.06 -15.8 27.0 16.9 30.5 8 9 Alarm State:  0
Mon Jan 15 11:17:21 PST 2018 ON: 19.99 +20.0 20.04 -15.6 27.3 16.8 30.6 7 10 Alarm State:  0
Mon Jan 15 11:16:20 PST 2018 ON: 20.00 +20.0 20.03 -15.7 27.2 16.8 30.5 8 10 Alarm State:  0
Mon Jan 15 11:15:18 PST 2018 ON: 19.99 +20.0 20.04 -15.9 26.9 17.0 30.5 8 9 Alarm State:  0
Mon Jan 15 11:14:17 PST 2018 ON: 20.00 +20.0 20.06 -15.9 26.8 17.1 30.4 8 9 Alarm State:  0
Mon Jan 15 11:13:15 PST 2018 ON: 19.99 +20.0 20.04 -15.9 26.8 17.1 30.5 8 10 Alarm State:  0
Mon Jan 15 11:12:14 PST 2018 ON: 20.00 +20.0 20.03 -15.5 27.4 16.7 30.6 8 9 Alarm State:  0
Mon Jan 15 11:11:12 PST 2018 ON: 20.00 +20.0 20.05 -16.1 26.5 17.3 30.3 8 9 Alarm State:  0
Mon Jan 15 11:10:11 PST 2018 ON: 19.99 +20.0 20.03 -15.9 26.8 17.1 30.4 8 10 Alarm State:  0
Mon Jan 15 11:09:09 PST 2018 ON: 20.00 +20.0 20.03 -15.7 27.2 16.8 30.6 7 10 Alarm State:  0
Mon Jan 15 11:08:08 PST 2018 ON: 20.00 +20.0 20.06 -16.1 26.5 17.3 30.3 8 9 Alarm State:  0
Mon Jan 15 11:07:06 PST 2018 ON: 19.99 +20.0 20.04 -15.7 27.1 16.9 30.5 8 10 Alarm State:  0
Mon Jan 15 11:06:05 PST 2018 ON: 19.98 +20.0 20.03 -15.8 27.0 16.9 30.5 8 10 Alarm State:  0
Mon Jan 15 11:05:03 PST 2018 ON: 19.99 +20.0 20.04 -15.8 27.0 16.9 30.4 8 9 Alarm State:  0
Mon Jan 15 11:04:02 PST 2018 ON: 20.00 +20.0 20.03 -15.7 27.1 16.9 30.4 8 10 Alarm State:  0
Mon Jan 15 11:03:00 PST 2018 ON: 20.00 +20.0 20.05 -16.0 26.6 17.2 30.4 8 10 Alarm State:  0
Mon Jan 15 11:01:59 PST 2018 ON: 19.99 +20.0 20.04 -15.9 26.8 17.1 30.3 8 10 Alarm State:  0
Mon Jan 15 11:00:48 PST 2018  Alarm State: 0
Mon Jan 15 11:00:48 PST 2018 Chiller did not report ON, got this reading: 
Mon Jan 15 10:59:46 PST 2018 ON: 20.00 +20.0 20.05 -16.2 26.3 17.4 30.2 8 9 Alarm State:  0
Mon Jan 15 10:58:45 PST 2018 ON: 20.00 +20.0 20.04 -15.9 26.9 17.0 30.4 8 10 Alarm State:  0
Mon Jan 15 10:57:43 PST 2018 ON: 19.99 +20.0 20.05 -15.9 26.8 17.1 30.4 8 9 Alarm State:  0
Mon Jan 15 10:56:42 PST 2018 ON: 19.99 +20.0 20.03 -15.7 27.1 16.9 30.5 7 10 Alarm State:  0
Mon Jan 15 10:55:40 PST 2018 ON: 20.00 +20.0 20.05 -15.9 26.8 17.1 30.3 8 9 Alarm State:  0
Mon Jan 15 10:54:39 PST 2018 ON: 19.99 +20.0 20.03 -16.0 26.6 17.2 30.3 8 10 Alarm State:  0
Mon Jan 15 10:53:37 PST 2018 ON: 20.00 +20.0 20.04 -15.7 27.1 16.9 30.4 7 10 Alarm State:  0
Mon Jan 15 10:52:36 PST 2018 ON: 20.00 +20.0 20.05 -15.8 27.0 16.9 30.5 8 10 Alarm State:  0
Mon Jan 15 10:51:34 PST 2018 ON: 19.99 +20.0 20.05 -15.9 26.9 17.0 30.4 8 9 Alarm State:  0
Mon Jan 15 10:50:33 PST 2018 ON: 19.98 +20.0 20.04 -15.9 26.9 17.0 30.5 7 9 Alarm State:  0
Mon Jan 15 10:49:31 PST 2018 ON: 20.00 +20.0 20.03 -16.1 26.5 17.3 30.4 8 10 Alarm State:  0
Mon Jan 15 10:48:30 PST 2018 ON: 20.00 +20.0 20.04 -15.9 26.9 17.0 30.4 8 10 Alarm State:  0
Mon Jan 15 10:47:28 PST 2018 ON: 19.99 +20.0 20.05 -16.0 26.7 17.1 30.4 8 9 Alarm State:  0
Mon Jan 15 10:46:27 PST 2018 ON: 19.99 +20.0 20.05 -16.0 26.6 17.2 30.4 8 9 Alarm State:  0
Mon Jan 15 10:45:25 PST 2018 ON: 20.00 +20.0 20.04 -16.0 26.6 17.2 30.3 8 10 Alarm State:  0
Mon Jan 15 10:44:24 PST 2018 ON: 20.00 +20.0 20.05 -15.9 26.8 17.1 30.3 8 9 Alarm State:  0
Mon Jan 15 10:43:22 PST 2018 ON: 20.00 +20.0 20.03 -15.7 27.2 16.8 30.5 8 10 Alarm State:  0
Mon Jan 15 10:42:21 PST 2018 ON: 19.99 +20.0 20.05 -15.9 26.9 17.0 30.4 8 9 Alarm State:  0
Mon Jan 15 10:41:19 PST 2018 ON: 19.99 +20.0 20.04 -16.0 26.7 17.1 30.4 8 9 Alarm State:  0
Mon Jan 15 10:40:18 PST 2018 ON: 19.99 +20.0 20.03 -15.6 27.3 16.8 30.5 7 10 Alarm State:  0
Mon Jan 15 10:39:16 PST 2018 ON: 19.99 +20.0 20.04 -15.9 26.9 17.0 30.4 8 10 Alarm State:  0
Mon Jan 15 10:38:15 PST 2018 ON: 19.99 +20.0 20.04 -15.9 26.8 17.1 30.5 8 9 Alarm State:  0
Mon Jan 15 10:37:13 PST 2018 ON: 20.00 +20.0 20.05 -16.1 26.5 17.3 30.4 8 9 Alarm State:  0
Mon Jan 15 10:36:12 PST 2018 ON: 19.99 +20.0 20.04 -15.7 27.2 16.8 30.5 8 10 Alarm State:  0
Mon Jan 15 10:35:10 PST 2018 ON: 19.99 +20.0 20.05 -16.0 26.7 17.1 30.4 8 9 Alarm State:  0
Mon Jan 15 10:34:09 PST 2018 ON: 20.00 +20.0 20.04 -16.0 26.7 17.1 30.5 8 9 Alarm State:  0
Mon Jan 15 10:33:07 PST 2018 ON: 20.00 +20.0 20.04 -15.9 26.9 17.0 30.5 8 10 Alarm State:  0
Mon Jan 15 10:32:06 PST 2018 ON: 19.99 +20.0 20.03 -15.9 26.9 17.0 30.5 8 11 Alarm State:  0
Mon Jan 15 10:31:04 PST 2018 ON: 19.99 +20.0 20.02 -15.6 27.3 16.8 30.5 8 10 Alarm State:  0
Mon Jan 15 10:30:03 PST 2018 ON: 20.00 +20.0 20.05 -15.9 26.8 17.1 30.4 8 9 Alarm State:  0
Mon Jan 15 10:29:01 PST 2018 ON: 20.00 +20.0 20.06 -16.0 26.6 17.2 30.5 7 9 Alarm State:  0
Mon Jan 15 10:28:00 PST 2018 ON: 19.99 +20.0 20.04 -15.9 26.9 17.0 30.5 8 10 Alarm State:  0
Mon Jan 15 10:26:58 PST 2018 ON: 20.00 +20.0 20.06 -16.2 26.4 17.3 30.4 8 9 Alarm State:  0
Mon Jan 15 10:25:57 PST 2018 ON: 20.00 +20.0 20.04 -15.7 27.2 16.8 30.5 7 10 Alarm State:  0
Mon Jan 15 10:24:55 PST 2018 ON: 20.00 +20.0 20.04 -15.5 27.4 16.7 30.6 8 10 Alarm State:  0
Mon Jan 15 10:23:54 PST 2018 ON: 19.99 +20.0 20.03 -15.8 27.0 16.9 30.5 8 10 Alarm State:  0
Mon Jan 15 10:22:52 PST 2018 ON: 20.00 +20.0 20.01 -15.8 27.0 16.9 30.5 8 11 Alarm State:  0
Mon Jan 15 10:21:51 PST 2018 ON: 20.00 +20.0 20.04 -15.9 26.8 17.1 30.4 8 10 Alarm State:  0
Mon Jan 15 10:20:49 PST 2018 ON: 19.99 +20.0 20.05 -15.9 26.9 17.0 30.4 8 9 Alarm State:  0
Mon Jan 15 10:19:48 PST 2018 ON: 20.00 +20.0 20.05 -15.6 27.3 16.8 30.5 8 10 Alarm State:  0
Mon Jan 15 10:18:46 PST 2018 ON: 19.99 +20.0 20.04 -15.8 27.0 16.9 30.4 8 10 Alarm State:  0
Mon Jan 15 10:17:35 PST 2018  Alarm State: 0
Mon Jan 15 10:17:35 PST 2018 Chiller did not report ON, got this reading: 
Mon Jan 15 10:16:33 PST 2018 ON: 20.00 +20.0 20.05 -16.0 26.7 17.1 30.3 8 9 Alarm State:  0
Mon Jan 15 10:15:32 PST 2018 ON: 20.00 +20.0 20.03 -15.7 27.2 16.8 30.4 8 10 Alarm State:  0
Mon Jan 15 10:14:30 PST 2018 ON: 20.00 +20.0 20.04 -16.0 26.7 17.1 30.3 8 10 Alarm State:  0
Mon Jan 15 10:13:29 PST 2018 ON: 19.99 +20.0 20.05 -15.9 26.9 17.0 30.4 7 9 Alarm State:  0
Mon Jan 15 10:12:27 PST 2018 ON: 19.99 +20.0 20.04 -15.9 26.9 17.0 30.4 8 9 Alarm State:  0
Mon Jan 15 10:11:26 PST 2018 ON: 20.00 +20.0 20.04 -15.9 26.9 17.0 30.4 8 10 Alarm State:  0
Mon Jan 15 10:10:24 PST 2018 ON: 19.99 +20.0 20.03 -15.6 27.3 16.8 30.5 8 10 Alarm State:  0
Mon Jan 15 10:09:23 PST 2018 ON: 19.99 +20.0 20.04 -15.7 27.2 16.8 30.5 8 10 Alarm State:  0
Mon Jan 15 10:08:21 PST 2018 ON: 20.00 +20.0 20.03 -16.0 26.6 17.2 30.4 7 10 Alarm State:  0
Mon Jan 15 10:07:20 PST 2018 ON: 20.01 +20.0 20.06 -16.2 26.4 17.3 30.3 8 9 Alarm State:  0
Mon Jan 15 10:06:18 PST 2018 ON: 19.99 +20.0 20.04 -16.0 26.7 17.1 30.4 8 10 Alarm State:  0
Mon Jan 15 10:05:17 PST 2018 ON: 19.99 +20.0 20.04 -15.9 26.8 17.1 30.4 7 9 Alarm State:  0
Mon Jan 15 10:04:15 PST 2018 ON: 20.00 +20.0 20.04 -15.9 26.9 17.0 30.3 8 10 Alarm State:  0
Mon Jan 15 10:03:14 PST 2018 ON: 20.00 +20.0 20.06 -15.9 26.9 17.0 30.4 8 9 Alarm State:  0
Mon Jan 15 10:02:12 PST 2018 ON: 19.99 +20.0 20.04 -15.7 27.1 16.9 30.5 8 10 Alarm State:  0
Mon Jan 15 10:01:11 PST 2018 ON: 19.99 +20.0 20.04 -16.0 26.6 17.2 30.4 8 9 Alarm State:  0
Mon Jan 15 10:00:09 PST 2018 ON: 20.00 +20.0 20.06 -16.1 26.5 17.3 30.3 8 9 Alarm State:  0
Mon Jan 15 09:59:08 PST 2018 ON: 19.99 +20.0 20.04 -15.6 27.3 16.8 30.5 8 10 Alarm State:  0
Mon Jan 15 09:58:06 PST 2018 ON: 19.99 +20.0 20.04 -16.1 26.5 17.3 30.4 8 9 Alarm State:  0
Mon Jan 15 09:57:05 PST 2018 ON: 20.00 +20.0 20.05 -16.2 26.4 17.3 30.3 7 9 Alarm State:  0
Mon Jan 15 09:56:03 PST 2018 ON: 20.00 +20.0 20.04 -15.9 26.8 17.1 30.4 8 10 Alarm State:  0
Mon Jan 15 09:55:02 PST 2018 ON: 19.99 +20.0 20.02 -15.7 27.2 16.8 30.5 8 11 Alarm State:  0
Mon Jan 15 09:54:01 PST 2018 ON: 19.99 +20.0 20.04 -15.7 27.2 16.8 30.5 7 9 Alarm State:  0
Mon Jan 15 09:52:59 PST 2018 ON: 20.00 +20.0 20.05 -16.0 26.7 17.1 30.4 8 9 Alarm State:  0
Mon Jan 15 09:51:58 PST 2018 ON: 20.00 +20.0 20.05 -15.7 27.2 16.8 30.5 7 10 Alarm State:  0
Mon Jan 15 09:50:56 PST 2018 ON: 19.99 +20.0 20.04 -15.9 26.9 17.0 30.4 8 10 Alarm State:  0
Mon Jan 15 09:49:55 PST 2018 ON: 19.99 +20.0 20.04 -15.9 26.9 17.0 30.4 8 9 Alarm State:  0
Mon Jan 15 09:48:53 PST 2018 ON: 20.00 +20.0 20.06 -15.9 26.8 17.1 30.4 7 9 Alarm State:  0
Mon Jan 15 09:47:52 PST 2018 ON: 19.99 +20.0 20.04 -16.0 26.6 17.2 30.4 8 10 Alarm State:  0
Mon Jan 15 09:46:50 PST 2018 ON: 19.99 +20.0 20.02 -15.7 27.2 16.8 30.5 8 10 Alarm State:  0
Mon Jan 15 09:45:49 PST 2018 ON: 20.00 +20.0 20.05 -15.9 26.9 17.0 30.5 7 9 Alarm State:  0
Mon Jan 15 09:44:47 PST 2018 ON: 19.99 +20.0 20.06 -15.9 26.9 17.0 30.5 8 9 Alarm State:  0
Mon Jan 15 09:43:46 PST 2018 ON: 19.99 +20.0 20.05 -15.8 27.0 16.9 30.5 8 10 Alarm State:  0
Mon Jan 15 09:42:44 PST 2018 ON: 20.00 +20.0 20.05 -15.9 26.8 17.1 30.4 8 9 Alarm State:  0
Mon Jan 15 09:41:43 PST 2018 ON: 19.99 +20.0 20.04 -15.7 27.1 16.9 30.5 8 10 Alarm State:  0
Mon Jan 15 09:40:41 PST 2018 ON: 20.00 +20.0 20.05 -15.7 27.2 16.8 30.5 7 9 Alarm State:  0
Mon Jan 15 09:39:40 PST 2018 ON: 20.00 +20.0 20.07 -15.8 27.0 16.9 30.4 8 9 Alarm State:  0
Mon Jan 15 09:38:38 PST 2018 ON: 19.99 +20.0 20.05 -16.0 26.7 17.1 30.4 8 10 Alarm State:  0
Mon Jan 15 09:37:37 PST 2018 ON: 19.99 +20.0 20.05 -16.0 26.6 17.2 30.4 8 9 Alarm State:  0
Mon Jan 15 09:36:35 PST 2018 ON: 20.00 +20.0 20.05 -15.9 26.8 17.1 30.4 8 9 Alarm State:  0
Mon Jan 15 09:35:34 PST 2018 ON: 19.99 +20.0 20.04 -15.7 27.1 16.9 30.4 8 10 Alarm State:  0
Mon Jan 15 09:34:32 PST 2018 ON: 20.00 +20.0 20.05 -16.2 26.4 17.3 30.3 8 9 Alarm State:  0
Mon Jan 15 09:33:31 PST 2018 ON: 19.99 +20.0 20.03 -16.0 26.7 17.1 30.3 8 10 Alarm State:  0
Mon Jan 15 09:32:29 PST 2018 ON: 20.00 +20.0 20.05 -15.9 26.9 17.0 30.4 7 9 Alarm State:  0
Mon Jan 15 09:31:28 PST 2018 ON: 20.00 +20.0 20.04 -15.9 26.9 17.0 30.4 8 10 Alarm State:  0
Mon Jan 15 09:30:26 PST 2018 ON: 19.99 +20.0 20.04 -15.9 26.9 17.0 30.4 8 10 Alarm State:  0
Mon Jan 15 09:29:25 PST 2018 ON: 20.00 +20.0 20.04 -16.2 26.4 17.3 30.2 8 9 Alarm State:  0
Mon Jan 15 09:28:23 PST 2018 ON: 20.00 +20.0 20.04 -16.0 26.7 17.1 30.3 8 10 Alarm State:  0
Mon Jan 15 09:27:22 PST 2018 ON: 19.99 +20.0 20.05 -15.9 26.8 17.1 30.3 8 10 Alarm State:  0
Mon Jan 15 09:26:20 PST 2018 ON: 19.99 +20.0 20.05 -15.9 26.8 17.1 30.3 8 9 Alarm State:  0
Mon Jan 15 09:25:19 PST 2018 ON: 20.00 +20.0 20.05 -15.9 26.8 17.1 30.3 8 10 Alarm State:  0
Mon Jan 15 09:24:17 PST 2018 ON: 20.00 +20.0 20.04 -15.7 27.1 16.9 30.3 7 10 Alarm State:  0
Mon Jan 15 09:23:16 PST 2018 ON: 20.00 +20.0 20.05 -16.0 26.6 17.2 30.2 8 10 Alarm State:  0
Mon Jan 15 09:22:14 PST 2018 ON: 19.99 +20.0 20.03 -15.7 27.2 16.8 30.4 8 10 Alarm State:  0
Mon Jan 15 09:21:13 PST 2018 ON: 19.99 +20.0 20.03 -15.9 26.9 17.0 30.3 7 10 Alarm State:  0
Mon Jan 15 09:20:11 PST 2018 ON: 20.00 +20.0 20.04 -15.9 26.8 17.1 30.2 8 10 Alarm State:  0
Mon Jan 15 09:19:10 PST 2018 ON: 19.99 +20.0 20.03 -15.8 27.0 16.9 30.2 8 10 Alarm State:  0
Mon Jan 15 09:18:08 PST 2018 ON: 20.00 +20.0 20.05 -15.9 26.9 17.0 30.2 8 10 Alarm State:  0
Mon Jan 15 09:17:07 PST 2018 ON: 19.99 +20.0 20.05 -16.0 26.6 17.2 30.1 8 10 Alarm State:  0
Mon Jan 15 09:16:05 PST 2018 ON: 19.99 +20.0 20.04 -15.7 27.1 16.9 30.2 7 10 Alarm State:  0
Mon Jan 15 09:15:04 PST 2018 ON: 20.00 +20.0 20.04 -15.9 26.9 17.0 30.2 8 10 Alarm State:  0
Mon Jan 15 09:14:02 PST 2018 ON: 19.99 +20.0 20.04 -16.1 26.5 17.3 30.1 8 10 Alarm State:  0
Mon Jan 15 09:13:01 PST 2018 ON: 19.98 +20.0 20.02 -16.0 26.6 17.2 30.2 7 10 Alarm State:  0
Mon Jan 15 09:11:59 PST 2018 ON: 20.00 +20.0 20.05 -16.0 26.6 17.2 30.1 8 9 Alarm State:  0
Mon Jan 15 09:10:58 PST 2018 ON: 20.00 +20.0 20.06 -16.0 26.6 17.2 30.1 8 9 Alarm State:  0
Mon Jan 15 09:09:56 PST 2018 ON: 19.99 +20.0 20.05 -16.2 26.4 17.3 30.0 8 9 Alarm State:  0
Mon Jan 15 09:08:55 PST 2018 ON: 20.00 +20.0 20.04 -15.9 26.8 17.1 30.2 8 9 Alarm State:  0
Mon Jan 15 09:07:53 PST 2018 ON: 20.00 +20.0 20.05 -16.0 26.6 17.2 30.0 7 9 Alarm State:  0
Mon Jan 15 09:06:52 PST 2018 ON: 19.99 +20.0 20.05 -16.0 26.7 17.1 30.2 8 9 Alarm State:  0
Mon Jan 15 09:05:50 PST 2018 ON: 19.99 +20.0 20.03 -15.9 26.8 17.1 30.1 8 10 Alarm State:  0
Mon Jan 15 09:04:49 PST 2018 ON: 20.00 +20.0 20.05 -15.7 27.1 16.9 30.3 7 9 Alarm State:  0
Mon Jan 15 09:03:47 PST 2018 ON: 19.99 +20.0 20.06 -16.0 26.7 17.1 30.2 8 9 Alarm State:  0
Mon Jan 15 09:02:46 PST 2018 ON: 19.99 +20.0 20.03 -15.9 26.8 17.1 30.1 8 10 Alarm State:  0
Mon Jan 15 09:01:44 PST 2018 ON: 19.99 +20.0 20.04 -16.1 26.5 17.3 30.1 8 9 Alarm State:  0
Mon Jan 15 09:00:43 PST 2018 ON: 20.00 +20.0 20.04 -16.1 26.5 17.3 30.1 8 10 Alarm State:  0
Mon Jan 15 08:59:41 PST 2018 ON: 20.00 +20.0 20.07 -16.1 26.5 17.3 30.1 8 9 Alarm State:  0
Mon Jan 15 08:58:40 PST 2018 ON: 19.99 +20.0 20.03 -15.7 27.1 16.9 30.2 8 11 Alarm State:  0
Mon Jan 15 08:57:38 PST 2018 ON: 19.99 +20.0 20.04 -16.1 26.5 17.3 30.1 8 9 Alarm State:  0
Mon Jan 15 08:56:37 PST 2018 ON: 20.00 +20.0 20.05 -16.1 26.5 17.3 30.1 8 9 Alarm State:  0
Mon Jan 15 08:55:35 PST 2018 ON: 20.00 +20.0 20.05 -16.0 26.7 17.1 30.1 8 9 Alarm State:  0
Mon Jan 15 08:54:34 PST 2018 ON: 20.00 +20.0 20.05 -15.7 27.1 16.9 30.3 8 10 Alarm State:  0
Mon Jan 15 08:53:32 PST 2018 ON: 19.99 +20.0 20.04 -15.9 26.9 17.0 30.4 7 10 Alarm State:  0
Mon Jan 15 08:52:31 PST 2018 ON: 19.99 +20.0 20.03 -16.1 26.5 17.3 30.2 8 9 Alarm State:  0
Mon Jan 15 08:51:29 PST 2018 ON: 20.00 +20.0 20.05 -15.9 26.8 17.1 30.2 8 9 Alarm State:  0
Mon Jan 15 08:50:28 PST 2018 ON: 20.01 +20.0 20.06 -15.9 26.8 17.1 30.2 8 9 Alarm State:  0
Mon Jan 15 08:49:26 PST 2018 ON: 19.99 +20.0 20.05 -15.9 26.9 17.0 30.2 8 10 Alarm State:  0
Mon Jan 15 08:48:25 PST 2018 ON: 19.99 +20.0 20.05 -15.9 26.9 17.0 30.3 8 9 Alarm State:  0
Mon Jan 15 08:47:24 PST 2018 ON: 20.00 +20.0 20.04 -15.9 26.9 17.0 30.3 8 10 Alarm State:  0
Mon Jan 15 08:46:22 PST 2018 ON: 20.00 +20.0 20.05 -16.0 26.6 17.2 30.2 8 9 Alarm State:  0
Mon Jan 15 08:45:21 PST 2018 ON: 19.99 +20.0 20.05 -16.0 26.7 17.1 30.2 7 10 Alarm State:  0
Mon Jan 15 08:44:19 PST 2018 ON: 19.99 +20.0 20.04 -15.9 26.9 17.0 30.4 8 9 Alarm State:  0
Mon Jan 15 08:43:18 PST 2018 ON: 19.99 +20.0 20.04 -16.0 26.6 17.2 30.2 8 10 Alarm State:  0
Mon Jan 15 08:42:16 PST 2018 ON: 20.00 +20.0 20.05 -15.9 26.9 17.0 30.3 8 10 Alarm State:  0
Mon Jan 15 08:41:15 PST 2018 ON: 19.99 +20.0 20.05 -15.9 26.8 17.1 30.4 8 10 Alarm State:  0
Mon Jan 15 08:40:13 PST 2018 ON: 19.99 +20.0 20.04 -15.9 26.8 17.1 30.4 7 10 Alarm State:  0
Mon Jan 15 08:39:12 PST 2018 ON: 20.00 +20.0 20.04 -16.0 26.7 17.1 30.2 8 9 Alarm State:  0
Mon Jan 15 08:38:10 PST 2018 ON: 20.00 +20.0 20.06 -16.0 26.7 17.1 30.2 8 9 Alarm State:  0
Mon Jan 15 08:37:09 PST 2018 ON: 19.99 +20.0 20.05 -15.7 27.1 16.9 30.4 7 10 Alarm State:  0
Mon Jan 15 08:36:07 PST 2018 ON: 19.99 +20.0 20.05 -16.1 26.5 17.3 30.2 8 9 Alarm State:  0
Mon Jan 15 08:35:06 PST 2018 ON: 19.99 +20.0 20.05 -16.0 26.7 17.1 30.3 8 9 Alarm State:  0
Mon Jan 15 08:34:04 PST 2018 ON: 20.00 +20.0 20.05 -16.0 26.7 17.1 30.3 8 9 Alarm State:  0
Mon Jan 15 08:33:03 PST 2018 ON: 20.00 +20.0 20.05 -15.7 27.1 16.9 30.4 8 10 Alarm State:  0
Mon Jan 15 08:32:01 PST 2018 ON: 19.99 +20.0 20.04 -15.9 26.8 17.1 30.4 7 10 Alarm State:  0
Mon Jan 15 08:31:00 PST 2018 ON: 20.00 +20.0 20.04 -16.0 26.7 17.1 30.3 8 9 Alarm State:  0
Mon Jan 15 08:29:58 PST 2018 ON: 20.00 +20.0 20.05 -16.0 26.7 17.1 30.3 8 9 Alarm State:  0
Mon Jan 15 08:28:57 PST 2018 ON: 20.00 +20.0 20.05 -16.0 26.6 17.2 30.3 8 10 Alarm State:  0
Mon Jan 15 08:27:55 PST 2018 ON: 19.99 +20.0 20.05 -16.0 26.6 17.2 30.3 8 9 Alarm State:  0
Mon Jan 15 08:26:54 PST 2018 ON: 20.00 +20.0 20.05 -15.9 26.9 17.0 30.4 8 9 Alarm State:  0
Mon Jan 15 08:25:52 PST 2018 ON: 20.00 +20.0 20.05 -16.0 26.7 17.1 30.2 8 10 Alarm State:  0
Mon Jan 15 08:24:51 PST 2018 ON: 19.99 +20.0 20.04 -15.9 26.8 17.1 30.3 8 10 Alarm State:  0
Mon Jan 15 08:23:49 PST 2018 ON: 19.99 +20.0 20.03 -15.9 26.8 17.1 30.4 8 10 Alarm State:  0
Mon Jan 15 08:22:48 PST 2018 ON: 20.00 +20.0 20.03 -16.0 26.6 17.2 30.3 8 10 Alarm State:  0
Mon Jan 15 08:21:46 PST 2018 ON: 20.00 +20.0 20.06 -16.2 26.4 17.3 30.2 8 9 Alarm State:  0
Mon Jan 15 08:20:45 PST 2018 ON: 19.99 +20.0 20.04 -15.9 26.9 17.0 30.4 8 10 Alarm State:  0
Mon Jan 15 08:19:43 PST 2018 ON: 20.00 +20.0 20.04 -16.0 26.7 17.1 30.4 8 9 Alarm State:  0
Mon Jan 15 08:18:42 PST 2018 ON: 20.00 +20.0 20.07 -16.1 26.5 17.3 30.2 8 9 Alarm State:  0
Mon Jan 15 08:17:40 PST 2018 ON: 19.99 +20.0 20.04 -15.7 27.1 16.9 30.4 7 10 Alarm State:  0
Mon Jan 15 08:16:39 PST 2018 ON: 19.99 +20.0 20.03 -15.7 27.2 16.8 30.4 8 10 Alarm State:  0
Mon Jan 15 08:15:37 PST 2018 ON: 20.00 +20.0 20.04 -15.9 26.8 17.1 30.3 7 10 Alarm State:  0
Mon Jan 15 08:14:36 PST 2018 ON: 19.99 +20.0 20.03 -15.8 27.0 16.9 30.3 8 10 Alarm State:  0
Mon Jan 15 08:13:34 PST 2018 ON: 20.00 +20.0 20.04 -15.7 27.1 16.9 30.3 8 9 Alarm State:  0
Mon Jan 15 08:12:33 PST 2018 ON: 19.99 +20.0 20.04 -15.9 26.9 17.0 30.3 7 10 Alarm State:  0
Mon Jan 15 08:11:31 PST 2018 ON: 19.99 +20.0 20.04 -16.0 26.7 17.1 30.2 8 10 Alarm State:  0
Mon Jan 15 08:10:30 PST 2018 ON: 20.00 +20.0 20.03 -16.0 26.7 17.1 30.2 8 10 Alarm State:  0
Mon Jan 15 08:09:28 PST 2018 ON: 20.00 +20.0 20.05 -16.0 26.7 17.1 30.3 7 9 Alarm State:  0
Mon Jan 15 08:08:27 PST 2018 ON: 19.99 +20.0 20.06 -16.0 26.7 17.1 30.2 8 9 Alarm State:  0
Mon Jan 15 08:07:25 PST 2018 ON: 19.99 +20.0 20.04 -16.0 26.6 17.2 30.1 8 9 Alarm State:  0
Mon Jan 15 08:06:24 PST 2018 ON: 20.00 +20.0 20.03 -16.0 26.7 17.1 30.2 8 9 Alarm State:  0
Mon Jan 15 08:05:22 PST 2018 ON: 20.00 +20.0 20.04 -16.0 26.7 17.1 30.2 8 10 Alarm State:  0
Mon Jan 15 08:04:21 PST 2018 ON: 19.99 +20.0 20.04 -15.9 26.9 17.0 30.4 7 10 Alarm State:  0
Mon Jan 15 08:03:19 PST 2018 ON: 19.99 +20.0 20.02 -15.8 27.0 16.9 30.3 8 11 Alarm State:  0
Mon Jan 15 08:02:18 PST 2018 ON: 20.00 +20.0 20.04 -15.9 26.9 17.0 30.3 8 9 Alarm State:  0
Mon Jan 15 08:01:17 PST 2018 ON: 20.00 +20.0 20.07 -16.1 26.5 17.3 30.2 8 8 Alarm State:  0
Mon Jan 15 08:00:15 PST 2018 ON: 19.99 +20.0 20.04 -15.9 26.9 17.0 30.3 8 10 Alarm State:  0
Mon Jan 15 07:59:14 PST 2018 ON: 19.99 +20.0 20.04 -15.5 27.4 16.7 30.5 8 9 Alarm State:  0
Mon Jan 15 07:58:12 PST 2018 ON: 20.00 +20.0 20.04 -16.2 26.4 17.3 30.2 8 9 Alarm State:  0
Mon Jan 15 07:57:11 PST 2018 ON: 20.00 +20.0 20.06 -16.1 26.5 17.3 30.2 8 9 Alarm State:  0
Mon Jan 15 07:56:09 PST 2018 ON: 19.99 +20.0 20.05 -16.1 26.5 17.3 30.3 8 10 Alarm State:  0
Mon Jan 15 07:55:08 PST 2018 ON: 19.99 +20.0 20.04 -15.9 26.9 17.0 30.3 8 9 Alarm State:  0
Mon Jan 15 07:54:06 PST 2018 ON: 20.00 +20.0 20.05 -16.2 26.4 17.3 30.2 8 9 Alarm State:  0
Mon Jan 15 07:53:05 PST 2018 ON: 20.00 +20.0 20.06 -16.0 26.6 17.2 30.2 8 9 Alarm State:  0
Mon Jan 15 07:52:03 PST 2018 ON: 19.99 +20.0 20.05 -15.9 26.8 17.1 30.3 8 10 Alarm State:  0
Mon Jan 15 07:51:02 PST 2018 ON: 19.99 +20.0 20.04 -15.9 26.9 17.0 30.3 8 9 Alarm State:  0
Mon Jan 15 07:50:00 PST 2018 ON: 20.00 +20.0 20.05 -16.0 26.6 17.2 30.3 8 9 Alarm State:  0
Mon Jan 15 07:48:59 PST 2018 ON: 20.00 +20.0 20.06 -16.0 26.6 17.2 30.4 8 9 Alarm State:  0
Mon Jan 15 07:47:57 PST 2018 ON: 19.99 +20.0 20.04 -15.7 27.2 16.8 30.5 7 10 Alarm State:  0
Mon Jan 15 07:46:56 PST 2018 ON: 19.99 +20.0 20.04 -15.7 27.2 16.8 30.5 8 9 Alarm State:  0
Mon Jan 15 07:45:54 PST 2018 ON: 20.00 +20.0 20.05 -16.2 26.4 17.3 30.2 8 9 Alarm State:  0
Mon Jan 15 07:44:53 PST 2018 ON: 19.99 +20.0 20.03 -15.8 27.0 16.9 30.5 7 10 Alarm State:  0
Mon Jan 15 07:43:51 PST 2018 ON: 20.00 +20.0 20.04 -16.0 26.7 17.1 30.4 8 9 Alarm State:  0
Mon Jan 15 07:42:50 PST 2018 ON: 20.00 +20.0 20.06 -16.2 26.4 17.3 30.2 8 9 Alarm State:  0
Mon Jan 15 07:41:48 PST 2018 ON: 20.00 +20.0 20.05 -15.9 26.9 17.0 30.4 8 10 Alarm State:  0
Mon Jan 15 07:40:47 PST 2018 ON: 19.99 +20.0 20.05 -15.7 27.2 16.8 30.5 8 9 Alarm State:  0
Mon Jan 15 07:39:45 PST 2018 ON: 20.00 +20.0 20.04 -16.0 26.6 17.2 30.4 7 9 Alarm State:  0
Mon Jan 15 07:38:44 PST 2018 ON: 20.00 +20.0 20.04 -15.7 27.2 16.8 30.5 8 10 Alarm State:  0
Mon Jan 15 07:37:42 PST 2018 ON: 20.00 +20.0 20.05 -15.9 26.8 17.1 30.4 8 9 Alarm State:  0
Mon Jan 15 07:36:41 PST 2018 ON: 19.99 +20.0 20.04 -15.9 26.8 17.1 30.5 7 9 Alarm State:  0
Mon Jan 15 07:35:39 PST 2018 ON: 20.00 +20.0 20.04 -16.1 26.5 17.3 30.3 8 10 Alarm State:  0
Mon Jan 15 07:34:38 PST 2018 ON: 19.99 +20.0 20.03 -16.0 26.7 17.1 30.4 8 10 Alarm State:  0
Mon Jan 15 07:33:36 PST 2018 ON: 20.00 +20.0 20.06 -16.0 26.6 17.2 30.4 8 9 Alarm State:  0
Mon Jan 15 07:32:35 PST 2018 ON: 19.99 +20.0 20.05 -16.0 26.6 17.2 30.4 8 9 Alarm State:  0
Mon Jan 15 07:31:33 PST 2018 ON: 20.00 +20.0 20.05 -15.7 27.1 16.9 30.5 8 9 Alarm State:  0
Mon Jan 15 07:30:32 PST 2018 ON: 19.99 +20.0 20.04 -15.9 26.9 17.0 30.5 8 10 Alarm State:  0
Mon Jan 15 07:29:30 PST 2018 ON: 19.99 +20.0 20.04 -16.0 26.7 17.1 30.4 8 9 Alarm State:  0
Mon Jan 15 07:28:29 PST 2018 ON: 20.00 +20.0 20.04 -16.0 26.6 17.2 30.4 7 10 Alarm State:  0
Mon Jan 15 07:27:27 PST 2018 ON: 19.99 +20.0 20.04 -15.7 27.1 16.9 30.5 8 10 Alarm State:  0
Mon Jan 15 07:26:26 PST 2018 ON: 19.99 +20.0 20.05 -15.8 27.0 16.9 30.5 8 9 Alarm State:  0
Mon Jan 15 07:25:24 PST 2018 ON: 19.99 +20.0 20.05 -15.7 27.1 16.9 30.6 7 10 Alarm State:  0
Mon Jan 15 07:24:23 PST 2018 ON: 19.99 +20.0 20.02 -15.7 27.2 16.8 30.5 8 10 Alarm State:  0
Mon Jan 15 07:23:21 PST 2018 ON: 20.00 +20.0 20.05 -16.0 26.6 17.2 30.4 8 9 Alarm State:  0
Mon Jan 15 07:22:20 PST 2018 ON: 20.00 +20.0 20.04 -15.5 27.4 16.7 30.5 8 9 Alarm State:  0
Mon Jan 15 07:21:18 PST 2018 ON: 20.00 +20.0 20.05 -16.0 26.7 17.1 30.4 8 9 Alarm State:  0
Mon Jan 15 07:20:17 PST 2018 ON: 19.99 +20.0 20.05 -16.0 26.7 17.1 30.4 7 9 Alarm State:  0
Mon Jan 15 07:19:15 PST 2018 ON: 20.00 +20.0 20.04 -15.8 27.0 16.9 30.4 8 9 Alarm State:  0
Mon Jan 15 07:18:14 PST 2018 ON: 20.00 +20.0 20.04 -16.0 26.6 17.2 30.3 8 10 Alarm State:  0
Mon Jan 15 07:17:12 PST 2018 ON: 20.00 +20.0 20.04 -16.0 26.7 17.1 30.3 7 10 Alarm State:  0
Mon Jan 15 07:16:11 PST 2018 ON: 19.99 +20.0 20.04 -15.7 27.1 16.9 30.4 8 11 Alarm State:  0
Mon Jan 15 07:15:10 PST 2018 ON: 19.99 +20.0 20.04 -15.8 27.0 16.9 30.3 8 10 Alarm State:  0
Mon Jan 15 07:14:08 PST 2018 ON: 20.00 +20.0 20.04 -16.0 26.7 17.1 30.3 8 9 Alarm State:  0
Mon Jan 15 07:12:57 PST 2018  Alarm State: 0
Mon Jan 15 07:12:57 PST 2018 Chiller did not report ON, got this reading: 
Mon Jan 15 07:11:55 PST 2018 ON: 20.00 +20.0 20.06 -15.9 26.8 17.1 30.3 8 9 Alarm State:  0
Mon Jan 15 07:10:54 PST 2018 ON: 19.99 +20.0 20.04 -15.7 27.1 16.9 30.4 8 10 Alarm State:  0
Mon Jan 15 07:09:52 PST 2018 ON: 20.00 +20.0 20.04 -16.2 26.4 17.3 30.2 8 9 Alarm State:  0
Mon Jan 15 07:08:51 PST 2018 ON: 20.00 +20.0 20.05 -16.0 26.7 17.1 30.3 8 9 Alarm State:  0
Mon Jan 15 07:07:49 PST 2018 ON: 20.00 +20.0 20.04 -15.9 26.9 17.0 30.3 8 10 Alarm State:  0
Mon Jan 15 07:06:48 PST 2018 ON: 19.99 +20.0 20.03 -15.7 27.2 16.8 30.4 8 10 Alarm State:  0
Mon Jan 15 07:05:46 PST 2018 ON: 20.00 +20.0 20.05 -16.0 26.6 17.2 30.1 8 9 Alarm State:  0
Mon Jan 15 07:04:45 PST 2018 ON: 19.99 +20.0 20.06 -16.0 26.6 17.2 30.2 8 9 Alarm State:  0
Mon Jan 15 07:03:43 PST 2018 ON: 19.98 +20.0 20.04 -15.7 27.2 16.8 30.3 8 10 Alarm State:  0
Mon Jan 15 07:02:42 PST 2018 ON: 20.00 +20.0 20.04 -15.7 27.1 16.9 30.3 8 9 Alarm State:  0
Mon Jan 15 07:01:40 PST 2018 ON: 20.00 +20.0 20.05 -16.2 26.3 17.4 30.1 8 9 Alarm State:  0
Mon Jan 15 07:00:39 PST 2018 ON: 19.99 +20.0 20.05 -15.9 26.9 17.0 30.3 8 10 Alarm State:  0
Mon Jan 15 06:59:37 PST 2018 ON: 19.98 +20.0 20.03 -15.7 27.1 16.9 30.3 8 11 Alarm State:  0
Mon Jan 15 06:58:36 PST 2018 ON: 19.99 +20.0 20.03 -15.8 27.0 16.9 30.3 8 10 Alarm State:  0
Mon Jan 15 06:57:34 PST 2018 ON: 20.00 +20.0 20.05 -16.0 26.6 17.2 30.1 8 9 Alarm State:  0
Mon Jan 15 06:56:33 PST 2018 ON: 19.99 +20.0 20.04 -15.6 27.3 16.8 30.2 7 10 Alarm State:  0
Mon Jan 15 06:55:31 PST 2018 ON: 19.99 +20.0 20.05 -16.0 26.7 17.1 30.0 8 10 Alarm State:  0
Mon Jan 15 06:54:30 PST 2018 ON: 19.99 +20.0 20.03 -15.7 27.1 16.9 30.1 7 10 Alarm State:  0
Mon Jan 15 06:53:28 PST 2018 ON: 20.00 +20.0 20.04 -16.0 26.7 17.1 30.1 8 10 Alarm State:  0
Mon Jan 15 06:52:27 PST 2018 ON: 20.00 +20.0 20.06 -16.2 26.4 17.3 29.9 8 9 Alarm State:  0
Mon Jan 15 06:51:25 PST 2018 ON: 20.00 +20.0 20.05 -15.8 27.0 16.9 30.1 8 10 Alarm State:  0
Mon Jan 15 06:50:24 PST 2018 ON: 19.99 +20.0 20.04 -15.6 27.3 16.8 30.2 8 11 Alarm State:  0
Mon Jan 15 06:49:22 PST 2018 ON: 19.98 +20.0 20.05 -16.0 26.6 17.2 30.2 8 9 Alarm State:  0
Mon Jan 15 06:48:21 PST 2018 ON: 20.00 +20.0 20.04 -16.1 26.5 17.3 30.1 7 9 Alarm State:  0
Mon Jan 15 06:47:19 PST 2018 ON: 20.01 +20.0 20.05 -16.0 26.7 17.1 30.2 8 9 Alarm State:  0
Mon Jan 15 06:46:18 PST 2018 ON: 20.00 +20.0 20.06 -15.9 26.8 17.1 30.2 8 10 Alarm State:  0
Mon Jan 15 06:45:16 PST 2018 ON: 19.99 +20.0 20.05 -16.0 26.6 17.2 30.1 8 9 Alarm State:  0
Mon Jan 15 06:44:15 PST 2018 ON: 20.00 +20.0 20.03 -15.9 26.9 17.0 30.3 8 10 Alarm State:  0
Mon Jan 15 06:43:13 PST 2018 ON: 20.01 +20.0 20.05 -15.9 26.8 17.1 30.2 8 9 Alarm State:  0
Mon Jan 15 06:42:12 PST 2018 ON: 19.99 +20.0 20.03 -15.6 27.3 16.8 30.5 8 11 Alarm State:  0
Mon Jan 15 06:41:10 PST 2018 ON: 19.99 +20.0 20.03 -15.7 27.1 16.9 30.6 8 10 Alarm State:  0
Mon Jan 15 06:40:09 PST 2018 ON: 20.00 +20.0 20.05 -16.0 26.7 17.1 30.5 7 9 Alarm State:  0
Mon Jan 15 06:39:07 PST 2018 ON: 20.00 +20.0 20.07 -16.0 26.7 17.1 30.5 8 8 Alarm State:  0
Mon Jan 15 06:38:06 PST 2018 ON: 19.99 +20.0 20.05 -15.7 27.1 16.9 30.6 8 10 Alarm State:  0
Mon Jan 15 06:37:04 PST 2018 ON: 19.99 +20.0 20.02 -15.5 27.4 16.7 30.7 7 11 Alarm State:  0
Mon Jan 15 06:36:03 PST 2018 ON: 20.00 +20.0 20.05 -15.8 27.0 16.9 30.6 8 9 Alarm State:  0
Mon Jan 15 06:35:01 PST 2018 ON: 20.00 +20.0 20.05 -15.7 27.1 16.9 30.6 8 10 Alarm State:  0
Mon Jan 15 06:34:00 PST 2018 ON: 19.99 +20.0 20.04 -15.9 26.9 17.0 30.5 8 10 Alarm State:  0
Mon Jan 15 06:32:58 PST 2018 ON: 19.99 +20.0 20.04 -15.8 27.0 16.9 30.5 8 10 Alarm State:  0
Mon Jan 15 06:31:57 PST 2018 ON: 20.00 +20.0 20.05 -15.9 26.8 17.1 30.5 8 9 Alarm State:  0
Mon Jan 15 06:30:55 PST 2018 ON: 20.00 +20.0 20.06 -16.0 26.6 17.2 30.4 8 9 Alarm State:  0
Mon Jan 15 06:29:54 PST 2018 ON: 19.99 +20.0 20.04 -15.9 26.8 17.1 30.5 8 10 Alarm State:  0
Mon Jan 15 06:28:52 PST 2018 ON: 20.00 +20.0 20.04 -16.0 26.7 17.1 30.4 7 9 Alarm State:  0
Mon Jan 15 06:27:51 PST 2018 ON: 20.00 +20.0 20.05 -15.8 27.0 16.9 30.5 8 10 Alarm State:  0
Mon Jan 15 06:26:49 PST 2018 ON: 19.99 +20.0 20.04 -15.7 27.2 16.8 30.5 8 10 Alarm State:  0
Mon Jan 15 06:25:48 PST 2018 ON: 20.00 +20.0 20.05 -15.7 27.1 16.9 30.6 8 9 Alarm State:  0
Mon Jan 15 06:24:46 PST 2018 ON: 20.00 +20.0 20.05 -15.9 26.9 17.0 30.5 8 10 Alarm State:  0
Mon Jan 15 06:23:45 PST 2018 ON: 19.99 +20.0 20.05 -15.9 26.8 17.1 30.5 7 9 Alarm State:  0
Mon Jan 15 06:22:43 PST 2018 ON: 20.00 +20.0 20.05 -16.0 26.6 17.2 30.5 8 9 Alarm State:  0
Mon Jan 15 06:21:42 PST 2018 ON: 20.00 +20.0 20.05 -15.8 27.0 16.9 30.5 8 10 Alarm State:  0
Mon Jan 15 06:20:40 PST 2018 ON: 19.99 +20.0 20.05 -15.8 27.0 16.9 30.5 8 10 Alarm State:  0
Mon Jan 15 06:19:39 PST 2018 ON: 19.99 +20.0 20.04 -15.9 26.8 17.1 30.4 8 10 Alarm State:  0
Mon Jan 15 06:18:37 PST 2018 ON: 19.99 +20.0 20.04 -16.0 26.7 17.1 30.4 8 9 Alarm State:  0
Mon Jan 15 06:17:36 PST 2018 ON: 20.00 +20.0 20.05 -16.0 26.6 17.2 30.4 8 9 Alarm State:  0
Mon Jan 15 06:16:34 PST 2018 ON: 20.00 +20.0 20.05 -15.9 26.9 17.0 30.5 8 10 Alarm State:  0
Mon Jan 15 06:15:33 PST 2018 ON: 20.00 +20.0 20.05 -15.8 27.0 16.9 30.5 7 10 Alarm State:  0
Mon Jan 15 06:14:31 PST 2018 ON: 19.99 +20.0 20.04 -15.9 26.8 17.1 30.5 8 10 Alarm State:  0
Mon Jan 15 06:13:30 PST 2018 ON: 20.00 +20.0 20.04 -15.9 26.8 17.1 30.4 8 10 Alarm State:  0
Mon Jan 15 06:12:28 PST 2018 ON: 20.00 +20.0 20.05 -15.9 26.8 17.1 30.4 7 10 Alarm State:  0
Mon Jan 15 06:11:27 PST 2018 ON: 19.99 +20.0 20.04 -15.7 27.1 16.9 30.5 8 10 Alarm State:  0
Mon Jan 15 06:10:25 PST 2018 ON: 20.00 +20.0 20.05 -16.0 26.7 17.1 30.4 8 9 Alarm State:  0
Mon Jan 15 06:09:24 PST 2018 ON: 20.00 +20.0 20.03 -15.7 27.1 16.9 30.5 8 11 Alarm State:  0
Mon Jan 15 06:08:22 PST 2018 ON: 19.99 +20.0 20.04 -15.9 26.9 17.0 30.4 8 10 Alarm State:  0
Mon Jan 15 06:07:21 PST 2018 ON: 19.99 +20.0 20.03 -15.7 27.1 16.9 30.5 7 10 Alarm State:  0
Mon Jan 15 06:06:19 PST 2018 ON: 20.00 +20.0 20.04 -16.1 26.5 17.3 30.4 8 10 Alarm State:  0
Mon Jan 15 06:05:18 PST 2018 ON: 19.99 +20.0 20.04 -16.1 26.5 17.3 30.2 8 10 Alarm State:  0
Mon Jan 15 06:04:16 PST 2018 ON: 20.00 +20.0 20.05 -15.8 27.0 16.9 30.5 7 9 Alarm State:  0
Mon Jan 15 06:03:15 PST 2018 ON: 20.00 +20.0 20.05 -16.0 26.6 17.2 30.4 8 10 Alarm State:  0
Mon Jan 15 06:02:13 PST 2018 ON: 19.99 +20.0 20.04 -15.7 27.1 16.9 30.4 8 10 Alarm State:  0
Mon Jan 15 06:01:12 PST 2018 ON: 19.99 +20.0 20.04 -15.9 26.8 17.1 30.4 8 10 Alarm State:  0
Mon Jan 15 06:00:10 PST 2018 ON: 20.00 +20.0 20.05 -16.1 26.5 17.3 30.2 8 9 Alarm State:  0
Mon Jan 15 05:59:09 PST 2018 ON: 20.00 +20.0 20.04 -15.9 26.9 17.0 30.4 7 10 Alarm State:  0
Mon Jan 15 05:58:07 PST 2018 ON: 19.99 +20.0 20.05 -15.9 26.8 17.1 30.4 8 10 Alarm State:  0
Mon Jan 15 05:57:06 PST 2018 ON: 19.99 +20.0 20.04 -15.7 27.2 16.8 30.5 8 10 Alarm State:  0
Mon Jan 15 05:56:04 PST 2018 ON: 20.00 +20.0 20.05 -16.0 26.6 17.2 30.4 8 9 Alarm State:  0
Mon Jan 15 05:55:03 PST 2018 ON: 20.00 +20.0 20.06 -15.9 26.8 17.1 30.4 8 9 Alarm State:  0
Mon Jan 15 05:54:01 PST 2018 ON: 19.99 +20.0 20.05 -15.9 26.9 17.0 30.4 8 10 Alarm State:  0
Mon Jan 15 05:53:00 PST 2018 ON: 19.99 +20.0 20.05 -15.9 26.8 17.1 30.4 8 9 Alarm State:  0
Mon Jan 15 05:51:58 PST 2018 ON: 20.00 +20.0 20.04 -15.9 26.9 17.0 30.4 8 10 Alarm State:  0
Mon Jan 15 05:50:57 PST 2018 ON: 20.01 +20.0 20.05 -16.1 26.5 17.3 30.3 8 10 Alarm State:  0
Mon Jan 15 05:49:55 PST 2018 ON: 19.99 +20.0 20.03 -15.6 27.3 16.8 30.5 7 11 Alarm State:  0
Mon Jan 15 05:48:54 PST 2018 ON: 19.98 +20.0 20.01 -15.4 27.6 16.5 30.6 8 12 Alarm State:  0
Mon Jan 15 05:47:52 PST 2018 ON: 20.00 +20.0 20.04 -15.9 26.9 17.0 30.3 8 9 Alarm State:  0
Mon Jan 15 05:46:51 PST 2018 ON: 20.00 +20.0 20.04 -15.7 27.2 16.8 30.5 8 10 Alarm State:  0
Mon Jan 15 05:45:49 PST 2018 ON: 19.99 +20.0 20.06 -15.8 27.0 16.9 30.4 8 10 Alarm State:  0
Mon Jan 15 05:44:48 PST 2018 ON: 19.99 +20.0 20.03 -15.7 27.1 16.9 30.4 8 10 Alarm State:  0
Mon Jan 15 05:43:46 PST 2018 ON: 20.00 +20.0 20.03 -16.0 26.6 17.2 30.3 8 10 Alarm State:  0
Mon Jan 15 05:42:45 PST 2018 ON: 19.99 +20.0 20.04 -16.0 26.7 17.1 30.3 7 10 Alarm State:  0
Mon Jan 15 05:41:43 PST 2018 ON: 20.00 +20.0 20.05 -15.9 26.8 17.1 30.3 8 10 Alarm State:  0
Mon Jan 15 05:40:42 PST 2018 ON: 19.99 +20.0 20.03 -15.5 27.4 16.7 30.5 8 11 Alarm State:  0
Mon Jan 15 05:39:40 PST 2018 ON: 19.99 +20.0 20.03 -15.9 26.9 17.0 30.3 7 10 Alarm State:  0
Mon Jan 15 05:38:39 PST 2018 ON: 20.00 +20.0 20.05 -16.2 26.3 17.4 30.3 8 9 Alarm State:  0
Mon Jan 15 05:37:37 PST 2018 ON: 20.00 +20.0 20.04 -16.0 26.7 17.1 30.4 8 10 Alarm State:  0
Mon Jan 15 05:36:36 PST 2018 ON: 20.00 +20.0 20.05 -15.9 26.9 17.0 30.4 8 10 Alarm State:  0
Mon Jan 15 05:35:34 PST 2018 ON: 20.00 +20.0 20.05 -15.9 26.8 17.1 30.4 8 9 Alarm State:  0
Mon Jan 15 05:34:33 PST 2018 ON: 20.00 +20.0 20.05 -15.8 27.0 16.9 30.4 7 10 Alarm State:  0
Mon Jan 15 05:33:31 PST 2018 ON: 19.99 +20.0 20.05 -15.9 26.8 17.1 30.4 8 10 Alarm State:  0
Mon Jan 15 05:32:30 PST 2018 ON: 19.99 +20.0 20.04 -15.7 27.1 16.9 30.5 8 10 Alarm State:  0
Mon Jan 15 05:31:28 PST 2018 ON: 20.00 +20.0 20.05 -15.9 26.9 17.0 30.4 7 9 Alarm State:  0
Mon Jan 15 05:30:27 PST 2018 ON: 20.00 +20.0 20.06 -16.0 26.7 17.1 30.3 8 9 Alarm State:  0
Mon Jan 15 05:29:25 PST 2018 ON: 19.99 +20.0 20.05 -16.0 26.7 17.1 30.4 8 10 Alarm State:  0
Mon Jan 15 05:28:24 PST 2018 ON: 19.98 +20.0 20.03 -15.7 27.1 16.9 30.5 8 10 Alarm State:  0
Mon Jan 15 05:27:22 PST 2018 ON: 20.00 +20.0 20.05 -15.9 26.8 17.1 30.4 8 9 Alarm State:  0
Mon Jan 15 05:26:21 PST 2018 ON: 20.00 +20.0 20.06 -15.9 26.8 17.1 30.5 7 9 Alarm State:  0
Mon Jan 15 05:25:19 PST 2018 ON: 19.99 +20.0 20.04 -15.7 27.1 16.9 30.5 8 10 Alarm State:  0
Mon Jan 15 05:24:18 PST 2018 ON: 20.00 +20.0 20.05 -16.0 26.7 17.1 30.3 8 9 Alarm State:  0
Mon Jan 15 05:23:16 PST 2018 ON: 20.00 +20.0 20.06 -16.0 26.6 17.2 30.3 8 9 Alarm State:  0
Mon Jan 15 05:22:15 PST 2018 ON: 19.99 +20.0 20.05 -15.8 27.0 16.9 30.5 8 10 Alarm State:  0
Mon Jan 15 05:21:13 PST 2018 ON: 19.99 +20.0 20.02 -15.6 27.3 16.8 30.5 8 11 Alarm State:  0
Mon Jan 15 05:20:12 PST 2018 ON: 19.99 +20.0 20.02 -15.8 27.0 16.9 30.5 8 10 Alarm State:  0
Mon Jan 15 05:19:10 PST 2018 ON: 20.00 +20.0 20.05 -16.1 26.5 17.3 30.4 8 9 Alarm State:  0
Mon Jan 15 05:18:09 PST 2018 ON: 20.00 +20.0 20.05 -16.0 26.7 17.1 30.4 7 10 Alarm State:  0
Mon Jan 15 05:17:07 PST 2018 ON: 20.00 +20.0 20.04 -15.8 27.0 16.9 30.5 8 10 Alarm State:  0
Mon Jan 15 05:16:06 PST 2018 ON: 19.99 +20.0 20.04 -15.9 26.9 17.0 30.4 8 10 Alarm State:  0
Mon Jan 15 05:15:04 PST 2018 ON: 19.99 +20.0 20.03 -15.9 26.8 17.1 30.4 8 10 Alarm State:  0
Mon Jan 15 05:14:03 PST 2018 ON: 20.00 +20.0 20.04 -16.0 26.7 17.1 30.3 8 10 Alarm State:  0
Mon Jan 15 05:13:01 PST 2018 ON: 20.00 +20.0 20.06 -15.9 26.9 17.0 30.4 8 9 Alarm State:  0
Mon Jan 15 05:12:00 PST 2018 ON: 19.99 +20.0 20.04 -15.8 27.0 16.9 30.4 8 10 Alarm State:  0
Mon Jan 15 05:10:59 PST 2018 ON: 19.99 +20.0 20.05 -16.2 26.4 17.3 30.3 8 9 Alarm State:  0
Mon Jan 15 05:09:57 PST 2018 ON: 20.00 +20.0 20.05 -16.0 26.7 17.1 30.4 8 9 Alarm State:  0
Mon Jan 15 05:08:56 PST 2018 ON: 20.00 +20.0 20.04 -15.7 27.2 16.8 30.6 8 10 Alarm State:  0
Mon Jan 15 05:07:54 PST 2018 ON: 19.99 +20.0 20.03 -15.7 27.2 16.8 30.5 7 10 Alarm State:  0
Mon Jan 15 05:06:53 PST 2018 ON: 20.00 +20.0 20.04 -15.9 26.8 17.1 30.5 7 10 Alarm State:  0
Mon Jan 15 05:05:51 PST 2018 ON: 19.99 +20.0 20.05 -16.1 26.5 17.3 30.4 8 9 Alarm State:  0
Mon Jan 15 05:04:50 PST 2018 ON: 20.00 +20.0 20.05 -15.8 27.0 16.9 30.5 8 9 Alarm State:  0
Mon Jan 15 05:03:48 PST 2018 ON: 19.99 +20.0 20.05 -15.9 26.9 17.0 30.4 8 10 Alarm State:  0
Mon Jan 15 05:02:47 PST 2018 ON: 19.99 +20.0 20.04 -15.7 27.2 16.8 30.6 8 10 Alarm State:  0
Mon Jan 15 05:01:45 PST 2018 ON: 19.99 +20.0 20.05 -16.0 26.6 17.2 30.4 8 10 Alarm State:  0
Mon Jan 15 05:00:44 PST 2018 ON: 19.99 +20.0 20.03 -16.0 26.7 17.1 30.4 8 10 Alarm State:  0
Mon Jan 15 04:59:42 PST 2018 ON: 20.00 +20.0 20.04 -16.0 26.7 17.1 30.4 8 9 Alarm State:  0
Mon Jan 15 04:58:41 PST 2018 ON: 20.00 +20.0 20.05 -16.2 26.3 17.4 30.3 8 10 Alarm State:  0
Mon Jan 15 04:57:39 PST 2018 ON: 19.99 +20.0 20.05 -15.9 26.9 17.0 30.4 8 10 Alarm State:  0
Mon Jan 15 04:56:38 PST 2018 ON: 19.99 +20.0 20.03 -15.7 27.2 16.8 30.5 8 10 Alarm State:  0
Mon Jan 15 04:55:36 PST 2018 ON: 20.00 +20.0 20.03 -16.0 26.7 17.1 30.4 7 10 Alarm State:  0
Mon Jan 15 04:54:35 PST 2018 ON: 20.00 +20.0 20.05 -16.1 26.5 17.3 30.4 8 9 Alarm State:  0
Mon Jan 15 04:53:33 PST 2018 ON: 20.00 +20.0 20.05 -15.9 26.9 17.0 30.4 8 10 Alarm State:  0
Mon Jan 15 04:52:32 PST 2018 ON: 19.99 +20.0 20.04 -15.9 26.9 17.0 30.5 8 10 Alarm State:  0
Mon Jan 15 04:51:30 PST 2018 ON: 20.00 +20.0 20.05 -16.0 26.6 17.2 30.4 8 9 Alarm State:  0
Mon Jan 15 04:50:29 PST 2018 ON: 20.00 +20.0 20.06 -15.8 27.0 16.9 30.5 8 9 Alarm State:  0
Mon Jan 15 04:49:27 PST 2018 ON: 19.99 +20.0 20.04 -15.8 27.0 16.9 30.5 8 10 Alarm State:  0
Mon Jan 15 04:48:26 PST 2018 ON: 19.99 +20.0 20.03 -15.8 27.0 16.9 30.5 8 10 Alarm State:  0
Mon Jan 15 04:47:24 PST 2018 ON: 20.00 +20.0 20.06 -16.0 26.6 17.2 30.4 7 9 Alarm State:  0
Mon Jan 15 04:46:23 PST 2018 ON: 20.00 +20.0 20.05 -15.9 26.9 17.0 30.5 8 10 Alarm State:  0
Mon Jan 15 04:45:21 PST 2018 ON: 19.99 +20.0 20.04 -15.9 26.9 17.0 30.5 8 10 Alarm State:  0
Mon Jan 15 04:44:20 PST 2018 ON: 19.99 +20.0 20.04 -16.0 26.7 17.1 30.4 8 9 Alarm State:  0
Mon Jan 15 04:43:18 PST 2018 ON: 20.00 +20.0 20.03 -15.9 26.9 17.0 30.4 8 10 Alarm State:  0
Mon Jan 15 04:42:17 PST 2018 ON: 19.99 +20.0 20.04 -15.7 27.2 16.8 30.6 7 10 Alarm State:  0
Mon Jan 15 04:41:15 PST 2018 ON: 20.00 +20.0 20.06 -15.8 27.0 16.9 30.5 8 9 Alarm State:  0
Mon Jan 15 04:40:14 PST 2018 ON: 19.99 +20.0 20.03 -15.5 27.5 16.6 30.6 8 11 Alarm State:  0
Mon Jan 15 04:39:12 PST 2018 ON: 19.99 +20.0 20.03 -15.7 27.1 16.9 30.5 7 10 Alarm State:  0
Mon Jan 15 04:38:11 PST 2018 ON: 19.99 +20.0 20.04 -16.0 26.7 17.1 30.4 8 10 Alarm State:  0
Mon Jan 15 04:37:09 PST 2018 ON: 20.00 +20.0 20.04 -16.1 26.5 17.3 30.4 8 9 Alarm State:  0
Mon Jan 15 04:36:08 PST 2018 ON: 20.00 +20.0 20.06 -15.9 26.8 17.1 30.3 8 9 Alarm State:  0
Mon Jan 15 04:35:06 PST 2018 ON: 19.99 +20.0 20.05 -15.9 26.9 17.0 30.4 8 10 Alarm State:  0
Mon Jan 15 04:34:05 PST 2018 ON: 19.99 +20.0 20.04 -15.9 26.8 17.1 30.4 8 9 Alarm State:  0
Mon Jan 15 04:33:03 PST 2018 ON: 20.00 +20.0 20.06 -16.2 26.4 17.3 30.3 8 9 Alarm State:  0
Mon Jan 15 04:32:02 PST 2018 ON: 20.00 +20.0 20.05 -15.9 26.8 17.1 30.4 8 9 Alarm State:  0
Mon Jan 15 04:31:00 PST 2018 ON: 20.00 +20.0 20.05 -15.9 26.8 17.1 30.4 8 10 Alarm State:  0
Mon Jan 15 04:29:59 PST 2018 ON: 19.99 +20.0 20.04 -15.7 27.1 16.9 30.5 8 10 Alarm State:  0
Mon Jan 15 04:28:57 PST 2018 ON: 19.99 +20.0 20.03 -16.1 26.5 17.3 30.4 8 10 Alarm State:  0
Mon Jan 15 04:27:56 PST 2018 ON: 19.99 +20.0 20.04 -16.1 26.5 17.3 30.4 8 10 Alarm State:  0
Mon Jan 15 04:26:54 PST 2018 ON: 20.00 +20.0 20.04 -16.0 26.7 17.1 30.4 8 10 Alarm State:  0
Mon Jan 15 04:25:53 PST 2018 ON: 20.00 +20.0 20.04 -15.9 26.9 17.0 30.4 7 10 Alarm State:  0
Mon Jan 15 04:24:51 PST 2018 ON: 19.99 +20.0 20.05 -16.0 26.7 17.1 30.4 8 10 Alarm State:  0
Mon Jan 15 04:23:50 PST 2018 ON: 20.00 +20.0 20.04 -16.0 26.7 17.1 30.3 8 9 Alarm State:  0
Mon Jan 15 04:22:48 PST 2018 ON: 20.00 +20.0 20.05 -15.9 26.8 17.1 30.3 7 10 Alarm State:  0
Mon Jan 15 04:21:47 PST 2018 ON: 19.99 +20.0 20.05 -15.9 26.8 17.1 30.4 8 10 Alarm State:  0
Mon Jan 15 04:20:45 PST 2018 ON: 19.99 +20.0 20.06 -16.2 26.3 17.4 30.2 8 9 Alarm State:  0
Mon Jan 15 04:19:44 PST 2018 ON: 20.00 +20.0 20.03 -15.8 27.0 16.9 30.5 8 10 Alarm State:  0
Mon Jan 15 04:18:42 PST 2018 ON: 20.00 +20.0 20.05 -15.9 26.9 17.0 30.4 8 10 Alarm State:  0
Mon Jan 15 04:17:41 PST 2018 ON: 19.99 +20.0 20.05 -15.9 26.9 17.0 30.5 8 9 Alarm State:  0
Mon Jan 15 04:16:39 PST 2018 ON: 20.00 +20.0 20.04 -15.9 26.9 17.0 30.4 8 10 Alarm State:  0
Mon Jan 15 04:15:38 PST 2018 ON: 20.00 +20.0 20.05 -15.9 26.8 17.1 30.4 8 10 Alarm State:  0
Mon Jan 15 04:14:36 PST 2018 ON: 19.99 +20.0 20.05 -15.8 27.0 16.9 30.5 7 10 Alarm State:  0
Mon Jan 15 04:13:35 PST 2018 ON: 19.99 +20.0 20.04 -16.1 26.5 17.3 30.3 8 10 Alarm State:  0
Mon Jan 15 04:12:33 PST 2018 ON: 20.00 +20.0 20.03 -15.7 27.1 16.9 30.4 8 10 Alarm State:  0
Mon Jan 15 04:11:32 PST 2018 ON: 20.00 +20.0 20.05 -16.0 26.7 17.1 30.3 8 9 Alarm State:  0
Mon Jan 15 04:10:30 PST 2018 ON: 20.00 +20.0 20.06 -15.8 27.0 16.9 30.3 8 10 Alarm State:  0
Mon Jan 15 04:09:29 PST 2018 ON: 19.99 +20.0 20.04 -15.8 27.0 16.9 30.4 7 10 Alarm State:  0
Mon Jan 15 04:08:27 PST 2018 ON: 19.99 +20.0 20.04 -15.7 27.1 16.9 30.4 8 9 Alarm State:  0
Mon Jan 15 04:07:26 PST 2018 ON: 20.00 +20.0 20.04 -15.7 27.1 16.9 30.4 8 10 Alarm State:  0
Mon Jan 15 04:06:24 PST 2018 ON: 20.00 +20.0 20.04 -15.8 27.0 16.9 30.4 8 10 Alarm State:  0
Mon Jan 15 04:05:23 PST 2018 ON: 19.99 +20.0 20.06 -15.9 26.8 17.1 30.4 8 10 Alarm State:  0
Mon Jan 15 04:04:21 PST 2018 ON: 19.99 +20.0 20.04 -15.7 27.1 16.9 30.4 8 10 Alarm State:  0
Mon Jan 15 04:03:20 PST 2018 ON: 19.99 +20.0 20.04 -15.8 27.0 16.9 30.4 7 9 Alarm State:  0
Mon Jan 15 04:02:18 PST 2018 ON: 20.00 +20.0 20.06 -16.2 26.4 17.3 30.3 8 8 Alarm State:  0
Mon Jan 15 04:01:17 PST 2018 ON: 20.00 +20.0 20.06 -16.0 26.6 17.2 30.3 7 9 Alarm State:  0
Mon Jan 15 04:00:15 PST 2018 ON: 19.99 +20.0 20.04 -15.9 26.8 17.1 30.3 8 10 Alarm State:  0
Mon Jan 15 03:59:14 PST 2018 ON: 20.00 +20.0 20.06 -16.0 26.7 17.1 30.4 8 9 Alarm State:  0
Mon Jan 15 03:58:12 PST 2018 ON: 20.00 +20.0 20.06 -15.9 26.8 17.1 30.4 8 9 Alarm State:  0
Mon Jan 15 03:57:11 PST 2018 ON: 19.99 +20.0 20.05 -16.0 26.7 17.1 30.4 8 9 Alarm State:  0
Mon Jan 15 03:56:09 PST 2018 ON: 20.00 +20.0 20.03 -16.0 26.6 17.2 30.4 8 10 Alarm State:  0
Mon Jan 15 03:55:08 PST 2018 ON: 19.98 +20.0 20.04 -16.0 26.7 17.1 30.4 8 10 Alarm State:  0
Mon Jan 15 03:54:06 PST 2018 ON: 19.99 +20.0 20.04 -15.8 27.0 16.9 30.6 8 9 Alarm State:  0
Mon Jan 15 03:53:05 PST 2018 ON: 20.00 +20.0 20.04 -16.1 26.5 17.3 30.4 7 9 Alarm State:  0
Mon Jan 15 03:52:03 PST 2018 ON: 20.00 +20.0 20.06 -15.8 27.0 16.9 30.6 8 9 Alarm State:  0
Mon Jan 15 03:51:02 PST 2018 ON: 19.99 +20.0 20.04 -15.7 27.2 16.8 30.5 8 10 Alarm State:  0
Mon Jan 15 03:50:00 PST 2018 ON: 19.99 +20.0 20.04 -15.8 27.0 16.9 30.5 7 10 Alarm State:  0
Mon Jan 15 03:48:59 PST 2018 ON: 20.00 +20.0 20.05 -15.7 27.2 16.8 30.5 8 9 Alarm State:  0
Mon Jan 15 03:47:57 PST 2018 ON: 19.99 +20.0 20.04 -15.7 27.2 16.8 30.5 8 10 Alarm State:  0
Mon Jan 15 03:46:56 PST 2018 ON: 20.00 +20.0 20.04 -15.9 26.8 17.1 30.4 8 10 Alarm State:  0
Mon Jan 15 03:45:54 PST 2018 ON: 19.99 +20.0 20.05 -15.8 27.0 16.9 30.5 8 9 Alarm State:  0
Mon Jan 15 03:44:53 PST 2018 ON: 20.00 +20.0 20.04 -15.9 26.9 17.0 30.5 7 10 Alarm State:  0
Mon Jan 15 03:43:51 PST 2018 ON: 19.99 +20.0 20.05 -15.9 26.9 17.0 30.5 8 10 Alarm State:  0
Mon Jan 15 03:42:50 PST 2018 ON: 19.98 +20.0 20.03 -15.7 27.1 16.9 30.5 8 10 Alarm State:  0
Mon Jan 15 03:41:48 PST 2018 ON: 20.00 +20.0 20.05 -16.2 26.3 17.4 30.3 8 9 Alarm State:  0
Mon Jan 15 03:40:47 PST 2018 ON: 20.00 +20.0 20.04 -16.0 26.7 17.1 30.4 8 9 Alarm State:  0
Mon Jan 15 03:39:45 PST 2018 ON: 20.00 +20.0 20.05 -15.8 27.0 16.9 30.4 8 10 Alarm State:  0
Mon Jan 15 03:38:44 PST 2018 ON: 19.99 +20.0 20.04 -15.7 27.2 16.8 30.5 8 10 Alarm State:  0
Mon Jan 15 03:37:42 PST 2018 ON: 20.00 +20.0 20.03 -15.9 26.8 17.1 30.4 8 10 Alarm State:  0
Mon Jan 15 03:36:41 PST 2018 ON: 20.00 +20.0 20.04 -15.7 27.1 16.9 30.5 7 10 Alarm State:  0
Mon Jan 15 03:35:39 PST 2018 ON: 19.99 +20.0 20.04 -15.7 27.1 16.9 30.5 7 9 Alarm State:  0
Mon Jan 15 03:34:38 PST 2018 ON: 20.00 +20.0 20.04 -16.0 26.6 17.2 30.4 8 10 Alarm State:  0
Mon Jan 15 03:33:36 PST 2018 ON: 19.99 +20.0 20.05 -16.0 26.6 17.2 30.4 8 10 Alarm State:  0
Mon Jan 15 03:32:35 PST 2018 ON: 19.99 +20.0 20.04 -16.0 26.7 17.1 30.4 8 9 Alarm State:  0
Mon Jan 15 03:31:33 PST 2018 ON: 20.00 +20.0 20.05 -16.0 26.7 17.1 30.4 8 9 Alarm State:  0
Mon Jan 15 03:30:32 PST 2018 ON: 20.00 +20.0 20.05 -15.9 26.9 17.0 30.4 7 10 Alarm State:  0
Mon Jan 15 03:29:30 PST 2018 ON: 20.00 +20.0 20.06 -15.9 26.8 17.1 30.4 8 9 Alarm State:  0
Mon Jan 15 03:28:29 PST 2018 ON: 19.99 +20.0 20.03 -15.9 26.9 17.0 30.5 8 10 Alarm State:  0
Mon Jan 15 03:27:27 PST 2018 ON: 20.00 +20.0 20.04 -16.0 26.7 17.1 30.3 8 10 Alarm State:  0
Mon Jan 15 03:26:26 PST 2018 ON: 19.99 +20.0 20.05 -15.9 26.9 17.0 30.4 8 9 Alarm State:  0
Mon Jan 15 03:25:24 PST 2018 ON: 20.00 +20.0 20.03 -15.9 26.8 17.1 30.4 7 10 Alarm State:  0
Mon Jan 15 03:24:23 PST 2018 ON: 20.00 +20.0 20.05 -16.1 26.5 17.3 30.3 8 9 Alarm State:  0
Mon Jan 15 03:23:21 PST 2018 ON: 20.00 +20.0 20.04 -15.7 27.1 16.9 30.4 8 10 Alarm State:  0
Mon Jan 15 03:22:20 PST 2018 ON: 20.00 +20.0 20.05 -15.8 27.0 16.9 30.5 8 9 Alarm State:  0
Mon Jan 15 03:21:18 PST 2018 ON: 19.99 +20.0 20.04 -15.9 26.9 17.0 30.4 8 10 Alarm State:  0
Mon Jan 15 03:20:17 PST 2018 ON: 19.99 +20.0 20.03 -15.9 26.9 17.0 30.5 7 10 Alarm State:  0
Mon Jan 15 03:19:15 PST 2018 ON: 20.00 +20.0 20.06 -16.2 26.4 17.3 30.3 8 9 Alarm State:  0
Mon Jan 15 03:18:14 PST 2018 ON: 19.99 +20.0 20.04 -15.8 27.0 16.9 30.5 8 10 Alarm State:  0
Mon Jan 15 03:17:12 PST 2018 ON: 20.00 +20.0 20.05 -15.9 26.9 17.0 30.5 7 9 Alarm State:  0
Mon Jan 15 03:16:11 PST 2018 ON: 20.00 +20.0 20.06 -15.9 26.9 17.0 30.4 8 9 Alarm State:  0
Mon Jan 15 03:15:09 PST 2018 ON: 20.00 +20.0 20.06 -15.9 26.9 17.0 30.5 8 10 Alarm State:  0
Mon Jan 15 03:14:08 PST 2018 ON: 19.98 +20.0 20.03 -15.7 27.2 16.8 30.5 8 11 Alarm State:  0
Mon Jan 15 03:13:06 PST 2018 ON: 19.99 +20.0 20.04 -15.9 26.8 17.1 30.4 8 9 Alarm State:  0
Mon Jan 15 03:12:05 PST 2018 ON: 20.00 +20.0 20.05 -16.1 26.5 17.3 30.3 7 9 Alarm State:  0
Mon Jan 15 03:11:03 PST 2018 ON: 20.00 +20.0 20.04 -16.1 26.5 17.3 30.4 8 10 Alarm State:  0
Mon Jan 15 03:10:02 PST 2018 ON: 19.99 +20.0 20.03 -15.7 27.2 16.8 30.5 7 10 Alarm State:  0
Mon Jan 15 03:09:00 PST 2018 ON: 20.00 +20.0 20.05 -15.9 26.9 17.0 30.4 7 9 Alarm State:  0
Mon Jan 15 03:07:59 PST 2018 ON: 20.00 +20.0 20.05 -15.8 27.0 16.9 30.5 8 10 Alarm State:  0
Mon Jan 15 03:06:57 PST 2018 ON: 19.99 +20.0 20.04 -15.8 27.0 16.9 30.5 8 10 Alarm State:  0
Mon Jan 15 03:05:56 PST 2018 ON: 20.00 +20.0 20.04 -15.9 26.8 17.1 30.4 7 10 Alarm State:  0
Mon Jan 15 03:04:54 PST 2018 ON: 19.99 +20.0 20.04 -15.7 27.1 16.9 30.4 8 10 Alarm State:  0
Mon Jan 15 03:03:53 PST 2018 ON: 20.00 +20.0 20.05 -15.9 26.9 17.0 30.4 8 9 Alarm State:  0
Mon Jan 15 03:02:51 PST 2018 ON: 20.00 +20.0 20.07 -16.1 26.5 17.3 30.2 8 9 Alarm State:  0
Mon Jan 15 03:01:50 PST 2018 ON: 19.99 +20.0 20.05 -15.7 27.2 16.8 30.4 8 10 Alarm State:  0
Mon Jan 15 03:00:48 PST 2018 ON: 20.00 +20.0 20.04 -15.7 27.1 16.9 30.5 7 9 Alarm State:  0
Mon Jan 15 02:59:47 PST 2018 ON: 20.00 +20.0 20.06 -16.2 26.4 17.3 30.3 8 9 Alarm State:  0
Mon Jan 15 02:58:45 PST 2018 ON: 19.99 +20.0 20.04 -15.7 27.1 16.9 30.4 8 10 Alarm State:  0
Mon Jan 15 02:57:44 PST 2018 ON: 19.99 +20.0 20.04 -15.7 27.1 16.9 30.4 7 10 Alarm State:  0
Mon Jan 15 02:56:42 PST 2018 ON: 20.00 +20.0 20.06 -16.2 26.4 17.3 30.2 8 9 Alarm State:  0
Mon Jan 15 02:55:41 PST 2018 ON: 19.99 +20.0 20.05 -16.0 26.6 17.2 30.3 8 9 Alarm State:  0
Mon Jan 15 02:54:39 PST 2018 ON: 20.00 +20.0 20.05 -15.9 26.9 17.0 30.3 8 9 Alarm State:  0
Mon Jan 15 02:53:38 PST 2018 ON: 19.99 +20.0 20.06 -16.0 26.6 17.2 30.3 8 9 Alarm State:  0
Mon Jan 15 02:52:36 PST 2018 ON: 19.99 +20.0 20.04 -15.9 26.9 17.0 30.3 7 10 Alarm State:  0
Mon Jan 15 02:51:35 PST 2018 ON: 20.00 +20.0 20.04 -15.8 27.0 16.9 30.3 8 9 Alarm State:  0
Mon Jan 15 02:50:33 PST 2018 ON: 20.00 +20.0 20.03 -15.7 27.2 16.8 30.4 8 10 Alarm State:  0
Mon Jan 15 02:49:32 PST 2018 ON: 19.99 +20.0 20.03 -15.8 27.0 16.9 30.3 8 10 Alarm State:  0
Mon Jan 15 02:48:30 PST 2018 ON: 20.00 +20.0 20.05 -15.9 26.8 17.1 30.3 8 9 Alarm State:  0
Mon Jan 15 02:47:29 PST 2018 ON: 20.00 +20.0 20.05 -15.9 26.9 17.0 30.3 7 9 Alarm State:  0
Mon Jan 15 02:46:27 PST 2018 ON: 20.00 +20.0 20.03 -15.7 27.2 16.8 30.3 8 11 Alarm State:  0
Mon Jan 15 02:45:26 PST 2018 ON: 20.00 +20.0 20.04 -15.6 27.3 16.8 30.4 8 10 Alarm State:  0
Mon Jan 15 02:44:24 PST 2018 ON: 20.00 +20.0 20.05 -16.1 26.5 17.3 30.1 8 9 Alarm State:  0
Mon Jan 15 02:43:23 PST 2018 ON: 20.00 +20.0 20.04 -15.9 26.8 17.1 30.2 8 10 Alarm State:  0
Mon Jan 15 02:42:21 PST 2018 ON: 19.99 +20.0 20.06 -16.1 26.5 17.3 30.1 8 9 Alarm State:  0
Mon Jan 15 02:41:20 PST 2018 ON: 19.99 +20.0 20.03 -16.0 26.7 17.1 30.1 8 10 Alarm State:  0
Mon Jan 15 02:40:18 PST 2018 ON: 19.99 +20.0 20.04 -16.2 26.4 17.3 30.1 8 9 Alarm State:  0
Mon Jan 15 02:39:17 PST 2018 ON: 20.00 +20.0 20.05 -16.1 26.5 17.3 30.1 8 9 Alarm State:  0
Mon Jan 15 02:38:15 PST 2018 ON: 20.00 +20.0 20.06 -16.0 26.7 17.1 30.1 8 9 Alarm State:  0
Mon Jan 15 02:37:14 PST 2018 ON: 19.99 +20.0 20.03 -15.8 27.0 16.9 30.2 8 11 Alarm State:  0
Mon Jan 15 02:36:12 PST 2018 ON: 19.99 +20.0 20.04 -15.7 27.1 16.9 30.3 7 9 Alarm State:  0
Mon Jan 15 02:35:11 PST 2018 ON: 20.00 +20.0 20.06 -16.3 26.2 17.5 30.0 8 9 Alarm State:  0
Mon Jan 15 02:34:09 PST 2018 ON: 19.99 +20.0 20.04 -15.9 26.8 17.1 30.2 8 10 Alarm State:  0
Mon Jan 15 02:33:08 PST 2018 ON: 20.00 +20.0 20.04 -15.8 27.0 16.9 30.2 8 10 Alarm State:  0
Mon Jan 15 02:32:06 PST 2018 ON: 20.00 +20.0 20.06 -15.8 27.0 16.9 30.3 8 9 Alarm State:  0
Mon Jan 15 02:31:05 PST 2018 ON: 19.98 +20.0 20.03 -15.9 26.8 17.1 30.2 8 11 Alarm State:  0
Mon Jan 15 02:30:03 PST 2018 ON: 19.99 +20.0 20.04 -15.9 26.8 17.1 30.2 8 9 Alarm State:  0
Mon Jan 15 02:29:02 PST 2018 ON: 20.00 +20.0 20.04 -15.9 26.8 17.1 30.1 8 10 Alarm State:  0
Mon Jan 15 02:28:00 PST 2018 ON: 19.99 +20.0 20.06 -16.0 26.6 17.2 30.1 8 9 Alarm State:  0
Mon Jan 15 02:26:59 PST 2018 ON: 19.99 +20.0 20.02 -15.5 27.5 16.6 30.4 8 11 Alarm State:  0
Mon Jan 15 02:25:57 PST 2018 ON: 20.00 +20.0 20.05 -15.8 27.0 16.9 30.2 8 9 Alarm State:  0
Mon Jan 15 02:24:56 PST 2018 ON: 20.00 +20.0 20.04 -16.2 26.3 17.4 29.9 8 10 Alarm State:  0
Mon Jan 15 02:23:54 PST 2018 ON: 19.98 +20.0 20.05 -16.0 26.7 17.1 30.1 8 10 Alarm State:  0
Mon Jan 15 02:22:53 PST 2018 ON: 19.99 +20.0 20.04 -16.0 26.6 17.2 30.0 8 9 Alarm State:  0
Mon Jan 15 02:21:51 PST 2018 ON: 20.00 +20.0 20.04 -15.9 26.9 17.0 30.1 8 10 Alarm State:  0
Mon Jan 15 02:20:50 PST 2018 ON: 20.00 +20.0 20.04 -15.7 27.2 16.8 30.2 8 10 Alarm State:  0
Mon Jan 15 02:19:48 PST 2018 ON: 19.99 +20.0 20.03 -15.7 27.2 16.8 30.2 7 11 Alarm State:  0
Mon Jan 15 02:18:47 PST 2018 ON: 19.98 +20.0 20.03 -15.9 26.9 17.0 30.2 8 10 Alarm State:  0
Mon Jan 15 02:17:45 PST 2018 ON: 19.99 +20.0 20.04 -15.9 26.8 17.1 30.1 8 9 Alarm State:  0
Mon Jan 15 02:16:44 PST 2018 ON: 20.00 +20.0 20.04 -15.7 27.2 16.8 30.3 8 10 Alarm State:  0
Mon Jan 15 02:15:42 PST 2018 ON: 19.99 +20.0 20.05 -15.9 26.9 17.0 30.2 8 10 Alarm State:  0
Mon Jan 15 02:14:41 PST 2018 ON: 20.00 +20.0 20.06 -16.0 26.6 17.2 30.2 8 9 Alarm State:  0
Mon Jan 15 02:13:39 PST 2018 ON: 19.99 +20.0 20.06 -16.3 26.2 17.5 30.0 8 9 Alarm State:  0
Mon Jan 15 02:12:38 PST 2018 ON: 19.99 +20.0 20.03 -15.6 27.3 16.8 30.3 8 10 Alarm State:  0
Mon Jan 15 02:11:36 PST 2018 ON: 20.00 +20.0 20.03 -15.7 27.1 16.9 30.4 7 10 Alarm State:  0
Mon Jan 15 02:10:35 PST 2018 ON: 20.00 +20.0 20.04 -15.9 26.8 17.1 30.3 8 10 Alarm State:  0
Mon Jan 15 02:09:23 PST 2018  Alarm State: 0
Mon Jan 15 02:09:23 PST 2018 Chiller did not report ON, got this reading: 
Mon Jan 15 02:08:22 PST 2018 ON: 20.00 +20.0 20.07 -15.9 26.9 17.0 30.5 8 8 Alarm State:  0
Mon Jan 15 02:07:20 PST 2018 ON: 19.99 +20.0 20.06 -16.0 26.7 17.1 30.4 8 9 Alarm State:  0
Mon Jan 15 02:06:19 PST 2018 ON: 20.00 +20.0 20.04 -15.9 26.9 17.0 30.6 8 10 Alarm State:  0
Mon Jan 15 02:05:17 PST 2018 ON: 20.00 +20.0 20.05 -16.0 26.7 17.1 30.5 8 10 Alarm State:  0
Mon Jan 15 02:04:16 PST 2018 ON: 19.99 +20.0 20.04 -15.9 26.9 17.0 30.6 7 10 Alarm State:  0
Mon Jan 15 02:03:14 PST 2018 ON: 20.00 +20.0 20.04 -15.9 26.9 17.0 30.5 8 9 Alarm State:  0
Mon Jan 15 02:02:13 PST 2018 ON: 20.00 +20.0 20.06 -15.9 26.9 17.0 30.5 8 9 Alarm State:  0
Mon Jan 15 02:01:11 PST 2018 ON: 19.99 +20.0 20.04 -15.6 27.3 16.8 30.6 8 10 Alarm State:  0
Mon Jan 15 02:00:10 PST 2018 ON: 20.00 +20.0 20.05 -15.9 26.9 17.0 30.4 8 9 Alarm State:  0
Mon Jan 15 01:59:08 PST 2018 ON: 20.00 +20.0 20.04 -16.1 26.5 17.3 30.4 8 9 Alarm State:  0
Mon Jan 15 01:58:07 PST 2018 ON: 20.00 +20.0 20.04 -15.9 26.9 17.0 30.5 8 10 Alarm State:  0
Mon Jan 15 01:57:05 PST 2018 ON: 19.99 +20.0 20.06 -15.9 26.8 17.1 30.4 8 9 Alarm State:  0
Mon Jan 15 01:56:04 PST 2018 ON: 19.99 +20.0 20.04 -15.8 27.0 16.9 30.5 8 10 Alarm State:  0
Mon Jan 15 01:55:02 PST 2018 ON: 20.00 +20.0 20.04 -15.8 27.0 16.9 30.5 8 9 Alarm State:  0
Mon Jan 15 01:54:01 PST 2018 ON: 20.00 +20.0 20.03 -16.0 26.6 17.2 30.4 8 10 Alarm State:  0
Mon Jan 15 01:52:59 PST 2018 ON: 20.00 +20.0 20.05 -16.2 26.4 17.3 30.3 8 9 Alarm State:  0
Mon Jan 15 01:51:58 PST 2018 ON: 19.99 +20.0 20.06 -15.9 26.8 17.1 30.5 8 9 Alarm State:  0
Mon Jan 15 01:50:57 PST 2018 ON: 19.99 +20.0 20.06 -16.0 26.7 17.1 30.4 8 9 Alarm State:  0
Mon Jan 15 01:49:55 PST 2018 ON: 20.00 +20.0 20.03 -15.7 27.1 16.9 30.5 8 10 Alarm State:  0
Mon Jan 15 01:48:54 PST 2018 ON: 19.99 +20.0 20.03 -15.9 26.8 17.1 30.5 8 10 Alarm State:  0
Mon Jan 15 01:47:52 PST 2018 ON: 19.99 +20.0 20.01 -15.7 27.1 16.9 30.5 7 10 Alarm State:  0
Mon Jan 15 01:46:51 PST 2018 ON: 20.00 +20.0 20.06 -15.9 26.8 17.1 30.4 8 8 Alarm State:  0
Mon Jan 15 01:45:49 PST 2018 ON: 20.00 +20.0 20.04 -15.7 27.2 16.8 30.5 7 10 Alarm State:  0
Mon Jan 15 01:44:48 PST 2018 ON: 19.99 +20.0 20.04 -15.9 26.9 17.0 30.5 8 10 Alarm State:  0
Mon Jan 15 01:43:46 PST 2018 ON: 20.00 +20.0 20.05 -15.9 26.9 17.0 30.5 8 9 Alarm State:  0
Mon Jan 15 01:42:45 PST 2018 ON: 20.00 +20.0 20.06 -16.0 26.6 17.2 30.4 7 9 Alarm State:  0
Mon Jan 15 01:41:43 PST 2018 ON: 19.99 +20.0 20.03 -16.0 26.6 17.2 30.4 8 10 Alarm State:  0
Mon Jan 15 01:40:42 PST 2018 ON: 20.00 +20.0 20.03 -15.7 27.1 16.9 30.5 8 10 Alarm State:  0
Mon Jan 15 01:39:40 PST 2018 ON: 20.00 +20.0 20.06 -15.9 26.8 17.1 30.4 7 9 Alarm State:  0
Mon Jan 15 01:38:39 PST 2018 ON: 19.99 +20.0 20.03 -15.9 26.8 17.1 30.4 8 10 Alarm State:  0
Mon Jan 15 01:37:37 PST 2018 ON: 20.00 +20.0 20.04 -16.0 26.7 17.1 30.3 8 9 Alarm State:  0
Mon Jan 15 01:36:36 PST 2018 ON: 20.00 +20.0 20.06 -16.0 26.7 17.1 30.4 8 9 Alarm State:  0
Mon Jan 15 01:35:34 PST 2018 ON: 19.99 +20.0 20.04 -15.8 27.0 16.9 30.5 8 10 Alarm State:  0
Mon Jan 15 01:34:33 PST 2018 ON: 19.99 +20.0 20.04 -15.9 26.8 17.1 30.4 7 9 Alarm State:  0
Mon Jan 15 01:33:31 PST 2018 ON: 20.00 +20.0 20.05 -16.0 26.7 17.1 30.4 8 9 Alarm State:  0
Mon Jan 15 01:32:30 PST 2018 ON: 19.99 +20.0 20.03 -15.8 27.0 16.9 30.5 8 11 Alarm State:  0
Mon Jan 15 01:31:28 PST 2018 ON: 19.99 +20.0 20.02 -15.9 26.8 17.1 30.4 7 10 Alarm State:  0
Mon Jan 15 01:30:27 PST 2018 ON: 20.00 +20.0 20.06 -16.2 26.4 17.3 30.4 8 8 Alarm State:  0
Mon Jan 15 01:29:25 PST 2018 ON: 19.99 +20.0 20.03 -15.9 26.8 17.1 30.4 8 10 Alarm State:  0
Mon Jan 15 01:28:24 PST 2018 ON: 19.99 +20.0 20.04 -16.1 26.5 17.3 30.4 8 9 Alarm State:  0
Mon Jan 15 01:27:22 PST 2018 ON: 20.00 +20.0 20.06 -16.2 26.4 17.3 30.3 8 8 Alarm State:  0
Mon Jan 15 01:26:21 PST 2018 ON: 20.00 +20.0 20.06 -16.1 26.5 17.3 30.4 8 9 Alarm State:  0
Mon Jan 15 01:25:19 PST 2018 ON: 19.99 +20.0 20.04 -16.0 26.7 17.1 30.4 8 10 Alarm State:  0
Mon Jan 15 01:24:18 PST 2018 ON: 19.99 +20.0 20.04 -15.9 26.9 17.0 30.5 8 9 Alarm State:  0
Mon Jan 15 01:23:16 PST 2018 ON: 20.00 +20.0 20.05 -15.9 26.8 17.1 30.5 7 9 Alarm State:  0
Mon Jan 15 01:22:15 PST 2018 ON: 19.99 +20.0 20.04 -16.0 26.7 17.1 30.6 8 10 Alarm State:  0
Mon Jan 15 01:21:13 PST 2018 ON: 19.99 +20.0 20.05 -16.1 26.5 17.3 30.5 8 9 Alarm State:  0
Mon Jan 15 01:20:12 PST 2018 ON: 19.99 +20.0 20.04 -15.9 26.8 17.1 30.5 8 9 Alarm State:  0
Mon Jan 15 01:19:10 PST 2018 ON: 20.00 +20.0 20.06 -16.0 26.7 17.1 30.6 8 9 Alarm State:  0
Mon Jan 15 01:18:09 PST 2018 ON: 19.99 +20.0 20.04 -16.0 26.7 17.1 30.4 8 10 Alarm State:  0
Mon Jan 15 01:17:07 PST 2018 ON: 19.99 +20.0 20.04 -15.9 26.8 17.1 30.6 8 9 Alarm State:  0
Mon Jan 15 01:16:06 PST 2018 ON: 20.00 +20.0 20.05 -16.2 26.3 17.4 30.4 8 9 Alarm State:  0
Mon Jan 15 01:15:04 PST 2018 ON: 20.00 +20.0 20.05 -15.9 26.9 17.0 30.6 7 10 Alarm State:  0
Mon Jan 15 01:14:03 PST 2018 ON: 19.99 +20.0 20.03 -15.7 27.2 16.8 30.6 7 10 Alarm State:  0
Mon Jan 15 01:13:01 PST 2018 ON: 20.00 +20.0 20.04 -16.0 26.6 17.2 30.5 8 9 Alarm State:  0
Mon Jan 15 01:12:00 PST 2018 ON: 20.00 +20.0 20.07 -16.1 26.5 17.3 30.4 8 9 Alarm State:  0
Mon Jan 15 01:10:58 PST 2018 ON: 19.99 +20.0 20.04 -15.9 26.8 17.1 30.5 8 10 Alarm State:  0
Mon Jan 15 01:09:57 PST 2018 ON: 19.99 +20.0 20.02 -15.5 27.5 16.6 30.7 7 10 Alarm State:  0
Mon Jan 15 01:08:55 PST 2018 ON: 20.00 +20.0 20.06 -16.3 26.2 17.5 30.3 8 9 Alarm State:  0
Mon Jan 15 01:07:54 PST 2018 ON: 19.99 +20.0 20.05 -16.0 26.6 17.2 30.5 8 10 Alarm State:  0
Mon Jan 15 01:06:52 PST 2018 ON: 19.99 +20.0 20.03 -15.8 27.0 16.9 30.6 7 10 Alarm State:  0
Mon Jan 15 01:05:51 PST 2018 ON: 20.00 +20.0 20.05 -15.9 26.8 17.1 30.5 8 9 Alarm State:  0
Mon Jan 15 01:04:50 PST 2018 ON: 19.99 +20.0 20.06 -16.0 26.7 17.1 30.4 8 9 Alarm State:  0
Mon Jan 15 01:03:48 PST 2018 ON: 19.99 +20.0 20.06 -16.0 26.6 17.2 30.5 8 9 Alarm State:  0
Mon Jan 15 01:02:47 PST 2018 ON: 20.00 +20.0 20.06 -15.9 26.8 17.1 30.4 8 9 Alarm State:  0
Mon Jan 15 01:01:45 PST 2018 ON: 20.00 +20.0 20.06 -15.8 27.0 16.9 30.5 8 9 Alarm State:  0
Mon Jan 15 01:00:44 PST 2018 ON: 19.98 +20.0 20.02 -15.9 26.9 17.0 30.5 8 11 Alarm State:  0
Mon Jan 15 00:59:42 PST 2018 ON: 19.99 +20.0 20.05 -16.2 26.4 17.3 30.3 8 8 Alarm State:  0
Mon Jan 15 00:58:41 PST 2018 ON: 20.00 +20.0 20.04 -16.0 26.6 17.2 30.3 7 9 Alarm State:  0
Mon Jan 15 00:57:39 PST 2018 ON: 20.00 +20.0 20.05 -15.8 27.0 16.9 30.5 8 9 Alarm State:  0
Mon Jan 15 00:56:38 PST 2018 ON: 19.99 +20.0 20.05 -15.9 26.8 17.1 30.4 8 10 Alarm State:  0
Mon Jan 15 00:55:36 PST 2018 ON: 19.99 +20.0 20.04 -15.9 26.9 17.0 30.5 8 9 Alarm State:  0
Mon Jan 15 00:54:35 PST 2018 ON: 20.00 +20.0 20.06 -16.0 26.6 17.2 30.4 8 9 Alarm State:  0
Mon Jan 15 00:53:33 PST 2018 ON: 20.00 +20.0 20.05 -15.9 26.9 17.0 30.5 8 10 Alarm State:  0
Mon Jan 15 00:52:32 PST 2018 ON: 19.99 +20.0 20.04 -15.8 27.0 16.9 30.5 8 10 Alarm State:  0
Mon Jan 15 00:51:30 PST 2018 ON: 20.00 +20.0 20.04 -15.9 26.9 17.0 30.5 8 9 Alarm State:  0
Mon Jan 15 00:50:29 PST 2018 ON: 20.00 +20.0 20.05 -16.1 26.5 17.3 30.4 8 9 Alarm State:  0
Mon Jan 15 00:49:27 PST 2018 ON: 19.99 +20.0 20.04 -15.9 26.9 17.0 30.4 8 10 Alarm State:  0
Mon Jan 15 00:48:26 PST 2018 ON: 19.99 +20.0 20.04 -15.7 27.1 16.9 30.5 8 10 Alarm State:  0
Mon Jan 15 00:47:24 PST 2018 ON: 20.00 +20.0 20.05 -16.0 26.6 17.2 30.4 7 9 Alarm State:  0
Mon Jan 15 00:46:23 PST 2018 ON: 19.99 +20.0 20.04 -16.1 26.5 17.3 30.4 8 10 Alarm State:  0
Mon Jan 15 00:45:21 PST 2018 ON: 19.99 +20.0 20.04 -16.0 26.6 17.2 30.4 8 9 Alarm State:  0
Mon Jan 15 00:44:20 PST 2018 ON: 20.00 +20.0 20.05 -16.0 26.6 17.2 30.4 8 9 Alarm State:  0
Mon Jan 15 00:43:18 PST 2018 ON: 19.99 +20.0 20.05 -15.9 26.8 17.1 30.4 8 10 Alarm State:  0
Mon Jan 15 00:42:17 PST 2018 ON: 19.99 +20.0 20.03 -15.8 27.0 16.9 30.5 8 10 Alarm State:  0
Mon Jan 15 00:41:15 PST 2018 ON: 19.99 +20.0 20.04 -16.0 26.6 17.2 30.3 8 10 Alarm State:  0
Mon Jan 15 00:40:14 PST 2018 ON: 19.99 +20.0 20.04 -15.8 27.0 16.9 30.4 8 9 Alarm State:  0
Mon Jan 15 00:39:12 PST 2018 ON: 20.00 +20.0 20.05 -16.0 26.7 17.1 30.3 8 9 Alarm State:  0
Mon Jan 15 00:38:11 PST 2018 ON: 19.99 +20.0 20.05 -15.8 27.0 16.9 30.4 8 10 Alarm State:  0
Mon Jan 15 00:37:09 PST 2018 ON: 20.00 +20.0 20.05 -16.0 26.7 17.1 30.3 8 9 Alarm State:  0
Mon Jan 15 00:36:08 PST 2018 ON: 19.99 +20.0 20.05 -16.0 26.7 17.1 30.2 7 10 Alarm State:  0
Mon Jan 15 00:35:06 PST 2018 ON: 19.98 +20.0 20.04 -15.7 27.1 16.9 30.4 8 10 Alarm State:  0
Mon Jan 15 00:34:05 PST 2018 ON: 19.99 +20.0 20.03 -15.8 27.0 16.9 30.3 8 9 Alarm State:  0
Mon Jan 15 00:33:03 PST 2018 ON: 19.99 +20.0 20.04 -16.1 26.5 17.3 30.2 8 10 Alarm State:  0
Mon Jan 15 00:32:02 PST 2018 ON: 20.00 +20.0 20.05 -15.9 26.9 17.0 30.3 8 10 Alarm State:  0
Mon Jan 15 00:31:00 PST 2018 ON: 19.99 +20.0 20.05 -16.0 26.6 17.2 30.1 8 9 Alarm State:  0
Mon Jan 15 00:29:59 PST 2018 ON: 19.99 +20.0 20.05 -16.1 26.5 17.3 30.2 8 9 Alarm State:  0
Mon Jan 15 00:28:57 PST 2018 ON: 20.00 +20.0 20.04 -15.8 27.0 16.9 30.3 8 10 Alarm State:  0
Mon Jan 15 00:27:56 PST 2018 ON: 19.99 +20.0 20.04 -16.0 26.7 17.1 30.1 8 10 Alarm State:  0
Mon Jan 15 00:26:54 PST 2018 ON: 19.99 +20.0 20.05 -15.7 27.1 16.9 30.2 8 9 Alarm State:  0
Mon Jan 15 00:25:53 PST 2018 ON: 20.00 +20.0 20.04 -16.0 26.6 17.2 30.2 8 9 Alarm State:  0
Mon Jan 15 00:24:51 PST 2018 ON: 19.99 +20.0 20.06 -16.4 26.0 17.6 29.8 8 9 Alarm State:  0
Mon Jan 15 00:23:50 PST 2018 ON: 20.00 +20.0 20.04 -15.7 27.1 16.9 30.2 8 9 Alarm State:  0
Mon Jan 15 00:22:48 PST 2018 ON: 20.00 +20.0 20.06 -15.9 26.8 17.1 30.2 7 9 Alarm State:  0
Mon Jan 15 00:21:47 PST 2018 ON: 19.99 +20.0 20.04 -16.0 26.7 17.1 30.3 8 10 Alarm State:  0
Mon Jan 15 00:20:45 PST 2018 ON: 19.99 +20.0 20.04 -16.1 26.5 17.3 30.2 8 9 Alarm State:  0
Mon Jan 15 00:19:44 PST 2018 ON: 20.00 +20.0 20.05 -16.3 26.2 17.5 30.1 8 9 Alarm State:  0
Mon Jan 15 00:18:42 PST 2018 ON: 20.00 +20.0 20.05 -16.0 26.7 17.1 30.3 8 9 Alarm State:  0
Mon Jan 15 00:17:41 PST 2018 ON: 19.99 +20.0 20.04 -16.1 26.5 17.3 30.3 8 10 Alarm State:  0
Mon Jan 15 00:16:39 PST 2018 ON: 20.00 +20.0 20.06 -15.8 27.0 16.9 30.4 8 9 Alarm State:  0
Mon Jan 15 00:15:38 PST 2018 ON: 20.00 +20.0 20.05 -16.0 26.7 17.1 30.3 8 9 Alarm State:  0
Mon Jan 15 00:14:36 PST 2018 ON: 20.00 +20.0 20.04 -15.9 26.8 17.1 30.5 7 10 Alarm State:  0
Mon Jan 15 00:13:35 PST 2018 ON: 20.00 +20.0 20.03 -15.9 26.8 17.1 30.5 8 10 Alarm State:  0
Mon Jan 15 00:12:33 PST 2018 ON: 20.00 +20.0 20.05 -15.9 26.8 17.1 30.6 8 9 Alarm State:  0
Mon Jan 15 00:11:32 PST 2018 ON: 19.99 +20.0 20.05 -16.1 26.5 17.3 30.5 8 10 Alarm State:  0
Mon Jan 15 00:10:30 PST 2018 ON: 19.99 +20.0 20.04 -15.8 27.0 16.9 30.7 8 9 Alarm State:  0
Mon Jan 15 00:09:29 PST 2018 ON: 20.00 +20.0 20.04 -15.9 26.9 17.0 30.6 8 10 Alarm State:  0
Mon Jan 15 00:08:27 PST 2018 ON: 19.99 +20.0 20.05 -15.9 26.8 17.1 30.6 8 10 Alarm State:  0
Mon Jan 15 00:07:26 PST 2018 ON: 19.99 +20.0 20.04 -15.9 26.9 17.0 30.6 8 10 Alarm State:  0
Mon Jan 15 00:06:24 PST 2018 ON: 20.00 +20.0 20.05 -15.9 26.9 17.0 30.6 7 9 Alarm State:  0
Mon Jan 15 00:05:23 PST 2018 ON: 20.00 +20.0 20.07 -16.2 26.3 17.4 30.4 8 9 Alarm State:  0
Mon Jan 15 00:04:21 PST 2018 ON: 19.99 +20.0 20.05 -15.8 27.0 16.9 30.6 8 10 Alarm State:  0
Mon Jan 15 00:03:20 PST 2018 ON: 19.99 +20.0 20.03 -15.7 27.1 16.9 30.6 7 10 Alarm State:  0
Mon Jan 15 00:02:18 PST 2018 ON: 20.00 +20.0 20.04 -15.8 27.0 16.9 30.7 8 9 Alarm State:  0
Mon Jan 15 00:01:17 PST 2018 ON: 20.01 +20.0 20.05 -16.0 26.7 17.1 30.6 8 10 Alarm State:  0
Mon Jan 15 00:00:15 PST 2018 ON: 19.99 +20.0 20.05 -16.0 26.7 17.1 30.5 8 10 Alarm State:  0
Sun Jan 14 23:59:14 PST 2018 ON: 19.99 +20.0 20.04 -15.7 27.1 16.9 30.7 8 9 Alarm State:  0
Sun Jan 14 23:58:12 PST 2018 ON: 20.00 +20.0 20.05 -15.7 27.1 16.9 30.6 8 9 Alarm State:  0
Sun Jan 14 23:57:11 PST 2018 ON: 19.99 +20.0 20.05 -15.9 26.8 17.1 30.5 8 10 Alarm State:  0
Sun Jan 14 23:56:09 PST 2018 ON: 19.98 +20.0 20.04 -15.9 26.8 17.1 30.5 8 10 Alarm State:  0
Sun Jan 14 23:55:08 PST 2018 ON: 20.00 +20.0 20.04 -15.7 27.2 16.8 30.6 7 9 Alarm State:  0
Sun Jan 14 23:54:06 PST 2018 ON: 20.00 +20.0 20.04 -15.7 27.2 16.8 30.7 8 10 Alarm State:  0
Sun Jan 14 23:53:05 PST 2018 ON: 19.99 +20.0 20.05 -15.7 27.1 16.9 30.6 7 10 Alarm State:  0
Sun Jan 14 23:52:03 PST 2018 ON: 19.99 +20.0 20.05 -15.9 26.9 17.0 30.6 8 9 Alarm State:  0
Sun Jan 14 23:51:02 PST 2018 ON: 20.00 +20.0 20.04 -16.0 26.7 17.1 30.5 8 10 Alarm State:  0
Sun Jan 14 23:50:00 PST 2018 ON: 19.99 +20.0 20.05 -16.0 26.7 17.1 30.6 7 9 Alarm State:  0
Sun Jan 14 23:48:59 PST 2018 ON: 20.00 +20.0 20.05 -16.0 26.7 17.1 30.5 8 9 Alarm State:  0
Sun Jan 14 23:47:58 PST 2018 ON: 20.00 +20.0 20.06 -16.0 26.6 17.2 30.5 8 9 Alarm State:  0
Sun Jan 14 23:46:56 PST 2018 ON: 19.99 +20.0 20.05 -15.9 26.8 17.1 30.6 7 10 Alarm State:  0
Sun Jan 14 23:45:55 PST 2018 ON: 19.99 +20.0 20.05 -15.9 26.8 17.1 30.6 8 9 Alarm State:  0
Sun Jan 14 23:44:53 PST 2018 ON: 19.99 +20.0 20.04 -15.9 26.8 17.1 30.5 8 10 Alarm State:  0
Sun Jan 14 23:43:52 PST 2018 ON: 20.00 +20.0 20.05 -15.8 27.0 16.9 30.6 8 9 Alarm State:  0
Sun Jan 14 23:42:50 PST 2018 ON: 20.00 +20.0 20.04 -15.7 27.2 16.8 30.7 8 10 Alarm State:  0
Sun Jan 14 23:41:49 PST 2018 ON: 19.99 +20.0 20.04 -15.8 27.0 16.9 30.6 7 10 Alarm State:  0
Sun Jan 14 23:40:47 PST 2018 ON: 20.00 +20.0 20.05 -15.7 27.1 16.9 30.6 8 9 Alarm State:  0
Sun Jan 14 23:39:46 PST 2018 ON: 20.00 +20.0 20.05 -16.0 26.7 17.1 30.5 8 9 Alarm State:  0
Sun Jan 14 23:38:44 PST 2018 ON: 20.00 +20.0 20.04 -15.8 27.0 16.9 30.5 7 10 Alarm State:  0
Sun Jan 14 23:37:43 PST 2018 ON: 19.99 +20.0 20.05 -15.9 26.8 17.1 30.5 8 10 Alarm State:  0
Sun Jan 14 23:36:41 PST 2018 ON: 19.99 +20.0 20.05 -15.7 27.1 16.9 30.6 8 10 Alarm State:  0
Sun Jan 14 23:35:39 PST 2018 ON: 20.00 +20.0 20.05 -16.1 26.5 17.3 30.4 8 10 Alarm State:  0
Sun Jan 14 23:34:38 PST 2018 ON: 19.99 +20.0 20.04 -15.7 27.1 16.9 30.6 8 9 Alarm State:  0
Sun Jan 14 23:33:36 PST 2018 ON: 20.00 +20.0 20.05 -16.1 26.5 17.3 30.4 8 9 Alarm State:  0
Sun Jan 14 23:32:35 PST 2018 ON: 19.99 +20.0 20.04 -15.8 27.0 16.9 30.6 8 10 Alarm State:  0
Sun Jan 14 23:31:33 PST 2018 ON: 19.99 +20.0 20.06 -15.7 27.1 16.9 30.6 8 9 Alarm State:  0
Sun Jan 14 23:30:32 PST 2018 ON: 19.99 +20.0 20.05 -15.9 26.9 17.0 30.5 7 9 Alarm State:  0
Sun Jan 14 23:29:30 PST 2018 ON: 20.00 +20.0 20.05 -15.9 26.8 17.1 30.5 8 9 Alarm State:  0
Sun Jan 14 23:28:29 PST 2018 ON: 20.00 +20.0 20.06 -15.8 27.0 16.9 30.4 8 9 Alarm State:  0
Sun Jan 14 23:27:27 PST 2018 ON: 20.00 +20.0 20.05 -15.7 27.1 16.9 30.5 8 10 Alarm State:  0
Sun Jan 14 23:26:26 PST 2018 ON: 20.00 +20.0 20.04 -15.9 26.9 17.0 30.5 8 9 Alarm State:  0
Sun Jan 14 23:25:25 PST 2018 ON: 20.00 +20.0 20.04 -15.9 26.9 17.0 30.5 7 10 Alarm State:  0
Sun Jan 14 23:24:23 PST 2018 ON: 20.00 +20.0 20.05 -16.0 26.7 17.1 30.5 8 9 Alarm State:  0
Sun Jan 14 23:23:22 PST 2018 ON: 20.00 +20.0 20.04 -16.0 26.7 17.1 30.4 8 10 Alarm State:  0
Sun Jan 14 23:22:20 PST 2018 ON: 20.00 +20.0 20.06 -16.0 26.6 17.2 30.4 8 9 Alarm State:  0
Sun Jan 14 23:21:18 PST 2018 ON: 19.99 +20.0 20.05 -15.9 26.8 17.1 30.5 8 10 Alarm State:  0
Sun Jan 14 23:20:17 PST 2018 ON: 20.00 +20.0 20.03 -15.6 27.3 16.8 30.5 7 10 Alarm State:  0
Sun Jan 14 23:19:15 PST 2018 ON: 20.00 +20.0 20.05 -16.2 26.4 17.3 30.3 8 10 Alarm State:  0
Sun Jan 14 23:18:14 PST 2018 ON: 19.99 +20.0 20.04 -15.9 26.8 17.1 30.4 8 10 Alarm State:  0
Sun Jan 14 23:17:13 PST 2018 ON: 20.00 +20.0 20.05 -15.9 26.9 17.0 30.4 7 9 Alarm State:  0
Sun Jan 14 23:16:11 PST 2018 ON: 20.00 +20.0 20.04 -16.0 26.7 17.1 30.3 8 10 Alarm State:  0
Sun Jan 14 23:15:10 PST 2018 ON: 20.00 +20.0 20.07 -16.0 26.7 17.1 30.3 8 9 Alarm State:  0
Sun Jan 14 23:14:08 PST 2018 ON: 19.99 +20.0 20.03 -15.7 27.2 16.8 30.4 7 10 Alarm State:  0
Sun Jan 14 23:13:07 PST 2018 ON: 20.00 +20.0 20.06 -16.0 26.6 17.2 30.3 8 9 Alarm State:  0
Sun Jan 14 23:12:05 PST 2018 ON: 20.00 +20.0 20.06 -16.0 26.7 17.1 30.3 8 9 Alarm State:  0
Sun Jan 14 23:11:04 PST 2018 ON: 19.99 +20.0 20.05 -15.9 26.9 17.0 30.4 8 9 Alarm State:  0
Sun Jan 14 23:10:02 PST 2018 ON: 20.00 +20.0 20.05 -16.1 26.5 17.3 30.3 8 9 Alarm State:  0
Sun Jan 14 23:09:01 PST 2018 ON: 20.00 +20.0 20.05 -15.7 27.1 16.9 30.5 8 10 Alarm State:  0
Sun Jan 14 23:07:59 PST 2018 ON: 19.99 +20.0 20.04 -15.9 26.8 17.1 30.4 8 11 Alarm State:  0
Sun Jan 14 23:06:58 PST 2018 ON: 19.99 +20.0 20.05 -15.9 26.9 17.0 30.3 8 9 Alarm State:  0
Sun Jan 14 23:05:56 PST 2018 ON: 20.00 +20.0 20.05 -16.2 26.4 17.3 30.2 8 9 Alarm State:  0
Sun Jan 14 23:04:55 PST 2018 ON: 20.00 +20.0 20.05 -16.0 26.6 17.2 30.3 8 9 Alarm State:  0
Sun Jan 14 23:03:53 PST 2018 ON: 19.99 +20.0 20.04 -16.0 26.7 17.1 30.2 8 10 Alarm State:  0
Sun Jan 14 23:02:52 PST 2018 ON: 20.00 +20.0 20.03 -15.8 27.0 16.9 30.3 7 10 Alarm State:  0
Sun Jan 14 23:01:50 PST 2018 ON: 20.00 +20.0 20.05 -16.0 26.6 17.2 30.3 8 10 Alarm State:  0
Sun Jan 14 23:00:49 PST 2018 ON: 19.99 +20.0 20.06 -16.0 26.6 17.2 30.3 8 9 Alarm State:  0
Sun Jan 14 22:59:47 PST 2018 ON: 19.99 +20.0 20.04 -15.9 26.8 17.1 30.3 8 9 Alarm State:  0
Sun Jan 14 22:58:46 PST 2018 ON: 20.00 +20.0 20.05 -16.0 26.7 17.1 30.2 8 9 Alarm State:  0
Sun Jan 14 22:57:44 PST 2018 ON: 19.99 +20.0 20.05 -15.9 26.8 17.1 30.3 8 10 Alarm State:  0
Sun Jan 14 22:56:43 PST 2018 ON: 19.99 +20.0 20.04 -15.9 26.8 17.1 30.3 8 10 Alarm State:  0
Sun Jan 14 22:55:41 PST 2018 ON: 19.99 +20.0 20.03 -16.1 26.5 17.3 30.2 8 10 Alarm State:  0
Sun Jan 14 22:54:40 PST 2018 ON: 20.00 +20.0 20.04 -15.9 26.8 17.1 30.2 8 10 Alarm State:  0
Sun Jan 14 22:53:38 PST 2018 ON: 19.99 +20.0 20.07 -16.0 26.6 17.2 30.2 8 9 Alarm State:  0
Sun Jan 14 22:52:37 PST 2018 ON: 19.99 +20.0 20.03 -16.0 26.6 17.2 30.2 8 10 Alarm State:  0
Sun Jan 14 22:51:35 PST 2018 ON: 20.00 +20.0 20.04 -16.0 26.6 17.2 30.1 8 10 Alarm State:  0
Sun Jan 14 22:50:34 PST 2018 ON: 19.99 +20.0 20.05 -16.0 26.6 17.2 30.1 8 10 Alarm State:  0
Sun Jan 14 22:49:32 PST 2018 ON: 20.00 +20.0 20.05 -15.9 26.8 17.1 30.2 7 9 Alarm State:  0
Sun Jan 14 22:48:31 PST 2018 ON: 20.00 +20.0 20.05 -16.0 26.7 17.1 30.1 8 10 Alarm State:  0
Sun Jan 14 22:47:29 PST 2018 ON: 19.99 +20.0 20.04 -15.7 27.1 16.9 30.1 8 10 Alarm State:  0
Sun Jan 14 22:46:28 PST 2018 ON: 19.99 +20.0 20.04 -15.8 27.0 16.9 30.1 7 10 Alarm State:  0
Sun Jan 14 22:45:26 PST 2018 ON: 20.00 +20.0 20.05 -16.0 26.6 17.2 30.0 8 9 Alarm State:  0
Sun Jan 14 22:44:25 PST 2018 ON: 20.00 +20.0 20.05 -16.0 26.7 17.1 30.0 8 10 Alarm State:  0
Sun Jan 14 22:43:23 PST 2018 ON: 19.99 +20.0 20.05 -15.8 27.0 16.9 30.1 8 10 Alarm State:  0
Sun Jan 14 22:42:22 PST 2018 ON: 19.99 +20.0 20.05 -16.1 26.5 17.3 30.1 8 9 Alarm State:  0
Sun Jan 14 22:41:20 PST 2018 ON: 20.00 +20.0 20.05 -16.4 26.1 17.5 29.9 8 9 Alarm State:  0
Sun Jan 14 22:40:19 PST 2018 ON: 20.00 +20.0 20.05 -16.0 26.6 17.2 30.0 8 10 Alarm State:  0
Sun Jan 14 22:39:17 PST 2018 ON: 19.99 +20.0 20.02 -15.7 27.2 16.8 30.1 7 11 Alarm State:  0
Sun Jan 14 22:38:16 PST 2018 ON: 20.00 +20.0 20.04 -16.0 26.6 17.2 29.9 8 10 Alarm State:  0
Sun Jan 14 22:37:14 PST 2018 ON: 19.99 +20.0 20.05 -16.1 26.5 17.3 29.9 8 10 Alarm State:  0
Sun Jan 14 22:36:13 PST 2018 ON: 19.99 +20.0 20.03 -16.0 26.6 17.2 29.9 8 10 Alarm State:  0
Sun Jan 14 22:35:11 PST 2018 ON: 20.00 +20.0 20.07 -16.1 26.5 17.3 29.8 8 8 Alarm State:  0
Sun Jan 14 22:34:10 PST 2018 ON: 19.99 +20.0 20.05 -16.1 26.5 17.3 29.8 8 10 Alarm State:  0
Sun Jan 14 22:33:08 PST 2018 ON: 19.99 +20.0 20.04 -15.8 27.0 16.9 30.0 8 10 Alarm State:  0
Sun Jan 14 22:32:07 PST 2018 ON: 20.00 +20.0 20.05 -16.0 26.6 17.2 29.9 8 9 Alarm State:  0
Sun Jan 14 22:31:05 PST 2018 ON: 20.00 +20.0 20.05 -16.2 26.3 17.4 29.6 8 10 Alarm State:  0
Sun Jan 14 22:30:04 PST 2018 ON: 19.99 +20.0 20.03 -16.0 26.6 17.2 29.8 7 10 Alarm State:  0
Sun Jan 14 22:29:02 PST 2018 ON: 20.00 +20.0 20.05 -16.0 26.6 17.2 29.6 8 9 Alarm State:  0
Sun Jan 14 22:28:01 PST 2018 ON: 20.00 +20.0 20.06 -16.0 26.6 17.2 29.7 8 9 Alarm State:  0
Sun Jan 14 22:26:59 PST 2018 ON: 19.99 +20.0 20.05 -16.2 26.4 17.3 29.5 8 9 Alarm State:  0
Sun Jan 14 22:25:58 PST 2018 ON: 20.00 +20.0 20.04 -16.1 26.5 17.3 29.3 8 9 Alarm State:  0
Sun Jan 14 22:24:56 PST 2018 ON: 20.00 +20.0 20.05 -15.9 26.8 17.1 29.5 8 10 Alarm State:  0
Sun Jan 14 22:23:55 PST 2018 ON: 19.99 +20.0 20.06 -16.2 26.3 17.4 29.4 8 9 Alarm State:  0
Sun Jan 14 22:22:53 PST 2018 ON: 19.98 +20.0 20.03 -15.9 26.9 17.0 29.6 8 10 Alarm State:  0
Sun Jan 14 22:21:52 PST 2018 ON: 20.00 +20.0 20.04 -16.4 26.0 17.6 29.2 8 9 Alarm State:  0
Sun Jan 14 22:20:50 PST 2018 ON: 20.00 +20.0 20.04 -16.0 26.7 17.1 29.7 8 10 Alarm State:  0
Sun Jan 14 22:19:49 PST 2018 ON: 19.99 +20.0 20.02 -15.6 27.3 16.8 30.0 8 11 Alarm State:  0
Sun Jan 14 22:18:47 PST 2018 ON: 20.00 +20.0 20.05 -16.2 26.3 17.4 29.7 8 9 Alarm State:  0
Sun Jan 14 22:17:46 PST 2018 ON: 20.00 +20.0 20.05 -15.9 26.9 17.0 30.0 8 10 Alarm State:  0
Sun Jan 14 22:16:44 PST 2018 ON: 19.99 +20.0 20.05 -16.0 26.7 17.1 30.1 7 10 Alarm State:  0
Sun Jan 14 22:15:43 PST 2018 ON: 19.99 +20.0 20.03 -16.0 26.6 17.2 30.0 8 10 Alarm State:  0
Sun Jan 14 22:14:41 PST 2018 ON: 20.00 +20.0 20.04 -16.0 26.7 17.1 30.1 8 9 Alarm State:  0
Sun Jan 14 22:13:40 PST 2018 ON: 19.99 +20.0 20.06 -16.1 26.5 17.3 30.2 8 9 Alarm State:  0
Sun Jan 14 22:12:38 PST 2018 ON: 19.99 +20.0 20.05 -16.0 26.6 17.2 30.3 8 9 Alarm State:  0
Sun Jan 14 22:11:37 PST 2018 ON: 20.00 +20.0 20.03 -15.9 26.8 17.1 30.5 8 10 Alarm State:  0
Sun Jan 14 22:10:35 PST 2018 ON: 20.00 +20.0 20.05 -16.0 26.7 17.1 30.6 8 9 Alarm State:  0
Sun Jan 14 22:09:34 PST 2018 ON: 20.00 +20.0 20.05 -15.8 27.0 16.9 30.9 8 9 Alarm State:  0
Sun Jan 14 22:08:32 PST 2018 ON: 20.00 +20.0 20.05 -15.7 27.1 16.9 31.1 7 9 Alarm State:  0
Sun Jan 14 22:07:31 PST 2018 ON: 19.99 +20.0 20.05 -15.7 27.1 16.9 31.2 8 10 Alarm State:  0
Sun Jan 14 22:06:29 PST 2018 ON: 19.99 +20.0 20.05 -15.6 27.3 16.8 31.2 8 9 Alarm State:  0
Sun Jan 14 22:05:28 PST 2018 ON: 20.00 +20.0 20.06 -15.7 27.1 16.9 31.2 7 9 Alarm State:  0
Sun Jan 14 22:04:26 PST 2018 ON: 19.99 +20.0 20.04 -15.7 27.2 16.8 31.2 8 10 Alarm State:  0
Sun Jan 14 22:03:25 PST 2018 ON: 20.00 +20.0 20.05 -15.6 27.3 16.8 31.2 7 10 Alarm State:  0
Sun Jan 14 22:02:23 PST 2018 ON: 19.99 +20.0 20.05 -15.7 27.2 16.8 31.2 8 9 Alarm State:  0
Sun Jan 14 22:01:22 PST 2018 ON: 20.00 +20.0 20.04 -15.7 27.1 16.9 31.2 8 9 Alarm State:  0
Sun Jan 14 22:00:20 PST 2018 ON: 20.00 +20.0 20.05 -15.8 27.0 16.9 31.1 7 10 Alarm State:  0
Sun Jan 14 21:59:19 PST 2018 ON: 20.00 +20.0 20.04 -15.4 27.6 16.5 31.3 7 10 Alarm State:  0
Sun Jan 14 21:58:17 PST 2018 ON: 20.00 +20.0 20.05 -15.7 27.2 16.8 31.2 8 10 Alarm State:  0
Sun Jan 14 21:57:16 PST 2018 ON: 19.99 +20.0 20.04 -15.3 27.7 16.5 31.4 7 10 Alarm State:  0
Sun Jan 14 21:56:14 PST 2018 ON: 20.00 +20.0 20.04 -15.7 27.1 16.9 31.2 8 10 Alarm State:  0
Sun Jan 14 21:55:13 PST 2018 ON: 20.01 +20.0 20.06 -15.9 26.9 17.0 31.1 8 9 Alarm State:  0
Sun Jan 14 21:54:11 PST 2018 ON: 19.99 +20.0 20.06 -15.6 27.3 16.8 31.3 8 10 Alarm State:  0
Sun Jan 14 21:53:10 PST 2018 ON: 19.99 +20.0 20.04 -15.4 27.6 16.5 31.3 8 10 Alarm State:  0
Sun Jan 14 21:52:08 PST 2018 ON: 20.00 +20.0 20.04 -15.7 27.1 16.9 31.2 7 10 Alarm State:  0
Sun Jan 14 21:51:07 PST 2018 ON: 20.00 +20.0 20.04 -15.7 27.2 16.8 31.3 8 10 Alarm State:  0
Sun Jan 14 21:50:05 PST 2018 ON: 20.00 +20.0 20.04 -15.7 27.1 16.9 31.2 8 10 Alarm State:  0
Sun Jan 14 21:49:04 PST 2018 ON: 20.00 +20.0 20.05 -15.7 27.1 16.9 31.2 7 10 Alarm State:  0
Sun Jan 14 21:48:02 PST 2018 ON: 19.99 +20.0 20.04 -15.7 27.2 16.8 31.3 8 10 Alarm State:  0
Sun Jan 14 21:47:01 PST 2018 ON: 20.00 +20.0 20.06 -15.8 27.0 16.9 31.2 8 9 Alarm State:  0
Sun Jan 14 21:45:59 PST 2018 ON: 19.99 +20.0 20.05 -15.8 27.0 16.9 31.2 8 10 Alarm State:  0
Sun Jan 14 21:44:58 PST 2018 ON: 19.99 +20.0 20.04 -15.5 27.4 16.7 31.3 8 10 Alarm State:  0
Sun Jan 14 21:43:56 PST 2018 ON: 20.01 +20.0 20.06 -15.9 26.8 17.1 31.1 7 9 Alarm State:  0
Sun Jan 14 21:42:55 PST 2018 ON: 20.00 +20.0 20.05 -15.4 27.6 16.5 31.3 8 10 Alarm State:  0
Sun Jan 14 21:41:53 PST 2018 ON: 19.99 +20.0 20.05 -15.3 27.7 16.5 31.4 7 10 Alarm State:  0
Sun Jan 14 21:40:52 PST 2018 ON: 19.99 +20.0 20.04 -15.7 27.2 16.8 31.2 7 10 Alarm State:  0
Sun Jan 14 21:39:50 PST 2018 ON: 19.99 +20.0 20.03 -15.8 27.0 16.9 31.1 8 10 Alarm State:  0
Sun Jan 14 21:38:49 PST 2018 ON: 20.01 +20.0 20.05 -15.9 26.8 17.1 31.1 8 9 Alarm State:  0
Sun Jan 14 21:37:47 PST 2018 ON: 19.99 +20.0 20.07 -16.2 26.3 17.4 30.2 8 9 Alarm State:  0
Sun Jan 14 21:36:46 PST 2018 ON: 19.99 +20.0 20.05 -15.5 27.4 16.7 31.4 8 9 Alarm State:  0
Sun Jan 14 21:35:44 PST 2018 ON: 20.00 +20.0 20.04 -15.8 27.0 16.9 31.2 7 9 Alarm State:  0
Sun Jan 14 21:34:43 PST 2018 ON: 20.00 +20.0 20.06 -15.7 27.2 16.8 31.3 8 9 Alarm State:  0
Sun Jan 14 21:33:41 PST 2018 ON: 19.99 +20.0 20.05 -15.6 27.3 16.8 31.4 8 10 Alarm State:  0
Sun Jan 14 21:32:40 PST 2018 ON: 19.99 +20.0 20.04 -15.8 27.0 16.9 31.3 7 10 Alarm State:  0
Sun Jan 14 21:31:38 PST 2018 ON: 19.99 +20.0 20.04 -15.7 27.1 16.9 31.2 8 10 Alarm State:  0
Sun Jan 14 21:30:37 PST 2018 ON: 19.99 +20.0 20.04 -15.7 27.2 16.8 31.2 8 10 Alarm State:  0
Sun Jan 14 21:29:35 PST 2018 ON: 20.00 +20.0 20.05 -15.6 27.3 16.8 31.3 7 10 Alarm State:  0
Sun Jan 14 21:28:34 PST 2018 ON: 19.99 +20.0 20.05 -15.5 27.4 16.7 31.3 8 10 Alarm State:  0
Sun Jan 14 21:27:32 PST 2018 ON: 19.99 +20.0 20.05 -15.8 27.0 16.9 31.2 8 9 Alarm State:  0
Sun Jan 14 21:26:31 PST 2018 ON: 20.00 +20.0 20.04 -15.4 27.6 16.5 31.3 8 10 Alarm State:  0
Sun Jan 14 21:25:30 PST 2018 ON: 20.00 +20.0 20.05 -15.7 27.2 16.8 31.2 8 10 Alarm State:  0
Sun Jan 14 21:24:28 PST 2018 ON: 20.00 +20.0 20.06 -15.5 27.5 16.6 31.4 7 9 Alarm State:  0
Sun Jan 14 21:23:27 PST 2018 ON: 19.99 +20.0 20.03 -15.7 27.1 16.9 31.2 8 10 Alarm State:  0
Sun Jan 14 21:22:25 PST 2018 ON: 20.00 +20.0 20.05 -15.8 27.0 16.9 31.2 8 9 Alarm State:  0
Sun Jan 14 21:21:24 PST 2018 ON: 20.01 +20.0 20.07 -15.7 27.2 16.8 31.3 7 9 Alarm State:  0
Sun Jan 14 21:20:22 PST 2018 ON: 20.00 +20.0 20.07 -15.9 26.9 17.0 31.2 8 9 Alarm State:  0
Sun Jan 14 21:19:21 PST 2018 ON: 19.99 +20.0 20.04 -15.4 27.6 16.5 31.4 7 10 Alarm State:  0
Sun Jan 14 21:18:19 PST 2018 ON: 19.99 +20.0 20.05 -15.7 27.1 16.9 31.2 8 9 Alarm State:  0
Sun Jan 14 21:17:18 PST 2018 ON: 20.00 +20.0 20.05 -15.7 27.1 16.9 31.2 8 9 Alarm State:  0
Sun Jan 14 21:16:16 PST 2018 ON: 20.00 +20.0 20.06 -15.5 27.4 16.7 31.3 7 9 Alarm State:  0
Sun Jan 14 21:15:15 PST 2018 ON: 19.99 +20.0 20.05 -15.5 27.5 16.6 31.3 8 10 Alarm State:  0
Sun Jan 14 21:14:13 PST 2018 ON: 19.99 +20.0 20.04 -15.7 27.2 16.8 31.2 8 10 Alarm State:  0
Sun Jan 14 21:13:12 PST 2018 ON: 19.99 +20.0 20.05 -15.5 27.4 16.7 31.3 7 10 Alarm State:  0
Sun Jan 14 21:12:10 PST 2018 ON: 19.99 +20.0 20.05 -15.6 27.3 16.8 31.3 8 10 Alarm State:  0
Sun Jan 14 21:11:09 PST 2018 ON: 19.98 +20.0 20.03 -15.3 27.8 16.4 31.4 7 10 Alarm State:  0
Sun Jan 14 21:10:07 PST 2018 ON: 20.00 +20.0 20.05 -15.9 26.9 17.0 31.1 8 9 Alarm State:  0
Sun Jan 14 21:09:06 PST 2018 ON: 20.00 +20.0 20.05 -15.7 27.1 16.9 31.2 8 9 Alarm State:  0
Sun Jan 14 21:08:04 PST 2018 ON: 20.00 +20.0 20.04 -15.3 27.7 16.5 31.4 7 10 Alarm State:  0
Sun Jan 14 21:07:03 PST 2018 ON: 19.99 +20.0 20.05 -15.6 27.3 16.8 31.3 8 9 Alarm State:  0
Sun Jan 14 21:06:01 PST 2018 ON: 20.00 +20.0 20.04 -15.5 27.4 16.7 31.1 7 10 Alarm State:  0
Sun Jan 14 21:05:00 PST 2018 ON: 19.99 +20.0 20.04 -15.3 27.7 16.5 31.3 7 10 Alarm State:  0
Sun Jan 14 21:03:58 PST 2018 ON: 20.00 +20.0 20.05 -15.9 26.9 17.0 31.0 8 9 Alarm State:  0
Sun Jan 14 21:02:57 PST 2018 ON: 20.00 +20.0 20.07 -16.2 26.4 17.3 30.4 8 9 Alarm State:  0
Sun Jan 14 21:01:55 PST 2018 ON: 19.99 +20.0 20.06 -15.9 26.9 17.0 31.3 7 9 Alarm State:  0
Sun Jan 14 21:00:54 PST 2018 ON: 20.00 +20.0 20.03 -15.5 27.4 16.7 31.3 8 10 Alarm State:  0
Sun Jan 14 20:59:52 PST 2018 ON: 20.00 +20.0 20.05 -15.5 27.4 16.7 31.4 7 10 Alarm State:  0
Sun Jan 14 20:58:51 PST 2018 ON: 20.00 +20.0 20.05 -15.4 27.6 16.5 31.5 7 10 Alarm State:  0
Sun Jan 14 20:57:49 PST 2018 ON: 19.99 +20.0 20.05 -15.7 27.1 16.9 31.2 8 10 Alarm State:  0
Sun Jan 14 20:56:48 PST 2018 ON: 19.99 +20.0 20.03 -15.5 27.5 16.6 31.3 7 10 Alarm State:  0
Sun Jan 14 20:55:46 PST 2018 ON: 20.00 +20.0 20.06 -15.7 27.1 16.9 31.2 8 9 Alarm State:  0
Sun Jan 14 20:54:45 PST 2018 ON: 19.99 +20.0 20.04 -15.7 27.1 16.9 31.2 7 10 Alarm State:  0
Sun Jan 14 20:53:43 PST 2018 ON: 20.00 +20.0 20.05 -16.1 26.5 17.3 31.0 8 9 Alarm State:  0
Sun Jan 14 20:52:42 PST 2018 ON: 19.99 +20.0 20.02 -15.3 27.8 16.4 31.4 7 11 Alarm State:  0
Sun Jan 14 20:51:40 PST 2018 ON: 20.00 +20.0 20.06 -15.5 27.5 16.6 31.3 7 9 Alarm State:  0
Sun Jan 14 20:50:39 PST 2018 ON: 19.99 +20.0 20.03 -15.5 27.4 16.7 31.2 8 11 Alarm State:  0
Sun Jan 14 20:49:37 PST 2018 ON: 19.99 +20.0 20.04 -15.7 27.1 16.9 31.2 8 10 Alarm State:  0
Sun Jan 14 20:48:36 PST 2018 ON: 20.00 +20.0 20.06 -15.9 26.8 17.1 31.2 7 9 Alarm State:  0
Sun Jan 14 20:47:34 PST 2018 ON: 20.00 +20.0 20.05 -15.4 27.6 16.5 31.3 8 10 Alarm State:  0
Sun Jan 14 20:46:33 PST 2018 ON: 19.99 +20.0 20.05 -15.4 27.6 16.5 31.3 7 10 Alarm State:  0
Sun Jan 14 20:45:31 PST 2018 ON: 19.99 +20.0 20.04 -15.6 27.3 16.8 31.3 8 9 Alarm State:  0
Sun Jan 14 20:44:30 PST 2018 ON: 20.00 +20.0 20.06 -15.8 27.0 16.9 31.2 8 9 Alarm State:  0
Sun Jan 14 20:43:28 PST 2018 ON: 19.99 +20.0 20.06 -15.7 27.2 16.8 31.2 7 9 Alarm State:  0
Sun Jan 14 20:42:27 PST 2018 ON: 19.99 +20.0 20.04 -15.5 27.5 16.6 31.3 7 10 Alarm State:  0
Sun Jan 14 20:41:25 PST 2018 ON: 20.00 +20.0 20.05 -15.7 27.2 16.8 31.2 8 9 Alarm State:  0
Sun Jan 14 20:40:24 PST 2018 ON: 19.99 +20.0 20.05 -15.9 26.9 17.0 31.1 7 10 Alarm State:  0
Sun Jan 14 20:39:22 PST 2018 ON: 19.99 +20.0 20.04 -15.6 27.3 16.8 31.3 8 9 Alarm State:  0
Sun Jan 14 20:38:21 PST 2018 ON: 20.00 +20.0 20.04 -15.6 27.3 16.8 31.2 7 10 Alarm State:  0
Sun Jan 14 20:37:19 PST 2018 ON: 19.99 +20.0 20.05 -15.7 27.1 16.9 31.1 8 10 Alarm State:  0
Sun Jan 14 20:36:18 PST 2018 ON: 19.99 +20.0 20.04 -15.5 27.4 16.7 31.3 8 10 Alarm State:  0
Sun Jan 14 20:35:16 PST 2018 ON: 20.00 +20.0 20.06 -15.9 26.8 17.1 31.1 8 9 Alarm State:  0
Sun Jan 14 20:34:15 PST 2018 ON: 19.99 +20.0 20.05 -15.4 27.6 16.5 31.3 7 10 Alarm State:  0
Sun Jan 14 20:33:13 PST 2018 ON: 19.99 +20.0 20.04 -15.7 27.2 16.8 31.3 8 10 Alarm State:  0
Sun Jan 14 20:32:12 PST 2018 ON: 19.99 +20.0 20.03 -15.7 27.2 16.8 31.2 7 10 Alarm State:  0
Sun Jan 14 20:31:10 PST 2018 ON: 19.99 +20.0 20.05 -15.6 27.3 16.8 31.3 8 9 Alarm State:  0
Sun Jan 14 20:30:09 PST 2018 ON: 20.00 +20.0 20.05 -15.5 27.4 16.7 31.3 7 10 Alarm State:  0
Sun Jan 14 20:29:07 PST 2018 ON: 19.99 +20.0 20.04 -15.5 27.4 16.7 31.2 8 10 Alarm State:  0
Sun Jan 14 20:28:06 PST 2018 ON: 19.99 +20.0 20.03 -15.5 27.4 16.7 31.3 8 10 Alarm State:  0
Sun Jan 14 20:27:04 PST 2018 ON: 20.00 +20.0 20.04 -15.9 26.9 17.0 31.2 7 10 Alarm State:  0
Sun Jan 14 20:26:03 PST 2018 ON: 20.00 +20.0 20.06 -15.6 27.3 16.8 31.3 8 9 Alarm State:  0
Sun Jan 14 20:25:01 PST 2018 ON: 19.99 +20.0 20.05 -15.5 27.5 16.6 31.3 7 10 Alarm State:  0
Sun Jan 14 20:24:00 PST 2018 ON: 19.99 +20.0 20.05 -15.9 26.9 17.0 31.2 7 9 Alarm State:  0
Sun Jan 14 20:22:58 PST 2018 ON: 20.00 +20.0 20.04 -15.7 27.2 16.8 31.2 8 9 Alarm State:  0
Sun Jan 14 20:21:57 PST 2018 ON: 20.00 +20.0 20.06 -15.5 27.4 16.7 31.2 7 9 Alarm State:  0
Sun Jan 14 20:20:55 PST 2018 ON: 19.99 +20.0 20.04 -15.9 26.9 17.0 31.2 8 10 Alarm State:  0
Sun Jan 14 20:19:54 PST 2018 ON: 20.00 +20.0 20.05 -15.7 27.1 16.9 31.2 8 9 Alarm State:  0
Sun Jan 14 20:18:52 PST 2018 ON: 19.99 +20.0 20.05 -15.6 27.3 16.8 31.3 7 10 Alarm State:  0
Sun Jan 14 20:17:51 PST 2018 ON: 19.99 +20.0 20.03 -15.5 27.4 16.7 31.3 7 10 Alarm State:  0
Sun Jan 14 20:16:49 PST 2018 ON: 20.01 +20.0 20.04 -15.7 27.1 16.9 31.2 8 10 Alarm State:  0
Sun Jan 14 20:15:48 PST 2018 ON: 20.00 +20.0 20.06 -15.8 27.0 16.9 31.2 7 9 Alarm State:  0
Sun Jan 14 20:14:46 PST 2018 ON: 19.98 +20.0 20.04 -15.4 27.6 16.5 31.4 8 10 Alarm State:  0
Sun Jan 14 20:13:45 PST 2018 ON: 19.99 +20.0 20.03 -15.5 27.5 16.6 31.3 7 10 Alarm State:  0
Sun Jan 14 20:12:43 PST 2018 ON: 20.00 +20.0 20.06 -15.9 26.8 17.1 31.1 7 9 Alarm State:  0
Sun Jan 14 20:11:42 PST 2018 ON: 20.00 +20.0 20.05 -15.8 27.0 16.9 31.2 8 10 Alarm State:  0
Sun Jan 14 20:10:40 PST 2018 ON: 19.99 +20.0 20.03 -15.6 27.3 16.8 31.3 8 11 Alarm State:  0
Sun Jan 14 20:09:39 PST 2018 ON: 19.99 +20.0 20.04 -15.6 27.3 16.8 31.3 8 9 Alarm State:  0
Sun Jan 14 20:08:37 PST 2018 ON: 20.00 +20.0 20.05 -15.7 27.1 16.9 31.2 8 9 Alarm State:  0
Sun Jan 14 20:07:36 PST 2018 ON: 20.00 +20.0 20.05 -15.5 27.4 16.7 31.3 7 10 Alarm State:  0
Sun Jan 14 20:06:35 PST 2018 ON: 19.99 +20.0 20.04 -15.5 27.4 16.7 31.3 8 11 Alarm State:  0
Sun Jan 14 20:05:33 PST 2018 ON: 19.99 +20.0 20.05 -15.7 27.2 16.8 31.2 7 9 Alarm State:  0
Sun Jan 14 20:04:32 PST 2018 ON: 20.00 +20.0 20.04 -15.7 27.2 16.8 31.2 7 10 Alarm State:  0
Sun Jan 14 20:03:30 PST 2018 ON: 20.00 +20.0 20.06 -15.5 27.4 16.7 31.3 8 9 Alarm State:  0
Sun Jan 14 20:02:29 PST 2018 ON: 19.99 +20.0 20.04 -15.7 27.2 16.8 31.3 8 10 Alarm State:  0
Sun Jan 14 20:01:27 PST 2018 ON: 19.98 +20.0 20.05 -15.5 27.4 16.7 31.3 8 9 Alarm State:  0
Sun Jan 14 20:00:26 PST 2018 ON: 20.00 +20.0 20.04 -15.8 27.0 16.9 31.2 8 9 Alarm State:  0
Sun Jan 14 19:59:24 PST 2018 ON: 20.00 +20.0 20.06 -16.1 26.5 17.3 31.1 8 9 Alarm State:  0
Sun Jan 14 19:58:22 PST 2018 ON: 20.00 +20.0 20.06 -15.6 27.3 16.8 31.3 8 9 Alarm State:  0
Sun Jan 14 19:57:21 PST 2018 ON: 19.99 +20.0 20.05 -15.2 27.9 16.3 31.4 7 10 Alarm State:  0
Sun Jan 14 19:56:19 PST 2018 ON: 19.98 +20.0 20.04 -15.3 27.7 16.5 31.3 7 10 Alarm State:  0
Sun Jan 14 19:55:18 PST 2018 ON: 19.99 +20.0 20.04 -15.9 26.9 17.0 31.2 8 9 Alarm State:  0
Sun Jan 14 19:54:17 PST 2018 ON: 20.00 +20.0 20.06 -15.7 27.2 16.8 31.3 8 9 Alarm State:  0
Sun Jan 14 19:53:15 PST 2018 ON: 20.00 +20.0 20.06 -15.7 27.1 16.9 31.2 8 9 Alarm State:  0
Sun Jan 14 19:52:14 PST 2018 ON: 20.00 +20.0 20.06 -15.5 27.5 16.6 31.3 8 9 Alarm State:  0
Sun Jan 14 19:51:12 PST 2018 ON: 19.99 +20.0 20.04 -15.6 27.3 16.8 31.3 7 10 Alarm State:  0
Sun Jan 14 19:50:11 PST 2018 ON: 20.00 +20.0 20.05 -15.8 27.0 16.9 31.2 8 9 Alarm State:  0
Sun Jan 14 19:49:09 PST 2018 ON: 20.00 +20.0 20.04 -15.7 27.1 16.9 31.2 7 10 Alarm State:  0
Sun Jan 14 19:48:08 PST 2018 ON: 20.00 +20.0 20.06 -15.6 27.3 16.8 31.3 7 9 Alarm State:  0
Sun Jan 14 19:47:06 PST 2018 ON: 19.99 +20.0 20.03 -15.7 27.2 16.8 31.3 8 10 Alarm State:  0
Sun Jan 14 19:46:05 PST 2018 ON: 20.00 +20.0 20.04 -15.7 27.1 16.9 31.2 8 9 Alarm State:  0
Sun Jan 14 19:45:03 PST 2018 ON: 20.00 +20.0 20.06 -15.9 26.9 17.0 31.1 8 9 Alarm State:  0
Sun Jan 14 19:44:02 PST 2018 ON: 20.00 +20.0 20.06 -15.7 27.1 16.9 31.2 8 9 Alarm State:  0
Sun Jan 14 19:43:00 PST 2018 ON: 19.99 +20.0 20.05 -15.6 27.3 16.8 31.3 7 9 Alarm State:  0
Sun Jan 14 19:41:59 PST 2018 ON: 20.00 +20.0 20.05 -15.6 27.3 16.8 31.3 7 9 Alarm State:  0